<?xml version="1.0" encoding="UTF-8" standalone="no" ?>
<gpx xmlns="http://www.topografix.com/GPX/1/1" xmlns:xsi="http://www.w3.org/2001/XMLSchema-instance" xsi:schemaLocation="http://www.topografix.com/GPX/1/1 http://www.topografix.com/GPX/1/1/gpx.xsd" version="1.1" creator="VisuGPX - https://www.visugpx.com">
  <metadata>
    <name>83-D-Cogolin</name>
    <desc><![CDATA[83-D-Cogolin : le tour de Montjean]]></desc>
  </metadata>
  <trk>
    <name><![CDATA[2016-11-13-D-cogolin]]></name>
    <trkseg>
      <trkpt lat="43.23724" lon="6.54199">
        <ele>9.9</ele>
        <time>2016-11-13T08:10:48Z</time>
      </trkpt>
      <trkpt lat="43.23724" lon="6.54199">
        <ele>9.9</ele>
        <time>2016-11-13T08:10:49Z</time>
      </trkpt>
      <trkpt lat="43.23716" lon="6.54191">
        <ele>8.7</ele>
        <time>2016-11-13T08:12:42Z</time>
      </trkpt>
      <trkpt lat="43.23707" lon="6.54195">
        <ele>8.4</ele>
        <time>2016-11-13T08:13:11Z</time>
      </trkpt>
      <trkpt lat="43.23699" lon="6.54204">
        <ele>8.6</ele>
        <time>2016-11-13T08:13:51Z</time>
      </trkpt>
      <trkpt lat="43.23693" lon="6.54213">
        <ele>8.9</ele>
        <time>2016-11-13T08:14:00Z</time>
      </trkpt>
      <trkpt lat="43.23684" lon="6.54218">
        <ele>9.2</ele>
        <time>2016-11-13T08:14:08Z</time>
      </trkpt>
      <trkpt lat="43.23677" lon="6.54226">
        <ele>9.6</ele>
        <time>2016-11-13T08:14:18Z</time>
      </trkpt>
      <trkpt lat="43.23672" lon="6.54237">
        <ele>10</ele>
        <time>2016-11-13T08:14:28Z</time>
      </trkpt>
      <trkpt lat="43.23663" lon="6.54243">
        <ele>10.1</ele>
        <time>2016-11-13T08:14:38Z</time>
      </trkpt>
      <trkpt lat="43.23655" lon="6.54249">
        <ele>10.6</ele>
        <time>2016-11-13T08:14:49Z</time>
      </trkpt>
      <trkpt lat="43.23647" lon="6.54256">
        <ele>11</ele>
        <time>2016-11-13T08:14:56Z</time>
      </trkpt>
      <trkpt lat="43.23639" lon="6.54265">
        <ele>11.4</ele>
        <time>2016-11-13T08:15:05Z</time>
      </trkpt>
      <trkpt lat="43.23634" lon="6.54276">
        <ele>12.1</ele>
        <time>2016-11-13T08:15:14Z</time>
      </trkpt>
      <trkpt lat="43.23626" lon="6.54285">
        <ele>12.7</ele>
        <time>2016-11-13T08:15:23Z</time>
      </trkpt>
      <trkpt lat="43.2362" lon="6.54294">
        <ele>13</ele>
        <time>2016-11-13T08:15:31Z</time>
      </trkpt>
      <trkpt lat="43.23614" lon="6.54304">
        <ele>13.3</ele>
        <time>2016-11-13T08:15:39Z</time>
      </trkpt>
      <trkpt lat="43.23608" lon="6.54315">
        <ele>13.8</ele>
        <time>2016-11-13T08:15:47Z</time>
      </trkpt>
      <trkpt lat="43.23603" lon="6.54325">
        <ele>14.4</ele>
        <time>2016-11-13T08:15:55Z</time>
      </trkpt>
      <trkpt lat="43.23596" lon="6.54334">
        <ele>15.1</ele>
        <time>2016-11-13T08:16:04Z</time>
      </trkpt>
      <trkpt lat="43.23591" lon="6.54344">
        <ele>15.6</ele>
        <time>2016-11-13T08:16:12Z</time>
      </trkpt>
      <trkpt lat="43.23585" lon="6.54354">
        <ele>16.5</ele>
        <time>2016-11-13T08:16:20Z</time>
      </trkpt>
      <trkpt lat="43.23578" lon="6.54365">
        <ele>17.3</ele>
        <time>2016-11-13T08:16:28Z</time>
      </trkpt>
      <trkpt lat="43.23573" lon="6.54375">
        <ele>18.1</ele>
        <time>2016-11-13T08:16:35Z</time>
      </trkpt>
      <trkpt lat="43.23567" lon="6.54385">
        <ele>19</ele>
        <time>2016-11-13T08:16:43Z</time>
      </trkpt>
      <trkpt lat="43.2356" lon="6.54393">
        <ele>19.8</ele>
        <time>2016-11-13T08:16:50Z</time>
      </trkpt>
      <trkpt lat="43.23552" lon="6.54402">
        <ele>20.4</ele>
        <time>2016-11-13T08:16:58Z</time>
      </trkpt>
      <trkpt lat="43.23546" lon="6.54411">
        <ele>20.9</ele>
        <time>2016-11-13T08:17:05Z</time>
      </trkpt>
      <trkpt lat="43.2354" lon="6.54422">
        <ele>21.4</ele>
        <time>2016-11-13T08:17:13Z</time>
      </trkpt>
      <trkpt lat="43.23534" lon="6.54433">
        <ele>22.1</ele>
        <time>2016-11-13T08:17:23Z</time>
      </trkpt>
      <trkpt lat="43.23526" lon="6.5444">
        <ele>22.9</ele>
        <time>2016-11-13T08:17:32Z</time>
      </trkpt>
      <trkpt lat="43.23517" lon="6.54445">
        <ele>23.7</ele>
        <time>2016-11-13T08:17:41Z</time>
      </trkpt>
      <trkpt lat="43.23508" lon="6.54451">
        <ele>24.7</ele>
        <time>2016-11-13T08:17:49Z</time>
      </trkpt>
      <trkpt lat="43.235" lon="6.54457">
        <ele>25.8</ele>
        <time>2016-11-13T08:17:59Z</time>
      </trkpt>
      <trkpt lat="43.23491" lon="6.54459">
        <ele>26.8</ele>
        <time>2016-11-13T08:18:07Z</time>
      </trkpt>
      <trkpt lat="43.23482" lon="6.5446">
        <ele>27.6</ele>
        <time>2016-11-13T08:18:15Z</time>
      </trkpt>
      <trkpt lat="43.23473" lon="6.54461">
        <ele>28</ele>
        <time>2016-11-13T08:18:20Z</time>
      </trkpt>
      <trkpt lat="43.23464" lon="6.54463">
        <ele>28.4</ele>
        <time>2016-11-13T08:18:27Z</time>
      </trkpt>
      <trkpt lat="43.23453" lon="6.54468">
        <ele>28.7</ele>
        <time>2016-11-13T08:18:38Z</time>
      </trkpt>
      <trkpt lat="43.23443" lon="6.5447">
        <ele>28.7</ele>
        <time>2016-11-13T08:18:46Z</time>
      </trkpt>
      <trkpt lat="43.23434" lon="6.54474">
        <ele>28.6</ele>
        <time>2016-11-13T08:18:54Z</time>
      </trkpt>
      <trkpt lat="43.23424" lon="6.5448">
        <ele>28.5</ele>
        <time>2016-11-13T08:19:02Z</time>
      </trkpt>
      <trkpt lat="43.23415" lon="6.54483">
        <ele>28.4</ele>
        <time>2016-11-13T08:19:08Z</time>
      </trkpt>
      <trkpt lat="43.23406" lon="6.54486">
        <ele>28.1</ele>
        <time>2016-11-13T08:19:15Z</time>
      </trkpt>
      <trkpt lat="43.23397" lon="6.5449">
        <ele>27.6</ele>
        <time>2016-11-13T08:19:25Z</time>
      </trkpt>
      <trkpt lat="43.23387" lon="6.54493">
        <ele>27.3</ele>
        <time>2016-11-13T08:19:33Z</time>
      </trkpt>
      <trkpt lat="43.23378" lon="6.54496">
        <ele>26.9</ele>
        <time>2016-11-13T08:19:42Z</time>
      </trkpt>
      <trkpt lat="43.23369" lon="6.54498">
        <ele>26.8</ele>
        <time>2016-11-13T08:19:48Z</time>
      </trkpt>
      <trkpt lat="43.2336" lon="6.54503">
        <ele>26.7</ele>
        <time>2016-11-13T08:19:56Z</time>
      </trkpt>
      <trkpt lat="43.23352" lon="6.54506">
        <ele>26.6</ele>
        <time>2016-11-13T08:20:02Z</time>
      </trkpt>
      <trkpt lat="43.23343" lon="6.54512">
        <ele>26.5</ele>
        <time>2016-11-13T08:20:10Z</time>
      </trkpt>
      <trkpt lat="43.23334" lon="6.54517">
        <ele>26.5</ele>
        <time>2016-11-13T08:20:17Z</time>
      </trkpt>
      <trkpt lat="43.23326" lon="6.54523">
        <ele>26.6</ele>
        <time>2016-11-13T08:20:25Z</time>
      </trkpt>
      <trkpt lat="43.23318" lon="6.54529">
        <ele>27</ele>
        <time>2016-11-13T08:20:32Z</time>
      </trkpt>
      <trkpt lat="43.23311" lon="6.54538">
        <ele>27.2</ele>
        <time>2016-11-13T08:20:40Z</time>
      </trkpt>
      <trkpt lat="43.23305" lon="6.5455">
        <ele>27.4</ele>
        <time>2016-11-13T08:20:49Z</time>
      </trkpt>
      <trkpt lat="43.23299" lon="6.5456">
        <ele>27.5</ele>
        <time>2016-11-13T08:20:57Z</time>
      </trkpt>
      <trkpt lat="43.23291" lon="6.54566">
        <ele>27.6</ele>
        <time>2016-11-13T08:21:05Z</time>
      </trkpt>
      <trkpt lat="43.23285" lon="6.54577">
        <ele>28.1</ele>
        <time>2016-11-13T08:21:14Z</time>
      </trkpt>
      <trkpt lat="43.2328" lon="6.54588">
        <ele>28.8</ele>
        <time>2016-11-13T08:21:22Z</time>
      </trkpt>
      <trkpt lat="43.23277" lon="6.546">
        <ele>29.6</ele>
        <time>2016-11-13T08:21:31Z</time>
      </trkpt>
      <trkpt lat="43.23271" lon="6.54611">
        <ele>30.4</ele>
        <time>2016-11-13T08:21:40Z</time>
      </trkpt>
      <trkpt lat="43.23264" lon="6.5462">
        <ele>31.1</ele>
        <time>2016-11-13T08:21:51Z</time>
      </trkpt>
      <trkpt lat="43.23256" lon="6.54625">
        <ele>31.8</ele>
        <time>2016-11-13T08:22:00Z</time>
      </trkpt>
      <trkpt lat="43.23247" lon="6.54625">
        <ele>32.6</ele>
        <time>2016-11-13T08:22:09Z</time>
      </trkpt>
      <trkpt lat="43.23238" lon="6.54629">
        <ele>33.9</ele>
        <time>2016-11-13T08:22:20Z</time>
      </trkpt>
      <trkpt lat="43.23228" lon="6.54628">
        <ele>34.7</ele>
        <time>2016-11-13T08:22:28Z</time>
      </trkpt>
      <trkpt lat="43.23219" lon="6.54627">
        <ele>35.6</ele>
        <time>2016-11-13T08:22:36Z</time>
      </trkpt>
      <trkpt lat="43.2321" lon="6.5463">
        <ele>37.1</ele>
        <time>2016-11-13T08:22:49Z</time>
      </trkpt>
      <trkpt lat="43.232" lon="6.54632">
        <ele>38.2</ele>
        <time>2016-11-13T08:23:00Z</time>
      </trkpt>
      <trkpt lat="43.23191" lon="6.54638">
        <ele>39.5</ele>
        <time>2016-11-13T08:23:11Z</time>
      </trkpt>
      <trkpt lat="43.23183" lon="6.54644">
        <ele>40.7</ele>
        <time>2016-11-13T08:23:20Z</time>
      </trkpt>
      <trkpt lat="43.23176" lon="6.54653">
        <ele>41.7</ele>
        <time>2016-11-13T08:23:28Z</time>
      </trkpt>
      <trkpt lat="43.23168" lon="6.5466">
        <ele>42.7</ele>
        <time>2016-11-13T08:23:37Z</time>
      </trkpt>
      <trkpt lat="43.23159" lon="6.54665">
        <ele>43.6</ele>
        <time>2016-11-13T08:23:45Z</time>
      </trkpt>
      <trkpt lat="43.23153" lon="6.54674">
        <ele>44.7</ele>
        <time>2016-11-13T08:23:55Z</time>
      </trkpt>
      <trkpt lat="43.23146" lon="6.54683">
        <ele>45.7</ele>
        <time>2016-11-13T08:24:06Z</time>
      </trkpt>
      <trkpt lat="43.2314" lon="6.54692">
        <ele>47</ele>
        <time>2016-11-13T08:24:20Z</time>
      </trkpt>
      <trkpt lat="43.23133" lon="6.54701">
        <ele>48.5</ele>
        <time>2016-11-13T08:24:35Z</time>
      </trkpt>
      <trkpt lat="43.2313" lon="6.54713">
        <ele>49.8</ele>
        <time>2016-11-13T08:24:49Z</time>
      </trkpt>
      <trkpt lat="43.23133" lon="6.54724">
        <ele>50.7</ele>
        <time>2016-11-13T08:24:56Z</time>
      </trkpt>
      <trkpt lat="43.23137" lon="6.54735">
        <ele>51.6</ele>
        <time>2016-11-13T08:25:04Z</time>
      </trkpt>
      <trkpt lat="43.23145" lon="6.54743">
        <ele>52.5</ele>
        <time>2016-11-13T08:25:14Z</time>
      </trkpt>
      <trkpt lat="43.23155" lon="6.54742">
        <ele>53</ele>
        <time>2016-11-13T08:25:22Z</time>
      </trkpt>
      <trkpt lat="43.23164" lon="6.54741">
        <ele>53.7</ele>
        <time>2016-11-13T08:25:32Z</time>
      </trkpt>
      <trkpt lat="43.23173" lon="6.54742">
        <ele>55.1</ele>
        <time>2016-11-13T08:25:51Z</time>
      </trkpt>
      <trkpt lat="43.23181" lon="6.54747">
        <ele>55.6</ele>
        <time>2016-11-13T08:26:04Z</time>
      </trkpt>
      <trkpt lat="43.23189" lon="6.54756">
        <ele>56.4</ele>
        <time>2016-11-13T08:26:15Z</time>
      </trkpt>
      <trkpt lat="43.23195" lon="6.54766">
        <ele>57.1</ele>
        <time>2016-11-13T08:26:29Z</time>
      </trkpt>
      <trkpt lat="43.232" lon="6.54778">
        <ele>58</ele>
        <time>2016-11-13T08:26:42Z</time>
      </trkpt>
      <trkpt lat="43.23201" lon="6.54791">
        <ele>59.1</ele>
        <time>2016-11-13T08:26:59Z</time>
      </trkpt>
      <trkpt lat="43.23198" lon="6.54803">
        <ele>59.5</ele>
        <time>2016-11-13T08:27:07Z</time>
      </trkpt>
      <trkpt lat="43.23191" lon="6.54812">
        <ele>59.9</ele>
        <time>2016-11-13T08:27:16Z</time>
      </trkpt>
      <trkpt lat="43.23182" lon="6.54818">
        <ele>60.2</ele>
        <time>2016-11-13T08:27:25Z</time>
      </trkpt>
      <trkpt lat="43.23174" lon="6.54827">
        <ele>60.7</ele>
        <time>2016-11-13T08:27:34Z</time>
      </trkpt>
      <trkpt lat="43.23165" lon="6.54831">
        <ele>61.1</ele>
        <time>2016-11-13T08:27:43Z</time>
      </trkpt>
      <trkpt lat="43.23156" lon="6.54833">
        <ele>61.9</ele>
        <time>2016-11-13T08:27:53Z</time>
      </trkpt>
      <trkpt lat="43.23146" lon="6.5483">
        <ele>62.3</ele>
        <time>2016-11-13T08:28:01Z</time>
      </trkpt>
      <trkpt lat="43.23137" lon="6.54834">
        <ele>62.9</ele>
        <time>2016-11-13T08:28:09Z</time>
      </trkpt>
      <trkpt lat="43.23127" lon="6.54838">
        <ele>63.7</ele>
        <time>2016-11-13T08:28:20Z</time>
      </trkpt>
      <trkpt lat="43.23118" lon="6.54843">
        <ele>64.1</ele>
        <time>2016-11-13T08:28:27Z</time>
      </trkpt>
      <trkpt lat="43.23109" lon="6.54848">
        <ele>64.5</ele>
        <time>2016-11-13T08:28:49Z</time>
      </trkpt>
      <trkpt lat="43.23102" lon="6.54856">
        <ele>64.5</ele>
        <time>2016-11-13T08:28:57Z</time>
      </trkpt>
      <trkpt lat="43.23095" lon="6.54866">
        <ele>64.6</ele>
        <time>2016-11-13T08:29:06Z</time>
      </trkpt>
      <trkpt lat="43.23088" lon="6.54874">
        <ele>64.6</ele>
        <time>2016-11-13T08:29:12Z</time>
      </trkpt>
      <trkpt lat="43.2308" lon="6.54881">
        <ele>64.6</ele>
        <time>2016-11-13T08:29:19Z</time>
      </trkpt>
      <trkpt lat="43.23074" lon="6.5489">
        <ele>64.6</ele>
        <time>2016-11-13T08:29:27Z</time>
      </trkpt>
      <trkpt lat="43.23067" lon="6.54899">
        <ele>64.6</ele>
        <time>2016-11-13T08:29:35Z</time>
      </trkpt>
      <trkpt lat="43.23063" lon="6.54911">
        <ele>64.7</ele>
        <time>2016-11-13T08:29:43Z</time>
      </trkpt>
      <trkpt lat="43.23058" lon="6.54921">
        <ele>64.9</ele>
        <time>2016-11-13T08:29:51Z</time>
      </trkpt>
      <trkpt lat="43.23052" lon="6.54931">
        <ele>65.4</ele>
        <time>2016-11-13T08:30:00Z</time>
      </trkpt>
      <trkpt lat="43.23043" lon="6.54937">
        <ele>65.8</ele>
        <time>2016-11-13T08:30:07Z</time>
      </trkpt>
      <trkpt lat="43.23034" lon="6.54943">
        <ele>66.2</ele>
        <time>2016-11-13T08:30:18Z</time>
      </trkpt>
      <trkpt lat="43.23027" lon="6.54953">
        <ele>66.2</ele>
        <time>2016-11-13T08:30:48Z</time>
      </trkpt>
      <trkpt lat="43.23019" lon="6.54957">
        <ele>65.7</ele>
        <time>2016-11-13T08:30:58Z</time>
      </trkpt>
      <trkpt lat="43.2301" lon="6.54961">
        <ele>65</ele>
        <time>2016-11-13T08:31:05Z</time>
      </trkpt>
      <trkpt lat="43.23001" lon="6.54964">
        <ele>64</ele>
        <time>2016-11-13T08:31:14Z</time>
      </trkpt>
      <trkpt lat="43.22992" lon="6.54968">
        <ele>63.5</ele>
        <time>2016-11-13T08:31:22Z</time>
      </trkpt>
      <trkpt lat="43.22982" lon="6.54971">
        <ele>63.1</ele>
        <time>2016-11-13T08:31:29Z</time>
      </trkpt>
      <trkpt lat="43.22974" lon="6.54979">
        <ele>62.7</ele>
        <time>2016-11-13T08:31:37Z</time>
      </trkpt>
      <trkpt lat="43.22965" lon="6.54985">
        <ele>62.7</ele>
        <time>2016-11-13T08:31:47Z</time>
      </trkpt>
      <trkpt lat="43.22957" lon="6.54991">
        <ele>62.6</ele>
        <time>2016-11-13T08:31:55Z</time>
      </trkpt>
      <trkpt lat="43.22948" lon="6.54993">
        <ele>62.4</ele>
        <time>2016-11-13T08:32:06Z</time>
      </trkpt>
      <trkpt lat="43.22938" lon="6.54997">
        <ele>62.5</ele>
        <time>2016-11-13T08:32:15Z</time>
      </trkpt>
      <trkpt lat="43.22928" lon="6.55001">
        <ele>62.8</ele>
        <time>2016-11-13T08:32:23Z</time>
      </trkpt>
      <trkpt lat="43.22919" lon="6.55005">
        <ele>63.3</ele>
        <time>2016-11-13T08:32:33Z</time>
      </trkpt>
      <trkpt lat="43.22909" lon="6.55007">
        <ele>63.7</ele>
        <time>2016-11-13T08:32:41Z</time>
      </trkpt>
      <trkpt lat="43.22901" lon="6.55011">
        <ele>64.4</ele>
        <time>2016-11-13T08:32:48Z</time>
      </trkpt>
      <trkpt lat="43.22894" lon="6.55019">
        <ele>65.3</ele>
        <time>2016-11-13T08:32:59Z</time>
      </trkpt>
      <trkpt lat="43.22885" lon="6.55021">
        <ele>66</ele>
        <time>2016-11-13T08:33:08Z</time>
      </trkpt>
      <trkpt lat="43.22874" lon="6.55023">
        <ele>66.9</ele>
        <time>2016-11-13T08:33:17Z</time>
      </trkpt>
      <trkpt lat="43.22865" lon="6.55024">
        <ele>68</ele>
        <time>2016-11-13T08:33:26Z</time>
      </trkpt>
      <trkpt lat="43.22856" lon="6.55028">
        <ele>68.8</ele>
        <time>2016-11-13T08:33:33Z</time>
      </trkpt>
      <trkpt lat="43.22847" lon="6.55026">
        <ele>70.1</ele>
        <time>2016-11-13T08:33:50Z</time>
      </trkpt>
      <trkpt lat="43.22839" lon="6.55019">
        <ele>70.5</ele>
        <time>2016-11-13T08:34:00Z</time>
      </trkpt>
      <trkpt lat="43.22831" lon="6.55011">
        <ele>70.7</ele>
        <time>2016-11-13T08:34:10Z</time>
      </trkpt>
      <trkpt lat="43.22823" lon="6.55005">
        <ele>70.9</ele>
        <time>2016-11-13T08:34:18Z</time>
      </trkpt>
      <trkpt lat="43.22814" lon="6.55002">
        <ele>71.2</ele>
        <time>2016-11-13T08:34:29Z</time>
      </trkpt>
      <trkpt lat="43.22805" lon="6.55007">
        <ele>71.4</ele>
        <time>2016-11-13T08:34:38Z</time>
      </trkpt>
      <trkpt lat="43.22799" lon="6.54998">
        <ele>71.9</ele>
        <time>2016-11-13T08:36:20Z</time>
      </trkpt>
      <trkpt lat="43.22791" lon="6.54991">
        <ele>72.2</ele>
        <time>2016-11-13T08:36:33Z</time>
      </trkpt>
      <trkpt lat="43.22782" lon="6.54986">
        <ele>72.8</ele>
        <time>2016-11-13T08:36:45Z</time>
      </trkpt>
      <trkpt lat="43.22774" lon="6.54982">
        <ele>73.2</ele>
        <time>2016-11-13T08:36:53Z</time>
      </trkpt>
      <trkpt lat="43.22766" lon="6.54975">
        <ele>73.5</ele>
        <time>2016-11-13T08:37:00Z</time>
      </trkpt>
      <trkpt lat="43.22757" lon="6.5497">
        <ele>73.8</ele>
        <time>2016-11-13T08:37:10Z</time>
      </trkpt>
      <trkpt lat="43.22747" lon="6.54967">
        <ele>74</ele>
        <time>2016-11-13T08:37:18Z</time>
      </trkpt>
      <trkpt lat="43.22738" lon="6.54967">
        <ele>74.1</ele>
        <time>2016-11-13T08:37:24Z</time>
      </trkpt>
      <trkpt lat="43.22728" lon="6.54968">
        <ele>74.2</ele>
        <time>2016-11-13T08:37:31Z</time>
      </trkpt>
      <trkpt lat="43.22719" lon="6.54969">
        <ele>74.3</ele>
        <time>2016-11-13T08:37:38Z</time>
      </trkpt>
      <trkpt lat="43.22709" lon="6.54971">
        <ele>74.4</ele>
        <time>2016-11-13T08:37:46Z</time>
      </trkpt>
      <trkpt lat="43.227" lon="6.54968">
        <ele>74.6</ele>
        <time>2016-11-13T08:37:52Z</time>
      </trkpt>
      <trkpt lat="43.22691" lon="6.54966">
        <ele>74.9</ele>
        <time>2016-11-13T08:37:59Z</time>
      </trkpt>
      <trkpt lat="43.22682" lon="6.54966">
        <ele>75.1</ele>
        <time>2016-11-13T08:38:07Z</time>
      </trkpt>
      <trkpt lat="43.22672" lon="6.54963">
        <ele>75.2</ele>
        <time>2016-11-13T08:38:15Z</time>
      </trkpt>
      <trkpt lat="43.22664" lon="6.54956">
        <ele>75.3</ele>
        <time>2016-11-13T08:38:24Z</time>
      </trkpt>
      <trkpt lat="43.22657" lon="6.54947">
        <ele>75.4</ele>
        <time>2016-11-13T08:38:32Z</time>
      </trkpt>
      <trkpt lat="43.22649" lon="6.54939">
        <ele>75.7</ele>
        <time>2016-11-13T08:38:40Z</time>
      </trkpt>
      <trkpt lat="43.22643" lon="6.54928">
        <ele>76.2</ele>
        <time>2016-11-13T08:38:51Z</time>
      </trkpt>
      <trkpt lat="43.22637" lon="6.54919">
        <ele>76.4</ele>
        <time>2016-11-13T08:38:59Z</time>
      </trkpt>
      <trkpt lat="43.2263" lon="6.54908">
        <ele>76.9</ele>
        <time>2016-11-13T08:39:10Z</time>
      </trkpt>
      <trkpt lat="43.22622" lon="6.549">
        <ele>77.1</ele>
        <time>2016-11-13T08:39:20Z</time>
      </trkpt>
      <trkpt lat="43.22615" lon="6.54892">
        <ele>77.5</ele>
        <time>2016-11-13T08:39:26Z</time>
      </trkpt>
      <trkpt lat="43.22608" lon="6.54884">
        <ele>77.8</ele>
        <time>2016-11-13T08:39:34Z</time>
      </trkpt>
      <trkpt lat="43.22602" lon="6.54874">
        <ele>78.2</ele>
        <time>2016-11-13T08:39:42Z</time>
      </trkpt>
      <trkpt lat="43.22594" lon="6.54867">
        <ele>78.8</ele>
        <time>2016-11-13T08:39:51Z</time>
      </trkpt>
      <trkpt lat="43.22588" lon="6.54857">
        <ele>79.2</ele>
        <time>2016-11-13T08:40:01Z</time>
      </trkpt>
      <trkpt lat="43.22586" lon="6.54844">
        <ele>79.9</ele>
        <time>2016-11-13T08:40:10Z</time>
      </trkpt>
      <trkpt lat="43.22585" lon="6.54831">
        <ele>80.6</ele>
        <time>2016-11-13T08:40:20Z</time>
      </trkpt>
      <trkpt lat="43.2258" lon="6.54821">
        <ele>81.5</ele>
        <time>2016-11-13T08:40:31Z</time>
      </trkpt>
      <trkpt lat="43.22572" lon="6.54815">
        <ele>81.9</ele>
        <time>2016-11-13T08:40:37Z</time>
      </trkpt>
      <trkpt lat="43.22566" lon="6.54806">
        <ele>82.4</ele>
        <time>2016-11-13T08:40:45Z</time>
      </trkpt>
      <trkpt lat="43.22558" lon="6.54798">
        <ele>83.2</ele>
        <time>2016-11-13T08:40:53Z</time>
      </trkpt>
      <trkpt lat="43.22552" lon="6.54787">
        <ele>84.1</ele>
        <time>2016-11-13T08:41:03Z</time>
      </trkpt>
      <trkpt lat="43.22546" lon="6.54776">
        <ele>84.8</ele>
        <time>2016-11-13T08:41:12Z</time>
      </trkpt>
      <trkpt lat="43.22538" lon="6.54769">
        <ele>85.3</ele>
        <time>2016-11-13T08:41:19Z</time>
      </trkpt>
      <trkpt lat="43.22534" lon="6.54757">
        <ele>85.7</ele>
        <time>2016-11-13T08:41:28Z</time>
      </trkpt>
      <trkpt lat="43.2253" lon="6.54746">
        <ele>86.4</ele>
        <time>2016-11-13T08:41:37Z</time>
      </trkpt>
      <trkpt lat="43.22529" lon="6.54733">
        <ele>87.2</ele>
        <time>2016-11-13T08:41:46Z</time>
      </trkpt>
      <trkpt lat="43.22529" lon="6.54721">
        <ele>88</ele>
        <time>2016-11-13T08:41:55Z</time>
      </trkpt>
      <trkpt lat="43.22531" lon="6.54708">
        <ele>88.7</ele>
        <time>2016-11-13T08:42:04Z</time>
      </trkpt>
      <trkpt lat="43.22532" lon="6.54695">
        <ele>89.4</ele>
        <time>2016-11-13T08:42:13Z</time>
      </trkpt>
      <trkpt lat="43.22533" lon="6.54681">
        <ele>90.2</ele>
        <time>2016-11-13T08:42:22Z</time>
      </trkpt>
      <trkpt lat="43.22533" lon="6.54669">
        <ele>90.9</ele>
        <time>2016-11-13T08:42:32Z</time>
      </trkpt>
      <trkpt lat="43.22532" lon="6.54656">
        <ele>91.6</ele>
        <time>2016-11-13T08:42:41Z</time>
      </trkpt>
      <trkpt lat="43.22534" lon="6.54644">
        <ele>92.1</ele>
        <time>2016-11-13T08:42:49Z</time>
      </trkpt>
      <trkpt lat="43.22529" lon="6.54632">
        <ele>93</ele>
        <time>2016-11-13T08:43:00Z</time>
      </trkpt>
      <trkpt lat="43.22522" lon="6.54624">
        <ele>93.9</ele>
        <time>2016-11-13T08:43:09Z</time>
      </trkpt>
      <trkpt lat="43.22514" lon="6.54616">
        <ele>94.8</ele>
        <time>2016-11-13T08:43:18Z</time>
      </trkpt>
      <trkpt lat="43.22507" lon="6.54606">
        <ele>95.7</ele>
        <time>2016-11-13T08:43:27Z</time>
      </trkpt>
      <trkpt lat="43.22501" lon="6.54595">
        <ele>96.6</ele>
        <time>2016-11-13T08:43:36Z</time>
      </trkpt>
      <trkpt lat="43.22499" lon="6.54582">
        <ele>97.5</ele>
        <time>2016-11-13T08:43:45Z</time>
      </trkpt>
      <trkpt lat="43.22496" lon="6.5457">
        <ele>98.6</ele>
        <time>2016-11-13T08:43:57Z</time>
      </trkpt>
      <trkpt lat="43.22495" lon="6.54556">
        <ele>99.4</ele>
        <time>2016-11-13T08:44:08Z</time>
      </trkpt>
      <trkpt lat="43.22497" lon="6.54543">
        <ele>99.9</ele>
        <time>2016-11-13T08:44:17Z</time>
      </trkpt>
      <trkpt lat="43.22496" lon="6.54529">
        <ele>100.3</ele>
        <time>2016-11-13T08:44:26Z</time>
      </trkpt>
      <trkpt lat="43.22492" lon="6.54518">
        <ele>100.8</ele>
        <time>2016-11-13T08:44:35Z</time>
      </trkpt>
      <trkpt lat="43.22485" lon="6.5451">
        <ele>101.2</ele>
        <time>2016-11-13T08:44:42Z</time>
      </trkpt>
      <trkpt lat="43.22478" lon="6.545">
        <ele>101.9</ele>
        <time>2016-11-13T08:44:51Z</time>
      </trkpt>
      <trkpt lat="43.22472" lon="6.54489">
        <ele>102.7</ele>
        <time>2016-11-13T08:45:01Z</time>
      </trkpt>
      <trkpt lat="43.22468" lon="6.54478">
        <ele>103.5</ele>
        <time>2016-11-13T08:45:11Z</time>
      </trkpt>
      <trkpt lat="43.22463" lon="6.54466">
        <ele>104.4</ele>
        <time>2016-11-13T08:45:20Z</time>
      </trkpt>
      <trkpt lat="43.22456" lon="6.54456">
        <ele>105.7</ele>
        <time>2016-11-13T08:45:30Z</time>
      </trkpt>
      <trkpt lat="43.22451" lon="6.54446">
        <ele>107</ele>
        <time>2016-11-13T08:45:41Z</time>
      </trkpt>
      <trkpt lat="43.22447" lon="6.54433">
        <ele>107.7</ele>
        <time>2016-11-13T08:45:50Z</time>
      </trkpt>
      <trkpt lat="43.22444" lon="6.54421">
        <ele>108.6</ele>
        <time>2016-11-13T08:46:03Z</time>
      </trkpt>
      <trkpt lat="43.2244" lon="6.54409">
        <ele>109.2</ele>
        <time>2016-11-13T08:46:11Z</time>
      </trkpt>
      <trkpt lat="43.22439" lon="6.54395">
        <ele>110.1</ele>
        <time>2016-11-13T08:46:21Z</time>
      </trkpt>
      <trkpt lat="43.22433" lon="6.54384">
        <ele>110.6</ele>
        <time>2016-11-13T08:46:28Z</time>
      </trkpt>
      <trkpt lat="43.22428" lon="6.54374">
        <ele>111</ele>
        <time>2016-11-13T08:46:35Z</time>
      </trkpt>
      <trkpt lat="43.22421" lon="6.54366">
        <ele>111.7</ele>
        <time>2016-11-13T08:46:44Z</time>
      </trkpt>
      <trkpt lat="43.22413" lon="6.54357">
        <ele>112.5</ele>
        <time>2016-11-13T08:46:53Z</time>
      </trkpt>
      <trkpt lat="43.22407" lon="6.54346">
        <ele>113.4</ele>
        <time>2016-11-13T08:47:03Z</time>
      </trkpt>
      <trkpt lat="43.22399" lon="6.54338">
        <ele>114.3</ele>
        <time>2016-11-13T08:47:12Z</time>
      </trkpt>
      <trkpt lat="43.22393" lon="6.54327">
        <ele>115.1</ele>
        <time>2016-11-13T08:47:22Z</time>
      </trkpt>
      <trkpt lat="43.22389" lon="6.54316">
        <ele>115.8</ele>
        <time>2016-11-13T08:47:32Z</time>
      </trkpt>
      <trkpt lat="43.22383" lon="6.54306">
        <ele>116.2</ele>
        <time>2016-11-13T08:47:42Z</time>
      </trkpt>
      <trkpt lat="43.22376" lon="6.54296">
        <ele>116.4</ele>
        <time>2016-11-13T08:47:53Z</time>
      </trkpt>
      <trkpt lat="43.22374" lon="6.54284">
        <ele>116.5</ele>
        <time>2016-11-13T08:48:03Z</time>
      </trkpt>
      <trkpt lat="43.22368" lon="6.54274">
        <ele>117</ele>
        <time>2016-11-13T08:48:12Z</time>
      </trkpt>
      <trkpt lat="43.22362" lon="6.54264">
        <ele>117.6</ele>
        <time>2016-11-13T08:48:21Z</time>
      </trkpt>
      <trkpt lat="43.22356" lon="6.54255">
        <ele>118.1</ele>
        <time>2016-11-13T08:48:29Z</time>
      </trkpt>
      <trkpt lat="43.22349" lon="6.54246">
        <ele>118.7</ele>
        <time>2016-11-13T08:48:38Z</time>
      </trkpt>
      <trkpt lat="43.22341" lon="6.54239">
        <ele>119.5</ele>
        <time>2016-11-13T08:48:48Z</time>
      </trkpt>
      <trkpt lat="43.22336" lon="6.54227">
        <ele>120.2</ele>
        <time>2016-11-13T08:48:58Z</time>
      </trkpt>
      <trkpt lat="43.22333" lon="6.54214">
        <ele>120.8</ele>
        <time>2016-11-13T08:49:07Z</time>
      </trkpt>
      <trkpt lat="43.22328" lon="6.54202">
        <ele>121.5</ele>
        <time>2016-11-13T08:49:16Z</time>
      </trkpt>
      <trkpt lat="43.22323" lon="6.54192">
        <ele>122.2</ele>
        <time>2016-11-13T08:49:25Z</time>
      </trkpt>
      <trkpt lat="43.2232" lon="6.5418">
        <ele>123.1</ele>
        <time>2016-11-13T08:49:35Z</time>
      </trkpt>
      <trkpt lat="43.22315" lon="6.54169">
        <ele>124.4</ele>
        <time>2016-11-13T08:49:55Z</time>
      </trkpt>
      <trkpt lat="43.22315" lon="6.54156">
        <ele>125.4</ele>
        <time>2016-11-13T08:51:43Z</time>
      </trkpt>
      <trkpt lat="43.22314" lon="6.54143">
        <ele>125.9</ele>
        <time>2016-11-13T08:51:53Z</time>
      </trkpt>
      <trkpt lat="43.22311" lon="6.5413">
        <ele>126.3</ele>
        <time>2016-11-13T08:52:04Z</time>
      </trkpt>
      <trkpt lat="43.22305" lon="6.54121">
        <ele>127.1</ele>
        <time>2016-11-13T08:52:12Z</time>
      </trkpt>
      <trkpt lat="43.223" lon="6.54109">
        <ele>128.1</ele>
        <time>2016-11-13T08:52:21Z</time>
      </trkpt>
      <trkpt lat="43.22293" lon="6.541">
        <ele>129.3</ele>
        <time>2016-11-13T08:52:29Z</time>
      </trkpt>
      <trkpt lat="43.22286" lon="6.54093">
        <ele>130.6</ele>
        <time>2016-11-13T08:52:38Z</time>
      </trkpt>
      <trkpt lat="43.22279" lon="6.54083">
        <ele>131.8</ele>
        <time>2016-11-13T08:52:47Z</time>
      </trkpt>
      <trkpt lat="43.22274" lon="6.54072">
        <ele>133.2</ele>
        <time>2016-11-13T08:52:58Z</time>
      </trkpt>
      <trkpt lat="43.22272" lon="6.54059">
        <ele>134.2</ele>
        <time>2016-11-13T08:53:10Z</time>
      </trkpt>
      <trkpt lat="43.22269" lon="6.54047">
        <ele>134.8</ele>
        <time>2016-11-13T08:53:19Z</time>
      </trkpt>
      <trkpt lat="43.22268" lon="6.54034">
        <ele>135.4</ele>
        <time>2016-11-13T08:53:28Z</time>
      </trkpt>
      <trkpt lat="43.22264" lon="6.54022">
        <ele>136.3</ele>
        <time>2016-11-13T08:53:38Z</time>
      </trkpt>
      <trkpt lat="43.22263" lon="6.54009">
        <ele>137.1</ele>
        <time>2016-11-13T08:53:46Z</time>
      </trkpt>
      <trkpt lat="43.22257" lon="6.53998">
        <ele>137.7</ele>
        <time>2016-11-13T08:53:54Z</time>
      </trkpt>
      <trkpt lat="43.22253" lon="6.53986">
        <ele>138.2</ele>
        <time>2016-11-13T08:54:01Z</time>
      </trkpt>
      <trkpt lat="43.22251" lon="6.53974">
        <ele>138.8</ele>
        <time>2016-11-13T08:54:09Z</time>
      </trkpt>
      <trkpt lat="43.22248" lon="6.53961">
        <ele>140.2</ele>
        <time>2016-11-13T08:54:19Z</time>
      </trkpt>
      <trkpt lat="43.22243" lon="6.53949">
        <ele>141.3</ele>
        <time>2016-11-13T08:54:30Z</time>
      </trkpt>
      <trkpt lat="43.2224" lon="6.53935">
        <ele>142</ele>
        <time>2016-11-13T08:54:40Z</time>
      </trkpt>
      <trkpt lat="43.22235" lon="6.53924">
        <ele>142.9</ele>
        <time>2016-11-13T08:54:50Z</time>
      </trkpt>
      <trkpt lat="43.22228" lon="6.53914">
        <ele>143.9</ele>
        <time>2016-11-13T08:55:00Z</time>
      </trkpt>
      <trkpt lat="43.22219" lon="6.53909">
        <ele>144.5</ele>
        <time>2016-11-13T08:55:10Z</time>
      </trkpt>
      <trkpt lat="43.2221" lon="6.53906">
        <ele>145.2</ele>
        <time>2016-11-13T08:55:19Z</time>
      </trkpt>
      <trkpt lat="43.22201" lon="6.539">
        <ele>145.9</ele>
        <time>2016-11-13T08:55:27Z</time>
      </trkpt>
      <trkpt lat="43.22192" lon="6.53897">
        <ele>146.6</ele>
        <time>2016-11-13T08:55:36Z</time>
      </trkpt>
      <trkpt lat="43.22183" lon="6.5389">
        <ele>147.3</ele>
        <time>2016-11-13T08:55:44Z</time>
      </trkpt>
      <trkpt lat="43.22174" lon="6.53886">
        <ele>148.1</ele>
        <time>2016-11-13T08:55:55Z</time>
      </trkpt>
      <trkpt lat="43.22163" lon="6.53881">
        <ele>149</ele>
        <time>2016-11-13T08:56:05Z</time>
      </trkpt>
      <trkpt lat="43.22155" lon="6.53875">
        <ele>149.9</ele>
        <time>2016-11-13T08:56:15Z</time>
      </trkpt>
      <trkpt lat="43.22146" lon="6.5387">
        <ele>150.5</ele>
        <time>2016-11-13T08:56:26Z</time>
      </trkpt>
      <trkpt lat="43.22137" lon="6.53868">
        <ele>151.4</ele>
        <time>2016-11-13T08:56:36Z</time>
      </trkpt>
      <trkpt lat="43.22128" lon="6.53865">
        <ele>152.2</ele>
        <time>2016-11-13T08:56:44Z</time>
      </trkpt>
      <trkpt lat="43.2212" lon="6.53857">
        <ele>152.9</ele>
        <time>2016-11-13T08:56:52Z</time>
      </trkpt>
      <trkpt lat="43.22111" lon="6.53853">
        <ele>153.6</ele>
        <time>2016-11-13T08:57:00Z</time>
      </trkpt>
      <trkpt lat="43.22102" lon="6.5385">
        <ele>154.4</ele>
        <time>2016-11-13T08:57:07Z</time>
      </trkpt>
      <trkpt lat="43.22093" lon="6.53846">
        <ele>155.3</ele>
        <time>2016-11-13T08:57:16Z</time>
      </trkpt>
      <trkpt lat="43.22084" lon="6.53842">
        <ele>156.5</ele>
        <time>2016-11-13T08:57:27Z</time>
      </trkpt>
      <trkpt lat="43.22075" lon="6.53837">
        <ele>157.8</ele>
        <time>2016-11-13T08:57:40Z</time>
      </trkpt>
      <trkpt lat="43.22066" lon="6.53836">
        <ele>158.6</ele>
        <time>2016-11-13T08:57:50Z</time>
      </trkpt>
      <trkpt lat="43.22056" lon="6.53833">
        <ele>159.2</ele>
        <time>2016-11-13T08:57:58Z</time>
      </trkpt>
      <trkpt lat="43.22047" lon="6.5383">
        <ele>160.3</ele>
        <time>2016-11-13T08:58:10Z</time>
      </trkpt>
      <trkpt lat="43.22038" lon="6.53828">
        <ele>160.9</ele>
        <time>2016-11-13T08:58:16Z</time>
      </trkpt>
      <trkpt lat="43.22029" lon="6.53825">
        <ele>162.2</ele>
        <time>2016-11-13T08:58:28Z</time>
      </trkpt>
      <trkpt lat="43.2202" lon="6.53825">
        <ele>163.3</ele>
        <time>2016-11-13T08:58:37Z</time>
      </trkpt>
      <trkpt lat="43.2201" lon="6.53828">
        <ele>164.1</ele>
        <time>2016-11-13T08:58:46Z</time>
      </trkpt>
      <trkpt lat="43.22002" lon="6.53833">
        <ele>164.7</ele>
        <time>2016-11-13T08:58:53Z</time>
      </trkpt>
      <trkpt lat="43.21992" lon="6.53837">
        <ele>166.2</ele>
        <time>2016-11-13T08:59:07Z</time>
      </trkpt>
      <trkpt lat="43.21983" lon="6.53837">
        <ele>166.8</ele>
        <time>2016-11-13T08:59:13Z</time>
      </trkpt>
      <trkpt lat="43.21973" lon="6.53835">
        <ele>167.3</ele>
        <time>2016-11-13T08:59:20Z</time>
      </trkpt>
      <trkpt lat="43.21964" lon="6.53836">
        <ele>167.9</ele>
        <time>2016-11-13T08:59:26Z</time>
      </trkpt>
      <trkpt lat="43.21955" lon="6.5384">
        <ele>168.4</ele>
        <time>2016-11-13T08:59:31Z</time>
      </trkpt>
      <trkpt lat="43.21946" lon="6.53846">
        <ele>168.8</ele>
        <time>2016-11-13T08:59:37Z</time>
      </trkpt>
      <trkpt lat="43.21938" lon="6.53854">
        <ele>169.2</ele>
        <time>2016-11-13T08:59:45Z</time>
      </trkpt>
      <trkpt lat="43.21933" lon="6.53865">
        <ele>169.5</ele>
        <time>2016-11-13T08:59:54Z</time>
      </trkpt>
      <trkpt lat="43.2193" lon="6.53878">
        <ele>170.1</ele>
        <time>2016-11-13T09:00:03Z</time>
      </trkpt>
      <trkpt lat="43.21928" lon="6.53891">
        <ele>170.9</ele>
        <time>2016-11-13T09:00:12Z</time>
      </trkpt>
      <trkpt lat="43.21929" lon="6.53905">
        <ele>171.6</ele>
        <time>2016-11-13T09:00:21Z</time>
      </trkpt>
      <trkpt lat="43.21926" lon="6.53917">
        <ele>172.5</ele>
        <time>2016-11-13T09:00:30Z</time>
      </trkpt>
      <trkpt lat="43.21922" lon="6.53929">
        <ele>173.1</ele>
        <time>2016-11-13T09:00:39Z</time>
      </trkpt>
      <trkpt lat="43.21921" lon="6.53942">
        <ele>173.6</ele>
        <time>2016-11-13T09:00:48Z</time>
      </trkpt>
      <trkpt lat="43.21916" lon="6.53954">
        <ele>174.2</ele>
        <time>2016-11-13T09:00:57Z</time>
      </trkpt>
      <trkpt lat="43.2191" lon="6.53964">
        <ele>174.9</ele>
        <time>2016-11-13T09:01:06Z</time>
      </trkpt>
      <trkpt lat="43.21904" lon="6.53973">
        <ele>175.6</ele>
        <time>2016-11-13T09:01:15Z</time>
      </trkpt>
      <trkpt lat="43.21895" lon="6.53976">
        <ele>176.1</ele>
        <time>2016-11-13T09:01:23Z</time>
      </trkpt>
      <trkpt lat="43.21888" lon="6.53985">
        <ele>176.8</ele>
        <time>2016-11-13T09:01:33Z</time>
      </trkpt>
      <trkpt lat="43.21881" lon="6.53994">
        <ele>177.8</ele>
        <time>2016-11-13T09:01:43Z</time>
      </trkpt>
      <trkpt lat="43.21873" lon="6.54001">
        <ele>178.6</ele>
        <time>2016-11-13T09:01:51Z</time>
      </trkpt>
      <trkpt lat="43.21867" lon="6.5401">
        <ele>179.7</ele>
        <time>2016-11-13T09:02:01Z</time>
      </trkpt>
      <trkpt lat="43.21859" lon="6.54017">
        <ele>180.7</ele>
        <time>2016-11-13T09:02:09Z</time>
      </trkpt>
      <trkpt lat="43.2185" lon="6.54022">
        <ele>181.9</ele>
        <time>2016-11-13T09:02:19Z</time>
      </trkpt>
      <trkpt lat="43.21841" lon="6.54026">
        <ele>183.1</ele>
        <time>2016-11-13T09:02:30Z</time>
      </trkpt>
      <trkpt lat="43.21832" lon="6.54028">
        <ele>183.9</ele>
        <time>2016-11-13T09:02:41Z</time>
      </trkpt>
      <trkpt lat="43.21823" lon="6.5403">
        <ele>184.4</ele>
        <time>2016-11-13T09:02:49Z</time>
      </trkpt>
      <trkpt lat="43.21813" lon="6.54036">
        <ele>185.2</ele>
        <time>2016-11-13T09:03:00Z</time>
      </trkpt>
      <trkpt lat="43.21804" lon="6.5404">
        <ele>186.1</ele>
        <time>2016-11-13T09:03:10Z</time>
      </trkpt>
      <trkpt lat="43.21795" lon="6.54043">
        <ele>186.6</ele>
        <time>2016-11-13T09:03:18Z</time>
      </trkpt>
      <trkpt lat="43.21785" lon="6.54042">
        <ele>187.5</ele>
        <time>2016-11-13T09:03:30Z</time>
      </trkpt>
      <trkpt lat="43.21775" lon="6.54042">
        <ele>188</ele>
        <time>2016-11-13T09:03:37Z</time>
      </trkpt>
      <trkpt lat="43.21766" lon="6.54043">
        <ele>188.7</ele>
        <time>2016-11-13T09:03:50Z</time>
      </trkpt>
      <trkpt lat="43.21755" lon="6.54043">
        <ele>189.6</ele>
        <time>2016-11-13T09:04:01Z</time>
      </trkpt>
      <trkpt lat="43.21744" lon="6.54043">
        <ele>190.5</ele>
        <time>2016-11-13T09:04:09Z</time>
      </trkpt>
      <trkpt lat="43.21735" lon="6.54042">
        <ele>191</ele>
        <time>2016-11-13T09:04:17Z</time>
      </trkpt>
      <trkpt lat="43.21725" lon="6.54038">
        <ele>191.6</ele>
        <time>2016-11-13T09:04:28Z</time>
      </trkpt>
      <trkpt lat="43.21716" lon="6.54037">
        <ele>191.9</ele>
        <time>2016-11-13T09:04:35Z</time>
      </trkpt>
      <trkpt lat="43.21711" lon="6.5405">
        <ele>192.3</ele>
        <time>2016-11-13T09:04:41Z</time>
      </trkpt>
      <trkpt lat="43.21713" lon="6.54062">
        <ele>192.7</ele>
        <time>2016-11-13T09:04:51Z</time>
      </trkpt>
      <trkpt lat="43.2172" lon="6.54071">
        <ele>193</ele>
        <time>2016-11-13T09:04:59Z</time>
      </trkpt>
      <trkpt lat="43.21726" lon="6.54081">
        <ele>193.5</ele>
        <time>2016-11-13T09:05:08Z</time>
      </trkpt>
      <trkpt lat="43.21733" lon="6.5409">
        <ele>194.1</ele>
        <time>2016-11-13T09:05:19Z</time>
      </trkpt>
      <trkpt lat="43.21738" lon="6.54102">
        <ele>194.7</ele>
        <time>2016-11-13T09:05:28Z</time>
      </trkpt>
      <trkpt lat="43.21744" lon="6.54112">
        <ele>195.4</ele>
        <time>2016-11-13T09:05:36Z</time>
      </trkpt>
      <trkpt lat="43.2175" lon="6.54123">
        <ele>196.1</ele>
        <time>2016-11-13T09:05:44Z</time>
      </trkpt>
      <trkpt lat="43.21759" lon="6.54126">
        <ele>196.6</ele>
        <time>2016-11-13T09:05:53Z</time>
      </trkpt>
      <trkpt lat="43.21768" lon="6.54123">
        <ele>197.2</ele>
        <time>2016-11-13T09:06:00Z</time>
      </trkpt>
      <trkpt lat="43.21777" lon="6.54122">
        <ele>197.9</ele>
        <time>2016-11-13T09:06:06Z</time>
      </trkpt>
      <trkpt lat="43.21786" lon="6.54121">
        <ele>198.7</ele>
        <time>2016-11-13T09:06:15Z</time>
      </trkpt>
      <trkpt lat="43.21795" lon="6.54123">
        <ele>199.1</ele>
        <time>2016-11-13T09:06:22Z</time>
      </trkpt>
      <trkpt lat="43.21804" lon="6.54125">
        <ele>199.4</ele>
        <time>2016-11-13T09:06:30Z</time>
      </trkpt>
      <trkpt lat="43.21813" lon="6.54129">
        <ele>199.7</ele>
        <time>2016-11-13T09:06:38Z</time>
      </trkpt>
      <trkpt lat="43.21822" lon="6.54132">
        <ele>200.2</ele>
        <time>2016-11-13T09:06:46Z</time>
      </trkpt>
      <trkpt lat="43.21831" lon="6.54135">
        <ele>200.9</ele>
        <time>2016-11-13T09:06:55Z</time>
      </trkpt>
      <trkpt lat="43.2184" lon="6.54138">
        <ele>201.4</ele>
        <time>2016-11-13T09:07:02Z</time>
      </trkpt>
      <trkpt lat="43.21849" lon="6.54142">
        <ele>202</ele>
        <time>2016-11-13T09:07:11Z</time>
      </trkpt>
      <trkpt lat="43.21858" lon="6.54146">
        <ele>202.8</ele>
        <time>2016-11-13T09:07:22Z</time>
      </trkpt>
      <trkpt lat="43.21867" lon="6.54151">
        <ele>203.2</ele>
        <time>2016-11-13T09:07:29Z</time>
      </trkpt>
      <trkpt lat="43.21876" lon="6.54153">
        <ele>204</ele>
        <time>2016-11-13T09:07:39Z</time>
      </trkpt>
      <trkpt lat="43.21886" lon="6.54152">
        <ele>204.8</ele>
        <time>2016-11-13T09:07:49Z</time>
      </trkpt>
      <trkpt lat="43.21896" lon="6.54154">
        <ele>205.5</ele>
        <time>2016-11-13T09:07:58Z</time>
      </trkpt>
      <trkpt lat="43.21905" lon="6.54156">
        <ele>206.5</ele>
        <time>2016-11-13T09:08:08Z</time>
      </trkpt>
      <trkpt lat="43.21914" lon="6.54158">
        <ele>207.3</ele>
        <time>2016-11-13T09:08:17Z</time>
      </trkpt>
      <trkpt lat="43.21924" lon="6.5416">
        <ele>208.7</ele>
        <time>2016-11-13T09:08:27Z</time>
      </trkpt>
      <trkpt lat="43.21933" lon="6.54164">
        <ele>209.6</ele>
        <time>2016-11-13T09:08:36Z</time>
      </trkpt>
      <trkpt lat="43.21942" lon="6.54168">
        <ele>210.4</ele>
        <time>2016-11-13T09:08:46Z</time>
      </trkpt>
      <trkpt lat="43.21949" lon="6.54175">
        <ele>211.3</ele>
        <time>2016-11-13T09:08:54Z</time>
      </trkpt>
      <trkpt lat="43.21955" lon="6.54185">
        <ele>212</ele>
        <time>2016-11-13T09:09:03Z</time>
      </trkpt>
      <trkpt lat="43.21961" lon="6.54196">
        <ele>212.9</ele>
        <time>2016-11-13T09:09:13Z</time>
      </trkpt>
      <trkpt lat="43.21967" lon="6.54206">
        <ele>213.9</ele>
        <time>2016-11-13T09:09:22Z</time>
      </trkpt>
      <trkpt lat="43.21968" lon="6.54219">
        <ele>214.9</ele>
        <time>2016-11-13T09:09:32Z</time>
      </trkpt>
      <trkpt lat="43.21963" lon="6.54231">
        <ele>215.8</ele>
        <time>2016-11-13T09:09:43Z</time>
      </trkpt>
      <trkpt lat="43.2196" lon="6.54243">
        <ele>216.4</ele>
        <time>2016-11-13T09:09:52Z</time>
      </trkpt>
      <trkpt lat="43.21956" lon="6.54255">
        <ele>217.1</ele>
        <time>2016-11-13T09:10:02Z</time>
      </trkpt>
      <trkpt lat="43.21949" lon="6.54265">
        <ele>217.7</ele>
        <time>2016-11-13T09:10:12Z</time>
      </trkpt>
      <trkpt lat="43.21941" lon="6.54271">
        <ele>218.2</ele>
        <time>2016-11-13T09:10:21Z</time>
      </trkpt>
      <trkpt lat="43.21934" lon="6.54278">
        <ele>219</ele>
        <time>2016-11-13T09:10:31Z</time>
      </trkpt>
      <trkpt lat="43.21926" lon="6.54285">
        <ele>219.8</ele>
        <time>2016-11-13T09:10:41Z</time>
      </trkpt>
      <trkpt lat="43.21917" lon="6.5429">
        <ele>220.8</ele>
        <time>2016-11-13T09:10:50Z</time>
      </trkpt>
      <trkpt lat="43.21908" lon="6.54293">
        <ele>221.8</ele>
        <time>2016-11-13T09:10:59Z</time>
      </trkpt>
      <trkpt lat="43.21899" lon="6.54294">
        <ele>222.8</ele>
        <time>2016-11-13T09:11:08Z</time>
      </trkpt>
      <trkpt lat="43.21889" lon="6.54294">
        <ele>223.8</ele>
        <time>2016-11-13T09:11:18Z</time>
      </trkpt>
      <trkpt lat="43.21879" lon="6.54291">
        <ele>224.6</ele>
        <time>2016-11-13T09:11:27Z</time>
      </trkpt>
      <trkpt lat="43.21871" lon="6.54285">
        <ele>225.5</ele>
        <time>2016-11-13T09:11:37Z</time>
      </trkpt>
      <trkpt lat="43.21863" lon="6.54279">
        <ele>226.2</ele>
        <time>2016-11-13T09:11:46Z</time>
      </trkpt>
      <trkpt lat="43.21855" lon="6.54273">
        <ele>227.1</ele>
        <time>2016-11-13T09:11:56Z</time>
      </trkpt>
      <trkpt lat="43.21849" lon="6.54264">
        <ele>228</ele>
        <time>2016-11-13T09:12:09Z</time>
      </trkpt>
      <trkpt lat="43.2184" lon="6.54264">
        <ele>230.9</ele>
        <time>2016-11-13T09:13:41Z</time>
      </trkpt>
      <trkpt lat="43.21845" lon="6.54253">
        <ele>230.1</ele>
        <time>2016-11-13T09:16:02Z</time>
      </trkpt>
      <trkpt lat="43.21836" lon="6.54248">
        <ele>230.2</ele>
        <time>2016-11-13T09:18:45Z</time>
      </trkpt>
      <trkpt lat="43.2184" lon="6.5426">
        <ele>230.1</ele>
        <time>2016-11-13T09:20:10Z</time>
      </trkpt>
      <trkpt lat="43.21849" lon="6.54262">
        <ele>228.9</ele>
        <time>2016-11-13T09:21:15Z</time>
      </trkpt>
      <trkpt lat="43.21844" lon="6.54251">
        <ele>228.9</ele>
        <time>2016-11-13T09:21:50Z</time>
      </trkpt>
      <trkpt lat="43.21836" lon="6.54259">
        <ele>229.2</ele>
        <time>2016-11-13T09:22:42Z</time>
      </trkpt>
      <trkpt lat="43.21827" lon="6.54256">
        <ele>229.3</ele>
        <time>2016-11-13T09:23:28Z</time>
      </trkpt>
      <trkpt lat="43.21818" lon="6.54253">
        <ele>229.3</ele>
        <time>2016-11-13T09:23:38Z</time>
      </trkpt>
      <trkpt lat="43.21809" lon="6.54253">
        <ele>229.5</ele>
        <time>2016-11-13T09:23:46Z</time>
      </trkpt>
      <trkpt lat="43.21799" lon="6.54254">
        <ele>229.8</ele>
        <time>2016-11-13T09:23:54Z</time>
      </trkpt>
      <trkpt lat="43.21789" lon="6.54255">
        <ele>230.3</ele>
        <time>2016-11-13T09:24:02Z</time>
      </trkpt>
      <trkpt lat="43.2178" lon="6.54261">
        <ele>230.7</ele>
        <time>2016-11-13T09:24:09Z</time>
      </trkpt>
      <trkpt lat="43.21771" lon="6.54264">
        <ele>231</ele>
        <time>2016-11-13T09:24:18Z</time>
      </trkpt>
      <trkpt lat="43.21762" lon="6.54269">
        <ele>231.1</ele>
        <time>2016-11-13T09:24:25Z</time>
      </trkpt>
      <trkpt lat="43.21753" lon="6.54271">
        <ele>231.4</ele>
        <time>2016-11-13T09:24:35Z</time>
      </trkpt>
      <trkpt lat="43.21743" lon="6.54273">
        <ele>231.7</ele>
        <time>2016-11-13T09:24:43Z</time>
      </trkpt>
      <trkpt lat="43.21733" lon="6.54274">
        <ele>232</ele>
        <time>2016-11-13T09:24:53Z</time>
      </trkpt>
      <trkpt lat="43.21724" lon="6.54272">
        <ele>232.1</ele>
        <time>2016-11-13T09:25:00Z</time>
      </trkpt>
      <trkpt lat="43.21715" lon="6.54268">
        <ele>232.2</ele>
        <time>2016-11-13T09:25:08Z</time>
      </trkpt>
      <trkpt lat="43.21707" lon="6.54263">
        <ele>232.3</ele>
        <time>2016-11-13T09:25:15Z</time>
      </trkpt>
      <trkpt lat="43.21706" lon="6.54251">
        <ele>232.9</ele>
        <time>2016-11-13T09:25:45Z</time>
      </trkpt>
      <trkpt lat="43.21709" lon="6.54238">
        <ele>233.2</ele>
        <time>2016-11-13T09:27:07Z</time>
      </trkpt>
      <trkpt lat="43.21707" lon="6.54225">
        <ele>233.4</ele>
        <time>2016-11-13T09:27:17Z</time>
      </trkpt>
      <trkpt lat="43.21705" lon="6.54213">
        <ele>233.8</ele>
        <time>2016-11-13T09:27:25Z</time>
      </trkpt>
      <trkpt lat="43.21703" lon="6.542">
        <ele>234.1</ele>
        <time>2016-11-13T09:27:33Z</time>
      </trkpt>
      <trkpt lat="43.21702" lon="6.54187">
        <ele>234.4</ele>
        <time>2016-11-13T09:27:41Z</time>
      </trkpt>
      <trkpt lat="43.21699" lon="6.54174">
        <ele>234.9</ele>
        <time>2016-11-13T09:27:49Z</time>
      </trkpt>
      <trkpt lat="43.21692" lon="6.54164">
        <ele>235.2</ele>
        <time>2016-11-13T09:27:57Z</time>
      </trkpt>
      <trkpt lat="43.21684" lon="6.54158">
        <ele>235.4</ele>
        <time>2016-11-13T09:28:04Z</time>
      </trkpt>
      <trkpt lat="43.21675" lon="6.54154">
        <ele>235.9</ele>
        <time>2016-11-13T09:28:12Z</time>
      </trkpt>
      <trkpt lat="43.21666" lon="6.54149">
        <ele>236.4</ele>
        <time>2016-11-13T09:28:18Z</time>
      </trkpt>
      <trkpt lat="43.21657" lon="6.54145">
        <ele>236.8</ele>
        <time>2016-11-13T09:28:25Z</time>
      </trkpt>
      <trkpt lat="43.21648" lon="6.54143">
        <ele>237.1</ele>
        <time>2016-11-13T09:28:32Z</time>
      </trkpt>
      <trkpt lat="43.21639" lon="6.54142">
        <ele>237.2</ele>
        <time>2016-11-13T09:28:39Z</time>
      </trkpt>
      <trkpt lat="43.21629" lon="6.5414">
        <ele>237.5</ele>
        <time>2016-11-13T09:28:47Z</time>
      </trkpt>
      <trkpt lat="43.2162" lon="6.54139">
        <ele>237.9</ele>
        <time>2016-11-13T09:28:55Z</time>
      </trkpt>
      <trkpt lat="43.21611" lon="6.54134">
        <ele>238.2</ele>
        <time>2016-11-13T09:29:03Z</time>
      </trkpt>
      <trkpt lat="43.21602" lon="6.54128">
        <ele>238.3</ele>
        <time>2016-11-13T09:29:11Z</time>
      </trkpt>
      <trkpt lat="43.21594" lon="6.54123">
        <ele>238.4</ele>
        <time>2016-11-13T09:29:17Z</time>
      </trkpt>
      <trkpt lat="43.21587" lon="6.54115">
        <ele>238.5</ele>
        <time>2016-11-13T09:29:24Z</time>
      </trkpt>
      <trkpt lat="43.21579" lon="6.54108">
        <ele>238.8</ele>
        <time>2016-11-13T09:29:32Z</time>
      </trkpt>
      <trkpt lat="43.21571" lon="6.541">
        <ele>239.1</ele>
        <time>2016-11-13T09:29:40Z</time>
      </trkpt>
      <trkpt lat="43.21564" lon="6.5409">
        <ele>239.5</ele>
        <time>2016-11-13T09:29:49Z</time>
      </trkpt>
      <trkpt lat="43.21557" lon="6.54081">
        <ele>239.8</ele>
        <time>2016-11-13T09:29:57Z</time>
      </trkpt>
      <trkpt lat="43.21552" lon="6.54071">
        <ele>240</ele>
        <time>2016-11-13T09:30:05Z</time>
      </trkpt>
      <trkpt lat="43.21545" lon="6.5406">
        <ele>240.4</ele>
        <time>2016-11-13T09:30:13Z</time>
      </trkpt>
      <trkpt lat="43.21537" lon="6.54053">
        <ele>241</ele>
        <time>2016-11-13T09:30:21Z</time>
      </trkpt>
      <trkpt lat="43.21529" lon="6.54048">
        <ele>241.4</ele>
        <time>2016-11-13T09:30:28Z</time>
      </trkpt>
      <trkpt lat="43.21518" lon="6.54047">
        <ele>241.8</ele>
        <time>2016-11-13T09:30:35Z</time>
      </trkpt>
      <trkpt lat="43.21507" lon="6.54049">
        <ele>242.3</ele>
        <time>2016-11-13T09:30:42Z</time>
      </trkpt>
      <trkpt lat="43.215" lon="6.54055">
        <ele>242.8</ele>
        <time>2016-11-13T09:30:49Z</time>
      </trkpt>
      <trkpt lat="43.21491" lon="6.54064">
        <ele>243.5</ele>
        <time>2016-11-13T09:30:58Z</time>
      </trkpt>
      <trkpt lat="43.21482" lon="6.54067">
        <ele>244</ele>
        <time>2016-11-13T09:31:06Z</time>
      </trkpt>
      <trkpt lat="43.21472" lon="6.54065">
        <ele>245</ele>
        <time>2016-11-13T09:31:18Z</time>
      </trkpt>
      <trkpt lat="43.21463" lon="6.54064">
        <ele>245.9</ele>
        <time>2016-11-13T09:31:27Z</time>
      </trkpt>
      <trkpt lat="43.21453" lon="6.54063">
        <ele>247.5</ele>
        <time>2016-11-13T09:31:40Z</time>
      </trkpt>
      <trkpt lat="43.21444" lon="6.54064">
        <ele>248.6</ele>
        <time>2016-11-13T09:31:49Z</time>
      </trkpt>
      <trkpt lat="43.21434" lon="6.54066">
        <ele>249.5</ele>
        <time>2016-11-13T09:31:56Z</time>
      </trkpt>
      <trkpt lat="43.21426" lon="6.54071">
        <ele>250.4</ele>
        <time>2016-11-13T09:32:03Z</time>
      </trkpt>
      <trkpt lat="43.21417" lon="6.54076">
        <ele>251.2</ele>
        <time>2016-11-13T09:32:10Z</time>
      </trkpt>
      <trkpt lat="43.21408" lon="6.54082">
        <ele>252.1</ele>
        <time>2016-11-13T09:32:19Z</time>
      </trkpt>
      <trkpt lat="43.214" lon="6.54089">
        <ele>252.7</ele>
        <time>2016-11-13T09:32:26Z</time>
      </trkpt>
      <trkpt lat="43.21391" lon="6.54086">
        <ele>253.4</ele>
        <time>2016-11-13T09:32:35Z</time>
      </trkpt>
      <trkpt lat="43.2139" lon="6.54073">
        <ele>254.6</ele>
        <time>2016-11-13T09:32:48Z</time>
      </trkpt>
      <trkpt lat="43.21388" lon="6.54061">
        <ele>255.6</ele>
        <time>2016-11-13T09:32:58Z</time>
      </trkpt>
      <trkpt lat="43.21384" lon="6.5405">
        <ele>256.3</ele>
        <time>2016-11-13T09:33:07Z</time>
      </trkpt>
      <trkpt lat="43.21379" lon="6.54039">
        <ele>257</ele>
        <time>2016-11-13T09:33:15Z</time>
      </trkpt>
      <trkpt lat="43.21372" lon="6.5403">
        <ele>259.4</ele>
        <time>2016-11-13T09:34:03Z</time>
      </trkpt>
      <trkpt lat="43.21366" lon="6.54021">
        <ele>259.6</ele>
        <time>2016-11-13T09:34:11Z</time>
      </trkpt>
      <trkpt lat="43.21357" lon="6.54015">
        <ele>260.1</ele>
        <time>2016-11-13T09:34:20Z</time>
      </trkpt>
      <trkpt lat="43.21349" lon="6.54008">
        <ele>260.8</ele>
        <time>2016-11-13T09:34:29Z</time>
      </trkpt>
      <trkpt lat="43.2134" lon="6.54002">
        <ele>261.6</ele>
        <time>2016-11-13T09:34:39Z</time>
      </trkpt>
      <trkpt lat="43.21331" lon="6.53998">
        <ele>262</ele>
        <time>2016-11-13T09:34:46Z</time>
      </trkpt>
      <trkpt lat="43.21322" lon="6.53994">
        <ele>262.9</ele>
        <time>2016-11-13T09:34:57Z</time>
      </trkpt>
      <trkpt lat="43.21313" lon="6.53993">
        <ele>263.5</ele>
        <time>2016-11-13T09:35:03Z</time>
      </trkpt>
      <trkpt lat="43.21303" lon="6.5399">
        <ele>264.3</ele>
        <time>2016-11-13T09:35:10Z</time>
      </trkpt>
      <trkpt lat="43.21293" lon="6.53992">
        <ele>265.4</ele>
        <time>2016-11-13T09:35:19Z</time>
      </trkpt>
      <trkpt lat="43.21284" lon="6.53995">
        <ele>266.1</ele>
        <time>2016-11-13T09:35:27Z</time>
      </trkpt>
      <trkpt lat="43.21274" lon="6.53996">
        <ele>266.8</ele>
        <time>2016-11-13T09:35:36Z</time>
      </trkpt>
      <trkpt lat="43.21265" lon="6.53995">
        <ele>267.7</ele>
        <time>2016-11-13T09:35:46Z</time>
      </trkpt>
      <trkpt lat="43.21261" lon="6.53984">
        <ele>269</ele>
        <time>2016-11-13T09:36:03Z</time>
      </trkpt>
      <trkpt lat="43.21267" lon="6.53973">
        <ele>269.9</ele>
        <time>2016-11-13T09:36:16Z</time>
      </trkpt>
      <trkpt lat="43.21271" lon="6.53961">
        <ele>270.8</ele>
        <time>2016-11-13T09:36:27Z</time>
      </trkpt>
      <trkpt lat="43.21272" lon="6.53949">
        <ele>271.7</ele>
        <time>2016-11-13T09:36:37Z</time>
      </trkpt>
      <trkpt lat="43.21269" lon="6.53937">
        <ele>273.9</ele>
        <time>2016-11-13T09:37:13Z</time>
      </trkpt>
      <trkpt lat="43.21268" lon="6.53923">
        <ele>274.5</ele>
        <time>2016-11-13T09:37:33Z</time>
      </trkpt>
      <trkpt lat="43.21264" lon="6.53912">
        <ele>274.8</ele>
        <time>2016-11-13T09:37:41Z</time>
      </trkpt>
      <trkpt lat="43.21259" lon="6.539">
        <ele>275.3</ele>
        <time>2016-11-13T09:37:49Z</time>
      </trkpt>
      <trkpt lat="43.21254" lon="6.53889">
        <ele>275.9</ele>
        <time>2016-11-13T09:37:58Z</time>
      </trkpt>
      <trkpt lat="43.21252" lon="6.53877">
        <ele>276.4</ele>
        <time>2016-11-13T09:38:07Z</time>
      </trkpt>
      <trkpt lat="43.2125" lon="6.53865">
        <ele>277.1</ele>
        <time>2016-11-13T09:38:16Z</time>
      </trkpt>
      <trkpt lat="43.21245" lon="6.53853">
        <ele>277.9</ele>
        <time>2016-11-13T09:38:24Z</time>
      </trkpt>
      <trkpt lat="43.2124" lon="6.53841">
        <ele>278.9</ele>
        <time>2016-11-13T09:38:34Z</time>
      </trkpt>
      <trkpt lat="43.21235" lon="6.5383">
        <ele>279.6</ele>
        <time>2016-11-13T09:38:43Z</time>
      </trkpt>
      <trkpt lat="43.2123" lon="6.53819">
        <ele>280.3</ele>
        <time>2016-11-13T09:38:50Z</time>
      </trkpt>
      <trkpt lat="43.21223" lon="6.5381">
        <ele>281.3</ele>
        <time>2016-11-13T09:38:58Z</time>
      </trkpt>
      <trkpt lat="43.21215" lon="6.53802">
        <ele>282.6</ele>
        <time>2016-11-13T09:39:06Z</time>
      </trkpt>
      <trkpt lat="43.21207" lon="6.53797">
        <ele>283.6</ele>
        <time>2016-11-13T09:39:15Z</time>
      </trkpt>
      <trkpt lat="43.21198" lon="6.53789">
        <ele>284.9</ele>
        <time>2016-11-13T09:39:26Z</time>
      </trkpt>
      <trkpt lat="43.21189" lon="6.53785">
        <ele>285.6</ele>
        <time>2016-11-13T09:39:33Z</time>
      </trkpt>
      <trkpt lat="43.2118" lon="6.53785">
        <ele>286.5</ele>
        <time>2016-11-13T09:39:50Z</time>
      </trkpt>
      <trkpt lat="43.21173" lon="6.53778">
        <ele>287.5</ele>
        <time>2016-11-13T09:40:01Z</time>
      </trkpt>
      <trkpt lat="43.21164" lon="6.53773">
        <ele>288.3</ele>
        <time>2016-11-13T09:40:12Z</time>
      </trkpt>
      <trkpt lat="43.21156" lon="6.53767">
        <ele>289.1</ele>
        <time>2016-11-13T09:40:20Z</time>
      </trkpt>
      <trkpt lat="43.21147" lon="6.53763">
        <ele>289.9</ele>
        <time>2016-11-13T09:40:29Z</time>
      </trkpt>
      <trkpt lat="43.21138" lon="6.53757">
        <ele>290.5</ele>
        <time>2016-11-13T09:40:37Z</time>
      </trkpt>
      <trkpt lat="43.2113" lon="6.53752">
        <ele>291.3</ele>
        <time>2016-11-13T09:40:44Z</time>
      </trkpt>
      <trkpt lat="43.21122" lon="6.53745">
        <ele>292.3</ele>
        <time>2016-11-13T09:40:52Z</time>
      </trkpt>
      <trkpt lat="43.21114" lon="6.53738">
        <ele>293.3</ele>
        <time>2016-11-13T09:41:00Z</time>
      </trkpt>
      <trkpt lat="43.21104" lon="6.53734">
        <ele>294</ele>
        <time>2016-11-13T09:41:08Z</time>
      </trkpt>
      <trkpt lat="43.21095" lon="6.53731">
        <ele>294.7</ele>
        <time>2016-11-13T09:41:18Z</time>
      </trkpt>
      <trkpt lat="43.21087" lon="6.53727">
        <ele>295.7</ele>
        <time>2016-11-13T09:41:27Z</time>
      </trkpt>
      <trkpt lat="43.21078" lon="6.53724">
        <ele>296.5</ele>
        <time>2016-11-13T09:41:36Z</time>
      </trkpt>
      <trkpt lat="43.21068" lon="6.53721">
        <ele>296.8</ele>
        <time>2016-11-13T09:41:43Z</time>
      </trkpt>
      <trkpt lat="43.21058" lon="6.53716">
        <ele>297</ele>
        <time>2016-11-13T09:41:50Z</time>
      </trkpt>
      <trkpt lat="43.21048" lon="6.53716">
        <ele>297.6</ele>
        <time>2016-11-13T09:41:59Z</time>
      </trkpt>
      <trkpt lat="43.21039" lon="6.5371">
        <ele>298</ele>
        <time>2016-11-13T09:42:07Z</time>
      </trkpt>
      <trkpt lat="43.21031" lon="6.53705">
        <ele>298.3</ele>
        <time>2016-11-13T09:42:20Z</time>
      </trkpt>
      <trkpt lat="43.21027" lon="6.53716">
        <ele>299.1</ele>
        <time>2016-11-13T09:44:08Z</time>
      </trkpt>
      <trkpt lat="43.21018" lon="6.53718">
        <ele>298.9</ele>
        <time>2016-11-13T09:46:30Z</time>
      </trkpt>
      <trkpt lat="43.21009" lon="6.53721">
        <ele>298.9</ele>
        <time>2016-11-13T09:46:38Z</time>
      </trkpt>
      <trkpt lat="43.21" lon="6.53724">
        <ele>298.9</ele>
        <time>2016-11-13T09:46:46Z</time>
      </trkpt>
      <trkpt lat="43.2099" lon="6.53726">
        <ele>299.1</ele>
        <time>2016-11-13T09:46:54Z</time>
      </trkpt>
      <trkpt lat="43.20981" lon="6.53731">
        <ele>299.5</ele>
        <time>2016-11-13T09:47:01Z</time>
      </trkpt>
      <trkpt lat="43.20973" lon="6.53737">
        <ele>300</ele>
        <time>2016-11-13T09:47:12Z</time>
      </trkpt>
      <trkpt lat="43.20963" lon="6.5374">
        <ele>300.6</ele>
        <time>2016-11-13T09:47:22Z</time>
      </trkpt>
      <trkpt lat="43.20953" lon="6.53738">
        <ele>301.1</ele>
        <time>2016-11-13T09:47:31Z</time>
      </trkpt>
      <trkpt lat="43.20944" lon="6.53738">
        <ele>301.7</ele>
        <time>2016-11-13T09:47:39Z</time>
      </trkpt>
      <trkpt lat="43.20934" lon="6.53736">
        <ele>302</ele>
        <time>2016-11-13T09:47:47Z</time>
      </trkpt>
      <trkpt lat="43.20925" lon="6.53735">
        <ele>302.2</ele>
        <time>2016-11-13T09:47:53Z</time>
      </trkpt>
      <trkpt lat="43.20916" lon="6.53729">
        <ele>302.4</ele>
        <time>2016-11-13T09:48:04Z</time>
      </trkpt>
      <trkpt lat="43.20907" lon="6.53727">
        <ele>302.5</ele>
        <time>2016-11-13T09:48:11Z</time>
      </trkpt>
      <trkpt lat="43.209" lon="6.53719">
        <ele>302.6</ele>
        <time>2016-11-13T09:48:21Z</time>
      </trkpt>
      <trkpt lat="43.2089" lon="6.53714">
        <ele>302.8</ele>
        <time>2016-11-13T09:48:29Z</time>
      </trkpt>
      <trkpt lat="43.20881" lon="6.53709">
        <ele>303.1</ele>
        <time>2016-11-13T09:48:36Z</time>
      </trkpt>
      <trkpt lat="43.20873" lon="6.53703">
        <ele>303.3</ele>
        <time>2016-11-13T09:48:45Z</time>
      </trkpt>
      <trkpt lat="43.20864" lon="6.53698">
        <ele>304</ele>
        <time>2016-11-13T09:48:59Z</time>
      </trkpt>
      <trkpt lat="43.20856" lon="6.53692">
        <ele>305.2</ele>
        <time>2016-11-13T09:49:09Z</time>
      </trkpt>
      <trkpt lat="43.20847" lon="6.53686">
        <ele>306</ele>
        <time>2016-11-13T09:49:18Z</time>
      </trkpt>
      <trkpt lat="43.2084" lon="6.53677">
        <ele>306.4</ele>
        <time>2016-11-13T09:49:25Z</time>
      </trkpt>
      <trkpt lat="43.20834" lon="6.53666">
        <ele>306.8</ele>
        <time>2016-11-13T09:49:36Z</time>
      </trkpt>
      <trkpt lat="43.20826" lon="6.53658">
        <ele>307.2</ele>
        <time>2016-11-13T09:49:44Z</time>
      </trkpt>
      <trkpt lat="43.20818" lon="6.53653">
        <ele>307.6</ele>
        <time>2016-11-13T09:49:52Z</time>
      </trkpt>
      <trkpt lat="43.20808" lon="6.53652">
        <ele>308.2</ele>
        <time>2016-11-13T09:50:02Z</time>
      </trkpt>
      <trkpt lat="43.20799" lon="6.5365">
        <ele>308.4</ele>
        <time>2016-11-13T09:50:11Z</time>
      </trkpt>
      <trkpt lat="43.20789" lon="6.53648">
        <ele>308.4</ele>
        <time>2016-11-13T09:50:18Z</time>
      </trkpt>
      <trkpt lat="43.20779" lon="6.53643">
        <ele>308.4</ele>
        <time>2016-11-13T09:50:26Z</time>
      </trkpt>
      <trkpt lat="43.2077" lon="6.53639">
        <ele>308.3</ele>
        <time>2016-11-13T09:50:34Z</time>
      </trkpt>
      <trkpt lat="43.20762" lon="6.53635">
        <ele>308</ele>
        <time>2016-11-13T09:50:43Z</time>
      </trkpt>
      <trkpt lat="43.20754" lon="6.53628">
        <ele>307.5</ele>
        <time>2016-11-13T09:50:52Z</time>
      </trkpt>
      <trkpt lat="43.20747" lon="6.53619">
        <ele>306.7</ele>
        <time>2016-11-13T09:51:01Z</time>
      </trkpt>
      <trkpt lat="43.20739" lon="6.53611">
        <ele>305.8</ele>
        <time>2016-11-13T09:51:09Z</time>
      </trkpt>
      <trkpt lat="43.20731" lon="6.53602">
        <ele>305</ele>
        <time>2016-11-13T09:51:19Z</time>
      </trkpt>
      <trkpt lat="43.20726" lon="6.53591">
        <ele>303.9</ele>
        <time>2016-11-13T09:51:28Z</time>
      </trkpt>
      <trkpt lat="43.20719" lon="6.53582">
        <ele>301.9</ele>
        <time>2016-11-13T09:52:09Z</time>
      </trkpt>
      <trkpt lat="43.20714" lon="6.53572">
        <ele>301.4</ele>
        <time>2016-11-13T09:52:17Z</time>
      </trkpt>
      <trkpt lat="43.20711" lon="6.53559">
        <ele>300.7</ele>
        <time>2016-11-13T09:52:26Z</time>
      </trkpt>
      <trkpt lat="43.20707" lon="6.53548">
        <ele>299.5</ele>
        <time>2016-11-13T09:52:36Z</time>
      </trkpt>
      <trkpt lat="43.20703" lon="6.53537">
        <ele>296.6</ele>
        <time>2016-11-13T09:53:24Z</time>
      </trkpt>
      <trkpt lat="43.20709" lon="6.53527">
        <ele>296.5</ele>
        <time>2016-11-13T09:53:36Z</time>
      </trkpt>
      <trkpt lat="43.20713" lon="6.53515">
        <ele>296.1</ele>
        <time>2016-11-13T09:53:44Z</time>
      </trkpt>
      <trkpt lat="43.20715" lon="6.53502">
        <ele>295.4</ele>
        <time>2016-11-13T09:53:52Z</time>
      </trkpt>
      <trkpt lat="43.20712" lon="6.53489">
        <ele>294.8</ele>
        <time>2016-11-13T09:54:00Z</time>
      </trkpt>
      <trkpt lat="43.20707" lon="6.53477">
        <ele>294.2</ele>
        <time>2016-11-13T09:54:08Z</time>
      </trkpt>
      <trkpt lat="43.20701" lon="6.53465">
        <ele>293.8</ele>
        <time>2016-11-13T09:54:22Z</time>
      </trkpt>
      <trkpt lat="43.20694" lon="6.53455">
        <ele>293.6</ele>
        <time>2016-11-13T09:54:30Z</time>
      </trkpt>
      <trkpt lat="43.20689" lon="6.53444">
        <ele>293.3</ele>
        <time>2016-11-13T09:54:38Z</time>
      </trkpt>
      <trkpt lat="43.20683" lon="6.53435">
        <ele>292.9</ele>
        <time>2016-11-13T09:54:45Z</time>
      </trkpt>
      <trkpt lat="43.20677" lon="6.53425">
        <ele>292.6</ele>
        <time>2016-11-13T09:54:52Z</time>
      </trkpt>
      <trkpt lat="43.20672" lon="6.53414">
        <ele>291.8</ele>
        <time>2016-11-13T09:55:02Z</time>
      </trkpt>
      <trkpt lat="43.20668" lon="6.53403">
        <ele>291</ele>
        <time>2016-11-13T09:55:10Z</time>
      </trkpt>
      <trkpt lat="43.20662" lon="6.53393">
        <ele>289.7</ele>
        <time>2016-11-13T09:55:22Z</time>
      </trkpt>
      <trkpt lat="43.20657" lon="6.5338">
        <ele>288.8</ele>
        <time>2016-11-13T09:55:30Z</time>
      </trkpt>
      <trkpt lat="43.20652" lon="6.53369">
        <ele>287.3</ele>
        <time>2016-11-13T09:55:48Z</time>
      </trkpt>
      <trkpt lat="43.20647" lon="6.53358">
        <ele>286.1</ele>
        <time>2016-11-13T09:55:57Z</time>
      </trkpt>
      <trkpt lat="43.20645" lon="6.53346">
        <ele>285.2</ele>
        <time>2016-11-13T09:56:03Z</time>
      </trkpt>
      <trkpt lat="43.20643" lon="6.53333">
        <ele>283.8</ele>
        <time>2016-11-13T09:56:12Z</time>
      </trkpt>
      <trkpt lat="43.2064" lon="6.5332">
        <ele>282.5</ele>
        <time>2016-11-13T09:56:21Z</time>
      </trkpt>
      <trkpt lat="43.2064" lon="6.53307">
        <ele>281.7</ele>
        <time>2016-11-13T09:56:29Z</time>
      </trkpt>
      <trkpt lat="43.2064" lon="6.53294">
        <ele>280.8</ele>
        <time>2016-11-13T09:56:38Z</time>
      </trkpt>
      <trkpt lat="43.20642" lon="6.53281">
        <ele>280.3</ele>
        <time>2016-11-13T09:56:45Z</time>
      </trkpt>
      <trkpt lat="43.20646" lon="6.53268">
        <ele>279.8</ele>
        <time>2016-11-13T09:56:55Z</time>
      </trkpt>
      <trkpt lat="43.20649" lon="6.53255">
        <ele>279.7</ele>
        <time>2016-11-13T09:57:07Z</time>
      </trkpt>
      <trkpt lat="43.20652" lon="6.53243">
        <ele>279.8</ele>
        <time>2016-11-13T09:57:14Z</time>
      </trkpt>
      <trkpt lat="43.20645" lon="6.53233">
        <ele>279.9</ele>
        <time>2016-11-13T09:57:20Z</time>
      </trkpt>
      <trkpt lat="43.20636" lon="6.53229">
        <ele>280.2</ele>
        <time>2016-11-13T09:57:27Z</time>
      </trkpt>
      <trkpt lat="43.20627" lon="6.53226">
        <ele>280.2</ele>
        <time>2016-11-13T09:57:36Z</time>
      </trkpt>
      <trkpt lat="43.20618" lon="6.53222">
        <ele>279.8</ele>
        <time>2016-11-13T09:57:45Z</time>
      </trkpt>
      <trkpt lat="43.2061" lon="6.53215">
        <ele>278.7</ele>
        <time>2016-11-13T09:57:55Z</time>
      </trkpt>
      <trkpt lat="43.20602" lon="6.53208">
        <ele>277.3</ele>
        <time>2016-11-13T09:58:05Z</time>
      </trkpt>
      <trkpt lat="43.20596" lon="6.53198">
        <ele>274.8</ele>
        <time>2016-11-13T09:58:23Z</time>
      </trkpt>
      <trkpt lat="43.20592" lon="6.53187">
        <ele>273.7</ele>
        <time>2016-11-13T09:58:33Z</time>
      </trkpt>
      <trkpt lat="43.2059" lon="6.53174">
        <ele>272.1</ele>
        <time>2016-11-13T09:58:47Z</time>
      </trkpt>
      <trkpt lat="43.20587" lon="6.53161">
        <ele>270.3</ele>
        <time>2016-11-13T09:58:57Z</time>
      </trkpt>
      <trkpt lat="43.20586" lon="6.53149">
        <ele>269.2</ele>
        <time>2016-11-13T09:59:05Z</time>
      </trkpt>
      <trkpt lat="43.20588" lon="6.53136">
        <ele>268.4</ele>
        <time>2016-11-13T09:59:13Z</time>
      </trkpt>
      <trkpt lat="43.20587" lon="6.53124">
        <ele>267.8</ele>
        <time>2016-11-13T09:59:21Z</time>
      </trkpt>
      <trkpt lat="43.20588" lon="6.53111">
        <ele>267.2</ele>
        <time>2016-11-13T09:59:31Z</time>
      </trkpt>
      <trkpt lat="43.20588" lon="6.53098">
        <ele>266.8</ele>
        <time>2016-11-13T09:59:39Z</time>
      </trkpt>
      <trkpt lat="43.20587" lon="6.53085">
        <ele>266.6</ele>
        <time>2016-11-13T09:59:45Z</time>
      </trkpt>
      <trkpt lat="43.20583" lon="6.53072">
        <ele>266.3</ele>
        <time>2016-11-13T09:59:54Z</time>
      </trkpt>
      <trkpt lat="43.20577" lon="6.53061">
        <ele>266.4</ele>
        <time>2016-11-13T10:00:05Z</time>
      </trkpt>
      <trkpt lat="43.20571" lon="6.53051">
        <ele>267.7</ele>
        <time>2016-11-13T10:00:19Z</time>
      </trkpt>
      <trkpt lat="43.20563" lon="6.53045">
        <ele>269.5</ele>
        <time>2016-11-13T10:00:31Z</time>
      </trkpt>
      <trkpt lat="43.20556" lon="6.53035">
        <ele>271.2</ele>
        <time>2016-11-13T10:00:44Z</time>
      </trkpt>
      <trkpt lat="43.2055" lon="6.53025">
        <ele>273</ele>
        <time>2016-11-13T10:01:07Z</time>
      </trkpt>
      <trkpt lat="43.20544" lon="6.53014">
        <ele>274.1</ele>
        <time>2016-11-13T10:01:18Z</time>
      </trkpt>
      <trkpt lat="43.20538" lon="6.53005">
        <ele>274.8</ele>
        <time>2016-11-13T10:01:27Z</time>
      </trkpt>
      <trkpt lat="43.20532" lon="6.52994">
        <ele>275.5</ele>
        <time>2016-11-13T10:01:37Z</time>
      </trkpt>
      <trkpt lat="43.20525" lon="6.52984">
        <ele>276.6</ele>
        <time>2016-11-13T10:01:47Z</time>
      </trkpt>
      <trkpt lat="43.20519" lon="6.52975">
        <ele>277.7</ele>
        <time>2016-11-13T10:01:57Z</time>
      </trkpt>
      <trkpt lat="43.20517" lon="6.52963">
        <ele>279</ele>
        <time>2016-11-13T10:02:09Z</time>
      </trkpt>
      <trkpt lat="43.20516" lon="6.5295">
        <ele>280.5</ele>
        <time>2016-11-13T10:02:22Z</time>
      </trkpt>
      <trkpt lat="43.20516" lon="6.52937">
        <ele>282.4</ele>
        <time>2016-11-13T10:02:34Z</time>
      </trkpt>
      <trkpt lat="43.20516" lon="6.52924">
        <ele>284.1</ele>
        <time>2016-11-13T10:02:43Z</time>
      </trkpt>
      <trkpt lat="43.20517" lon="6.52912">
        <ele>285.2</ele>
        <time>2016-11-13T10:02:52Z</time>
      </trkpt>
      <trkpt lat="43.20512" lon="6.529">
        <ele>285.8</ele>
        <time>2016-11-13T10:03:02Z</time>
      </trkpt>
      <trkpt lat="43.20502" lon="6.52899">
        <ele>287.2</ele>
        <time>2016-11-13T10:04:58Z</time>
      </trkpt>
      <trkpt lat="43.20503" lon="6.52886">
        <ele>287.4</ele>
        <time>2016-11-13T10:07:19Z</time>
      </trkpt>
      <trkpt lat="43.20504" lon="6.52873">
        <ele>287.1</ele>
        <time>2016-11-13T10:07:27Z</time>
      </trkpt>
      <trkpt lat="43.20509" lon="6.52862">
        <ele>286.7</ele>
        <time>2016-11-13T10:07:35Z</time>
      </trkpt>
      <trkpt lat="43.20514" lon="6.5285">
        <ele>286</ele>
        <time>2016-11-13T10:07:43Z</time>
      </trkpt>
      <trkpt lat="43.20519" lon="6.52838">
        <ele>285.4</ele>
        <time>2016-11-13T10:07:52Z</time>
      </trkpt>
      <trkpt lat="43.20524" lon="6.52827">
        <ele>284.6</ele>
        <time>2016-11-13T10:08:01Z</time>
      </trkpt>
      <trkpt lat="43.2053" lon="6.52817">
        <ele>284.1</ele>
        <time>2016-11-13T10:08:11Z</time>
      </trkpt>
      <trkpt lat="43.20536" lon="6.52805">
        <ele>283.9</ele>
        <time>2016-11-13T10:08:20Z</time>
      </trkpt>
      <trkpt lat="43.20541" lon="6.52794">
        <ele>283.9</ele>
        <time>2016-11-13T10:08:28Z</time>
      </trkpt>
      <trkpt lat="43.20548" lon="6.52784">
        <ele>284.1</ele>
        <time>2016-11-13T10:08:36Z</time>
      </trkpt>
      <trkpt lat="43.20554" lon="6.52773">
        <ele>284.4</ele>
        <time>2016-11-13T10:08:42Z</time>
      </trkpt>
      <trkpt lat="43.20558" lon="6.5276">
        <ele>284.9</ele>
        <time>2016-11-13T10:08:51Z</time>
      </trkpt>
      <trkpt lat="43.20566" lon="6.52751">
        <ele>285.4</ele>
        <time>2016-11-13T10:08:59Z</time>
      </trkpt>
      <trkpt lat="43.2057" lon="6.52739">
        <ele>286</ele>
        <time>2016-11-13T10:09:17Z</time>
      </trkpt>
      <trkpt lat="43.20578" lon="6.5273">
        <ele>286.1</ele>
        <time>2016-11-13T10:09:24Z</time>
      </trkpt>
      <trkpt lat="43.20586" lon="6.52723">
        <ele>285.9</ele>
        <time>2016-11-13T10:09:33Z</time>
      </trkpt>
      <trkpt lat="43.20593" lon="6.52713">
        <ele>285.6</ele>
        <time>2016-11-13T10:09:40Z</time>
      </trkpt>
      <trkpt lat="43.20599" lon="6.52705">
        <ele>285.5</ele>
        <time>2016-11-13T10:09:46Z</time>
      </trkpt>
      <trkpt lat="43.20604" lon="6.52693">
        <ele>285.6</ele>
        <time>2016-11-13T10:09:54Z</time>
      </trkpt>
      <trkpt lat="43.20609" lon="6.52683">
        <ele>285.7</ele>
        <time>2016-11-13T10:10:02Z</time>
      </trkpt>
      <trkpt lat="43.20614" lon="6.52672">
        <ele>286</ele>
        <time>2016-11-13T10:10:10Z</time>
      </trkpt>
      <trkpt lat="43.2062" lon="6.52662">
        <ele>286.4</ele>
        <time>2016-11-13T10:10:19Z</time>
      </trkpt>
      <trkpt lat="43.20623" lon="6.5265">
        <ele>286.8</ele>
        <time>2016-11-13T10:10:28Z</time>
      </trkpt>
      <trkpt lat="43.20629" lon="6.5264">
        <ele>287.2</ele>
        <time>2016-11-13T10:10:35Z</time>
      </trkpt>
      <trkpt lat="43.20633" lon="6.52628">
        <ele>288.3</ele>
        <time>2016-11-13T10:10:50Z</time>
      </trkpt>
      <trkpt lat="43.20637" lon="6.52616">
        <ele>288.7</ele>
        <time>2016-11-13T10:11:01Z</time>
      </trkpt>
      <trkpt lat="43.20641" lon="6.52604">
        <ele>289</ele>
        <time>2016-11-13T10:11:11Z</time>
      </trkpt>
      <trkpt lat="43.20645" lon="6.52592">
        <ele>289.8</ele>
        <time>2016-11-13T10:11:20Z</time>
      </trkpt>
      <trkpt lat="43.2065" lon="6.52582">
        <ele>290.3</ele>
        <time>2016-11-13T10:11:28Z</time>
      </trkpt>
      <trkpt lat="43.20653" lon="6.52569">
        <ele>290.9</ele>
        <time>2016-11-13T10:11:37Z</time>
      </trkpt>
      <trkpt lat="43.20654" lon="6.52556">
        <ele>291.4</ele>
        <time>2016-11-13T10:11:45Z</time>
      </trkpt>
      <trkpt lat="43.20652" lon="6.52543">
        <ele>292</ele>
        <time>2016-11-13T10:11:52Z</time>
      </trkpt>
      <trkpt lat="43.20652" lon="6.5253">
        <ele>292.7</ele>
        <time>2016-11-13T10:12:00Z</time>
      </trkpt>
      <trkpt lat="43.20654" lon="6.52516">
        <ele>293.1</ele>
        <time>2016-11-13T10:12:09Z</time>
      </trkpt>
      <trkpt lat="43.20652" lon="6.52504">
        <ele>293.3</ele>
        <time>2016-11-13T10:12:15Z</time>
      </trkpt>
      <trkpt lat="43.20653" lon="6.52491">
        <ele>293.8</ele>
        <time>2016-11-13T10:12:23Z</time>
      </trkpt>
      <trkpt lat="43.20652" lon="6.52478">
        <ele>294.5</ele>
        <time>2016-11-13T10:12:31Z</time>
      </trkpt>
      <trkpt lat="43.20652" lon="6.52465">
        <ele>295.5</ele>
        <time>2016-11-13T10:12:40Z</time>
      </trkpt>
      <trkpt lat="43.2065" lon="6.52452">
        <ele>296.2</ele>
        <time>2016-11-13T10:12:48Z</time>
      </trkpt>
      <trkpt lat="43.2065" lon="6.52439">
        <ele>297.2</ele>
        <time>2016-11-13T10:12:57Z</time>
      </trkpt>
      <trkpt lat="43.2065" lon="6.52426">
        <ele>298.1</ele>
        <time>2016-11-13T10:13:07Z</time>
      </trkpt>
      <trkpt lat="43.20653" lon="6.52414">
        <ele>299.5</ele>
        <time>2016-11-13T10:13:18Z</time>
      </trkpt>
      <trkpt lat="43.20657" lon="6.52402">
        <ele>301.1</ele>
        <time>2016-11-13T10:13:28Z</time>
      </trkpt>
      <trkpt lat="43.20661" lon="6.5239">
        <ele>303.1</ele>
        <time>2016-11-13T10:13:41Z</time>
      </trkpt>
      <trkpt lat="43.20663" lon="6.52378">
        <ele>306.3</ele>
        <time>2016-11-13T10:14:06Z</time>
      </trkpt>
      <trkpt lat="43.20667" lon="6.52367">
        <ele>309.1</ele>
        <time>2016-11-13T10:14:32Z</time>
      </trkpt>
      <trkpt lat="43.20673" lon="6.52357">
        <ele>312.7</ele>
        <time>2016-11-13T10:14:59Z</time>
      </trkpt>
      <trkpt lat="43.20676" lon="6.52345">
        <ele>314.4</ele>
        <time>2016-11-13T10:15:18Z</time>
      </trkpt>
      <trkpt lat="43.20677" lon="6.52332">
        <ele>315.4</ele>
        <time>2016-11-13T10:15:31Z</time>
      </trkpt>
      <trkpt lat="43.20678" lon="6.52319">
        <ele>317.1</ele>
        <time>2016-11-13T10:15:48Z</time>
      </trkpt>
      <trkpt lat="43.20679" lon="6.52307">
        <ele>318.6</ele>
        <time>2016-11-13T10:16:02Z</time>
      </trkpt>
      <trkpt lat="43.2068" lon="6.52294">
        <ele>320.3</ele>
        <time>2016-11-13T10:16:17Z</time>
      </trkpt>
      <trkpt lat="43.20681" lon="6.52281">
        <ele>322.1</ele>
        <time>2016-11-13T10:16:36Z</time>
      </trkpt>
      <trkpt lat="43.2068" lon="6.52268">
        <ele>322.9</ele>
        <time>2016-11-13T10:16:49Z</time>
      </trkpt>
      <trkpt lat="43.20684" lon="6.52256">
        <ele>323.1</ele>
        <time>2016-11-13T10:16:59Z</time>
      </trkpt>
      <trkpt lat="43.20689" lon="6.52245">
        <ele>323.1</ele>
        <time>2016-11-13T10:17:09Z</time>
      </trkpt>
      <trkpt lat="43.20694" lon="6.52235">
        <ele>323.4</ele>
        <time>2016-11-13T10:17:19Z</time>
      </trkpt>
      <trkpt lat="43.20691" lon="6.52223">
        <ele>323.8</ele>
        <time>2016-11-13T10:17:29Z</time>
      </trkpt>
      <trkpt lat="43.20686" lon="6.52213">
        <ele>324.4</ele>
        <time>2016-11-13T10:17:41Z</time>
      </trkpt>
      <trkpt lat="43.20682" lon="6.52202">
        <ele>325.3</ele>
        <time>2016-11-13T10:17:52Z</time>
      </trkpt>
      <trkpt lat="43.20678" lon="6.5219">
        <ele>327</ele>
        <time>2016-11-13T10:18:09Z</time>
      </trkpt>
      <trkpt lat="43.20677" lon="6.52178">
        <ele>329.2</ele>
        <time>2016-11-13T10:18:32Z</time>
      </trkpt>
      <trkpt lat="43.20673" lon="6.52167">
        <ele>330.4</ele>
        <time>2016-11-13T10:18:46Z</time>
      </trkpt>
      <trkpt lat="43.20668" lon="6.52156">
        <ele>331.3</ele>
        <time>2016-11-13T10:18:57Z</time>
      </trkpt>
      <trkpt lat="43.20664" lon="6.52144">
        <ele>332.7</ele>
        <time>2016-11-13T10:19:12Z</time>
      </trkpt>
      <trkpt lat="43.20659" lon="6.52134">
        <ele>333.9</ele>
        <time>2016-11-13T10:19:43Z</time>
      </trkpt>
      <trkpt lat="43.2065" lon="6.52128">
        <ele>334.3</ele>
        <time>2016-11-13T10:19:55Z</time>
      </trkpt>
      <trkpt lat="43.20643" lon="6.52119">
        <ele>334.5</ele>
        <time>2016-11-13T10:20:06Z</time>
      </trkpt>
      <trkpt lat="43.20636" lon="6.52112">
        <ele>334.9</ele>
        <time>2016-11-13T10:20:16Z</time>
      </trkpt>
      <trkpt lat="43.20629" lon="6.52105">
        <ele>336.1</ele>
        <time>2016-11-13T10:20:30Z</time>
      </trkpt>
      <trkpt lat="43.20625" lon="6.52094">
        <ele>338.5</ele>
        <time>2016-11-13T10:20:51Z</time>
      </trkpt>
      <trkpt lat="43.20622" lon="6.52081">
        <ele>342.3</ele>
        <time>2016-11-13T10:21:18Z</time>
      </trkpt>
      <trkpt lat="43.20622" lon="6.52069">
        <ele>344.4</ele>
        <time>2016-11-13T10:21:35Z</time>
      </trkpt>
      <trkpt lat="43.20619" lon="6.52057">
        <ele>347.6</ele>
        <time>2016-11-13T10:22:05Z</time>
      </trkpt>
      <trkpt lat="43.20617" lon="6.52045">
        <ele>349.9</ele>
        <time>2016-11-13T10:22:27Z</time>
      </trkpt>
      <trkpt lat="43.20621" lon="6.52033">
        <ele>353</ele>
        <time>2016-11-13T10:22:56Z</time>
      </trkpt>
      <trkpt lat="43.2062" lon="6.52021">
        <ele>353.8</ele>
        <time>2016-11-13T10:24:02Z</time>
      </trkpt>
      <trkpt lat="43.20616" lon="6.52008">
        <ele>353.8</ele>
        <time>2016-11-13T10:24:16Z</time>
      </trkpt>
      <trkpt lat="43.20611" lon="6.51997">
        <ele>353.8</ele>
        <time>2016-11-13T10:24:26Z</time>
      </trkpt>
      <trkpt lat="43.20606" lon="6.51987">
        <ele>354</ele>
        <time>2016-11-13T10:24:36Z</time>
      </trkpt>
      <trkpt lat="43.20601" lon="6.51976">
        <ele>354.6</ele>
        <time>2016-11-13T10:24:48Z</time>
      </trkpt>
      <trkpt lat="43.20598" lon="6.51964">
        <ele>356.3</ele>
        <time>2016-11-13T10:25:04Z</time>
      </trkpt>
      <trkpt lat="43.20597" lon="6.51951">
        <ele>358.3</ele>
        <time>2016-11-13T10:25:19Z</time>
      </trkpt>
      <trkpt lat="43.20597" lon="6.51937">
        <ele>359.6</ele>
        <time>2016-11-13T10:25:30Z</time>
      </trkpt>
      <trkpt lat="43.20598" lon="6.51924">
        <ele>360.8</ele>
        <time>2016-11-13T10:25:43Z</time>
      </trkpt>
      <trkpt lat="43.20598" lon="6.51911">
        <ele>362</ele>
        <time>2016-11-13T10:25:55Z</time>
      </trkpt>
      <trkpt lat="43.20593" lon="6.51901">
        <ele>363.8</ele>
        <time>2016-11-13T10:26:13Z</time>
      </trkpt>
      <trkpt lat="43.20594" lon="6.51888">
        <ele>365.9</ele>
        <time>2016-11-13T10:26:32Z</time>
      </trkpt>
      <trkpt lat="43.20594" lon="6.51875">
        <ele>367.9</ele>
        <time>2016-11-13T10:26:45Z</time>
      </trkpt>
      <trkpt lat="43.20592" lon="6.51863">
        <ele>370.1</ele>
        <time>2016-11-13T10:27:00Z</time>
      </trkpt>
      <trkpt lat="43.20589" lon="6.51851">
        <ele>372.5</ele>
        <time>2016-11-13T10:27:19Z</time>
      </trkpt>
      <trkpt lat="43.20584" lon="6.5184">
        <ele>375</ele>
        <time>2016-11-13T10:27:41Z</time>
      </trkpt>
      <trkpt lat="43.20581" lon="6.51828">
        <ele>377.1</ele>
        <time>2016-11-13T10:27:58Z</time>
      </trkpt>
      <trkpt lat="43.20574" lon="6.51818">
        <ele>378.2</ele>
        <time>2016-11-13T10:28:08Z</time>
      </trkpt>
      <trkpt lat="43.2057" lon="6.51807">
        <ele>379.4</ele>
        <time>2016-11-13T10:28:19Z</time>
      </trkpt>
      <trkpt lat="43.20564" lon="6.51797">
        <ele>380.4</ele>
        <time>2016-11-13T10:28:30Z</time>
      </trkpt>
      <trkpt lat="43.20557" lon="6.51789">
        <ele>381.2</ele>
        <time>2016-11-13T10:28:38Z</time>
      </trkpt>
      <trkpt lat="43.20549" lon="6.5178">
        <ele>382</ele>
        <time>2016-11-13T10:28:47Z</time>
      </trkpt>
      <trkpt lat="43.20543" lon="6.5177">
        <ele>383.1</ele>
        <time>2016-11-13T10:29:00Z</time>
      </trkpt>
      <trkpt lat="43.20537" lon="6.5176">
        <ele>384.9</ele>
        <time>2016-11-13T10:29:16Z</time>
      </trkpt>
      <trkpt lat="43.20528" lon="6.51755">
        <ele>387.2</ele>
        <time>2016-11-13T10:29:37Z</time>
      </trkpt>
      <trkpt lat="43.20522" lon="6.51745">
        <ele>390.6</ele>
        <time>2016-11-13T10:30:06Z</time>
      </trkpt>
      <trkpt lat="43.20516" lon="6.51736">
        <ele>392.3</ele>
        <time>2016-11-13T10:30:24Z</time>
      </trkpt>
      <trkpt lat="43.20511" lon="6.51725">
        <ele>395.3</ele>
        <time>2016-11-13T10:30:50Z</time>
      </trkpt>
      <trkpt lat="43.20506" lon="6.51715">
        <ele>397.6</ele>
        <time>2016-11-13T10:31:15Z</time>
      </trkpt>
      <trkpt lat="43.20498" lon="6.51709">
        <ele>400.1</ele>
        <time>2016-11-13T10:31:45Z</time>
      </trkpt>
      <trkpt lat="43.2049" lon="6.51702">
        <ele>401.9</ele>
        <time>2016-11-13T10:32:05Z</time>
      </trkpt>
      <trkpt lat="43.20482" lon="6.51709">
        <ele>403.3</ele>
        <time>2016-11-13T10:32:25Z</time>
      </trkpt>
      <trkpt lat="43.20483" lon="6.51697">
        <ele>405.1</ele>
        <time>2016-11-13T10:32:48Z</time>
      </trkpt>
      <trkpt lat="43.20476" lon="6.51688">
        <ele>407.4</ele>
        <time>2016-11-13T10:33:04Z</time>
      </trkpt>
      <trkpt lat="43.20468" lon="6.51681">
        <ele>410.1</ele>
        <time>2016-11-13T10:33:28Z</time>
      </trkpt>
      <trkpt lat="43.20463" lon="6.5167">
        <ele>412.3</ele>
        <time>2016-11-13T10:33:47Z</time>
      </trkpt>
      <trkpt lat="43.20455" lon="6.51663">
        <ele>414.3</ele>
        <time>2016-11-13T10:34:05Z</time>
      </trkpt>
      <trkpt lat="43.20448" lon="6.51654">
        <ele>416.8</ele>
        <time>2016-11-13T10:34:24Z</time>
      </trkpt>
      <trkpt lat="43.20439" lon="6.5165">
        <ele>419.2</ele>
        <time>2016-11-13T10:34:42Z</time>
      </trkpt>
      <trkpt lat="43.2043" lon="6.51647">
        <ele>420.9</ele>
        <time>2016-11-13T10:34:57Z</time>
      </trkpt>
      <trkpt lat="43.2042" lon="6.51644">
        <ele>423</ele>
        <time>2016-11-13T10:35:16Z</time>
      </trkpt>
      <trkpt lat="43.20411" lon="6.51647">
        <ele>426.3</ele>
        <time>2016-11-13T10:35:39Z</time>
      </trkpt>
      <trkpt lat="43.20402" lon="6.51648">
        <ele>427.3</ele>
        <time>2016-11-13T10:35:47Z</time>
      </trkpt>
      <trkpt lat="43.20392" lon="6.51646">
        <ele>428.5</ele>
        <time>2016-11-13T10:35:56Z</time>
      </trkpt>
      <trkpt lat="43.20383" lon="6.51642">
        <ele>429.6</ele>
        <time>2016-11-13T10:36:07Z</time>
      </trkpt>
      <trkpt lat="43.20374" lon="6.51639">
        <ele>430.2</ele>
        <time>2016-11-13T10:36:18Z</time>
      </trkpt>
      <trkpt lat="43.20365" lon="6.51634">
        <ele>431.4</ele>
        <time>2016-11-13T10:36:33Z</time>
      </trkpt>
      <trkpt lat="43.20356" lon="6.51629">
        <ele>433.2</ele>
        <time>2016-11-13T10:36:49Z</time>
      </trkpt>
      <trkpt lat="43.20347" lon="6.51626">
        <ele>435.1</ele>
        <time>2016-11-13T10:37:04Z</time>
      </trkpt>
      <trkpt lat="43.20339" lon="6.51619">
        <ele>436.5</ele>
        <time>2016-11-13T10:37:17Z</time>
      </trkpt>
      <trkpt lat="43.2033" lon="6.51614">
        <ele>437.1</ele>
        <time>2016-11-13T10:37:26Z</time>
      </trkpt>
      <trkpt lat="43.20321" lon="6.5161">
        <ele>437.6</ele>
        <time>2016-11-13T10:37:37Z</time>
      </trkpt>
      <trkpt lat="43.20312" lon="6.51605">
        <ele>437.7</ele>
        <time>2016-11-13T10:37:45Z</time>
      </trkpt>
      <trkpt lat="43.20304" lon="6.51599">
        <ele>438.1</ele>
        <time>2016-11-13T10:37:55Z</time>
      </trkpt>
      <trkpt lat="43.20296" lon="6.51595">
        <ele>438.9</ele>
        <time>2016-11-13T10:38:06Z</time>
      </trkpt>
      <trkpt lat="43.20286" lon="6.51597">
        <ele>440.1</ele>
        <time>2016-11-13T10:38:17Z</time>
      </trkpt>
      <trkpt lat="43.20277" lon="6.51601">
        <ele>441.3</ele>
        <time>2016-11-13T10:38:30Z</time>
      </trkpt>
      <trkpt lat="43.20268" lon="6.51602">
        <ele>442.9</ele>
        <time>2016-11-13T10:38:45Z</time>
      </trkpt>
      <trkpt lat="43.20266" lon="6.5159">
        <ele>445.7</ele>
        <time>2016-11-13T10:39:10Z</time>
      </trkpt>
      <trkpt lat="43.20265" lon="6.51602">
        <ele>446.8</ele>
        <time>2016-11-13T10:40:29Z</time>
      </trkpt>
      <trkpt lat="43.20256" lon="6.51605">
        <ele>447.1</ele>
        <time>2016-11-13T10:40:53Z</time>
      </trkpt>
      <trkpt lat="43.20247" lon="6.51603">
        <ele>447.3</ele>
        <time>2016-11-13T10:41:06Z</time>
      </trkpt>
      <trkpt lat="43.20238" lon="6.51607">
        <ele>447.6</ele>
        <time>2016-11-13T10:41:18Z</time>
      </trkpt>
      <trkpt lat="43.2023" lon="6.51614">
        <ele>448</ele>
        <time>2016-11-13T10:41:31Z</time>
      </trkpt>
      <trkpt lat="43.20229" lon="6.51626">
        <ele>447.8</ele>
        <time>2016-11-13T10:42:00Z</time>
      </trkpt>
      <trkpt lat="43.20231" lon="6.51638">
        <ele>445.7</ele>
        <time>2016-11-13T10:43:36Z</time>
      </trkpt>
      <trkpt lat="43.2024" lon="6.51636">
        <ele>447.8</ele>
        <time>2016-11-13T11:14:58Z</time>
      </trkpt>
      <trkpt lat="43.20231" lon="6.51636">
        <ele>448.4</ele>
        <time>2016-11-13T11:16:59Z</time>
      </trkpt>
      <trkpt lat="43.20231" lon="6.51624">
        <ele>450.6</ele>
        <time>2016-11-13T12:01:15Z</time>
      </trkpt>
      <trkpt lat="43.20237" lon="6.51614">
        <ele>452.5</ele>
        <time>2016-11-13T12:01:54Z</time>
      </trkpt>
      <trkpt lat="43.20241" lon="6.51603">
        <ele>453.2</ele>
        <time>2016-11-13T12:02:14Z</time>
      </trkpt>
      <trkpt lat="43.20248" lon="6.51595">
        <ele>453.7</ele>
        <time>2016-11-13T12:02:34Z</time>
      </trkpt>
      <trkpt lat="43.20248" lon="6.51582">
        <ele>453.2</ele>
        <time>2016-11-13T12:03:02Z</time>
      </trkpt>
      <trkpt lat="43.20241" lon="6.51573">
        <ele>453</ele>
        <time>2016-11-13T12:03:18Z</time>
      </trkpt>
      <trkpt lat="43.20234" lon="6.51565">
        <ele>452.7</ele>
        <time>2016-11-13T12:03:28Z</time>
      </trkpt>
      <trkpt lat="43.20227" lon="6.51558">
        <ele>452</ele>
        <time>2016-11-13T12:03:39Z</time>
      </trkpt>
      <trkpt lat="43.20219" lon="6.51548">
        <ele>451.4</ele>
        <time>2016-11-13T12:03:49Z</time>
      </trkpt>
      <trkpt lat="43.20211" lon="6.51541">
        <ele>450.7</ele>
        <time>2016-11-13T12:04:06Z</time>
      </trkpt>
      <trkpt lat="43.20202" lon="6.51533">
        <ele>450.4</ele>
        <time>2016-11-13T12:04:24Z</time>
      </trkpt>
      <trkpt lat="43.20194" lon="6.51527">
        <ele>450.2</ele>
        <time>2016-11-13T12:04:32Z</time>
      </trkpt>
      <trkpt lat="43.20186" lon="6.5152">
        <ele>450.1</ele>
        <time>2016-11-13T12:04:40Z</time>
      </trkpt>
      <trkpt lat="43.20179" lon="6.51512">
        <ele>449</ele>
        <time>2016-11-13T12:05:14Z</time>
      </trkpt>
      <trkpt lat="43.20171" lon="6.51505">
        <ele>448.6</ele>
        <time>2016-11-13T12:05:21Z</time>
      </trkpt>
      <trkpt lat="43.20162" lon="6.515">
        <ele>447.8</ele>
        <time>2016-11-13T12:05:30Z</time>
      </trkpt>
      <trkpt lat="43.20153" lon="6.51493">
        <ele>447.2</ele>
        <time>2016-11-13T12:05:38Z</time>
      </trkpt>
      <trkpt lat="43.20145" lon="6.51487">
        <ele>446.3</ele>
        <time>2016-11-13T12:05:47Z</time>
      </trkpt>
      <trkpt lat="43.20137" lon="6.5148">
        <ele>445.6</ele>
        <time>2016-11-13T12:05:55Z</time>
      </trkpt>
      <trkpt lat="43.2013" lon="6.51472">
        <ele>444.8</ele>
        <time>2016-11-13T12:06:03Z</time>
      </trkpt>
      <trkpt lat="43.20122" lon="6.51464">
        <ele>443.5</ele>
        <time>2016-11-13T12:06:13Z</time>
      </trkpt>
      <trkpt lat="43.20114" lon="6.51457">
        <ele>442.5</ele>
        <time>2016-11-13T12:06:23Z</time>
      </trkpt>
      <trkpt lat="43.20105" lon="6.51452">
        <ele>441.4</ele>
        <time>2016-11-13T12:06:31Z</time>
      </trkpt>
      <trkpt lat="43.20097" lon="6.51446">
        <ele>440.3</ele>
        <time>2016-11-13T12:06:38Z</time>
      </trkpt>
      <trkpt lat="43.20088" lon="6.51444">
        <ele>439.1</ele>
        <time>2016-11-13T12:06:48Z</time>
      </trkpt>
      <trkpt lat="43.2008" lon="6.51437">
        <ele>438.3</ele>
        <time>2016-11-13T12:06:55Z</time>
      </trkpt>
      <trkpt lat="43.20073" lon="6.51428">
        <ele>437.6</ele>
        <time>2016-11-13T12:07:02Z</time>
      </trkpt>
      <trkpt lat="43.20067" lon="6.51418">
        <ele>436.2</ele>
        <time>2016-11-13T12:07:11Z</time>
      </trkpt>
      <trkpt lat="43.2006" lon="6.51408">
        <ele>434.8</ele>
        <time>2016-11-13T12:07:20Z</time>
      </trkpt>
      <trkpt lat="43.20054" lon="6.51398">
        <ele>433.6</ele>
        <time>2016-11-13T12:07:28Z</time>
      </trkpt>
      <trkpt lat="43.20047" lon="6.5139">
        <ele>432.7</ele>
        <time>2016-11-13T12:07:35Z</time>
      </trkpt>
      <trkpt lat="43.20041" lon="6.51381">
        <ele>431.8</ele>
        <time>2016-11-13T12:07:43Z</time>
      </trkpt>
      <trkpt lat="43.20035" lon="6.51371">
        <ele>430.9</ele>
        <time>2016-11-13T12:07:51Z</time>
      </trkpt>
      <trkpt lat="43.20028" lon="6.51362">
        <ele>430.2</ele>
        <time>2016-11-13T12:07:59Z</time>
      </trkpt>
      <trkpt lat="43.2002" lon="6.51354">
        <ele>429.2</ele>
        <time>2016-11-13T12:08:09Z</time>
      </trkpt>
      <trkpt lat="43.20011" lon="6.51351">
        <ele>428.7</ele>
        <time>2016-11-13T12:08:18Z</time>
      </trkpt>
      <trkpt lat="43.20001" lon="6.51354">
        <ele>428.4</ele>
        <time>2016-11-13T12:08:26Z</time>
      </trkpt>
      <trkpt lat="43.19992" lon="6.51355">
        <ele>427.9</ele>
        <time>2016-11-13T12:08:33Z</time>
      </trkpt>
      <trkpt lat="43.19993" lon="6.51342">
        <ele>426.2</ele>
        <time>2016-11-13T12:08:48Z</time>
      </trkpt>
      <trkpt lat="43.20002" lon="6.51337">
        <ele>424.8</ele>
        <time>2016-11-13T12:08:57Z</time>
      </trkpt>
      <trkpt lat="43.20012" lon="6.51332">
        <ele>423.4</ele>
        <time>2016-11-13T12:09:06Z</time>
      </trkpt>
      <trkpt lat="43.20021" lon="6.51329">
        <ele>422</ele>
        <time>2016-11-13T12:09:15Z</time>
      </trkpt>
      <trkpt lat="43.2003" lon="6.51334">
        <ele>420.7</ele>
        <time>2016-11-13T12:09:25Z</time>
      </trkpt>
      <trkpt lat="43.20038" lon="6.51341">
        <ele>419.7</ele>
        <time>2016-11-13T12:09:33Z</time>
      </trkpt>
      <trkpt lat="43.20047" lon="6.51347">
        <ele>418.5</ele>
        <time>2016-11-13T12:09:42Z</time>
      </trkpt>
      <trkpt lat="43.20054" lon="6.51354">
        <ele>417.7</ele>
        <time>2016-11-13T12:09:50Z</time>
      </trkpt>
      <trkpt lat="43.20061" lon="6.51363">
        <ele>417</ele>
        <time>2016-11-13T12:09:59Z</time>
      </trkpt>
      <trkpt lat="43.2007" lon="6.51368">
        <ele>416.3</ele>
        <time>2016-11-13T12:10:07Z</time>
      </trkpt>
      <trkpt lat="43.20078" lon="6.51372">
        <ele>415.6</ele>
        <time>2016-11-13T12:10:15Z</time>
      </trkpt>
      <trkpt lat="43.20088" lon="6.51374">
        <ele>414.7</ele>
        <time>2016-11-13T12:10:23Z</time>
      </trkpt>
      <trkpt lat="43.20097" lon="6.51376">
        <ele>413.4</ele>
        <time>2016-11-13T12:10:31Z</time>
      </trkpt>
      <trkpt lat="43.20107" lon="6.51378">
        <ele>412.5</ele>
        <time>2016-11-13T12:10:40Z</time>
      </trkpt>
      <trkpt lat="43.20116" lon="6.51381">
        <ele>411.4</ele>
        <time>2016-11-13T12:10:48Z</time>
      </trkpt>
      <trkpt lat="43.20126" lon="6.51382">
        <ele>410.5</ele>
        <time>2016-11-13T12:10:57Z</time>
      </trkpt>
      <trkpt lat="43.20135" lon="6.51387">
        <ele>409.7</ele>
        <time>2016-11-13T12:11:04Z</time>
      </trkpt>
      <trkpt lat="43.20145" lon="6.51389">
        <ele>408.6</ele>
        <time>2016-11-13T12:11:12Z</time>
      </trkpt>
      <trkpt lat="43.20155" lon="6.51392">
        <ele>407.8</ele>
        <time>2016-11-13T12:11:21Z</time>
      </trkpt>
      <trkpt lat="43.20164" lon="6.51397">
        <ele>407</ele>
        <time>2016-11-13T12:11:30Z</time>
      </trkpt>
      <trkpt lat="43.20173" lon="6.51398">
        <ele>406.4</ele>
        <time>2016-11-13T12:11:37Z</time>
      </trkpt>
      <trkpt lat="43.20183" lon="6.514">
        <ele>406.1</ele>
        <time>2016-11-13T12:11:46Z</time>
      </trkpt>
      <trkpt lat="43.20192" lon="6.51403">
        <ele>405.8</ele>
        <time>2016-11-13T12:11:53Z</time>
      </trkpt>
      <trkpt lat="43.20201" lon="6.51407">
        <ele>405.7</ele>
        <time>2016-11-13T12:12:03Z</time>
      </trkpt>
      <trkpt lat="43.20209" lon="6.51414">
        <ele>405.6</ele>
        <time>2016-11-13T12:12:12Z</time>
      </trkpt>
      <trkpt lat="43.20219" lon="6.51413">
        <ele>405.4</ele>
        <time>2016-11-13T12:12:21Z</time>
      </trkpt>
      <trkpt lat="43.20228" lon="6.51414">
        <ele>404.9</ele>
        <time>2016-11-13T12:12:29Z</time>
      </trkpt>
      <trkpt lat="43.20238" lon="6.51414">
        <ele>403.8</ele>
        <time>2016-11-13T12:12:38Z</time>
      </trkpt>
      <trkpt lat="43.20247" lon="6.51413">
        <ele>403</ele>
        <time>2016-11-13T12:12:46Z</time>
      </trkpt>
      <trkpt lat="43.20255" lon="6.51407">
        <ele>402.3</ele>
        <time>2016-11-13T12:12:54Z</time>
      </trkpt>
      <trkpt lat="43.20263" lon="6.51401">
        <ele>401.5</ele>
        <time>2016-11-13T12:13:02Z</time>
      </trkpt>
      <trkpt lat="43.20271" lon="6.51392">
        <ele>400.4</ele>
        <time>2016-11-13T12:13:10Z</time>
      </trkpt>
      <trkpt lat="43.2028" lon="6.51386">
        <ele>399.4</ele>
        <time>2016-11-13T12:13:19Z</time>
      </trkpt>
      <trkpt lat="43.20287" lon="6.51379">
        <ele>399</ele>
        <time>2016-11-13T12:13:24Z</time>
      </trkpt>
      <trkpt lat="43.20293" lon="6.51369">
        <ele>397.8</ele>
        <time>2016-11-13T12:13:32Z</time>
      </trkpt>
      <trkpt lat="43.20295" lon="6.51356">
        <ele>396.8</ele>
        <time>2016-11-13T12:13:41Z</time>
      </trkpt>
      <trkpt lat="43.20297" lon="6.51342">
        <ele>396</ele>
        <time>2016-11-13T12:13:50Z</time>
      </trkpt>
      <trkpt lat="43.20302" lon="6.51331">
        <ele>395.3</ele>
        <time>2016-11-13T12:13:56Z</time>
      </trkpt>
      <trkpt lat="43.20309" lon="6.5132">
        <ele>393.7</ele>
        <time>2016-11-13T12:14:06Z</time>
      </trkpt>
      <trkpt lat="43.20317" lon="6.51312">
        <ele>392.5</ele>
        <time>2016-11-13T12:14:15Z</time>
      </trkpt>
      <trkpt lat="43.20321" lon="6.513">
        <ele>391.7</ele>
        <time>2016-11-13T12:14:23Z</time>
      </trkpt>
      <trkpt lat="43.20328" lon="6.51291">
        <ele>390.8</ele>
        <time>2016-11-13T12:14:32Z</time>
      </trkpt>
      <trkpt lat="43.20335" lon="6.51282">
        <ele>389.7</ele>
        <time>2016-11-13T12:14:41Z</time>
      </trkpt>
      <trkpt lat="43.20342" lon="6.51274">
        <ele>388.6</ele>
        <time>2016-11-13T12:14:52Z</time>
      </trkpt>
      <trkpt lat="43.20351" lon="6.51268">
        <ele>387.8</ele>
        <time>2016-11-13T12:15:00Z</time>
      </trkpt>
      <trkpt lat="43.20357" lon="6.51258">
        <ele>386.9</ele>
        <time>2016-11-13T12:15:08Z</time>
      </trkpt>
      <trkpt lat="43.20366" lon="6.51254">
        <ele>386</ele>
        <time>2016-11-13T12:15:16Z</time>
      </trkpt>
      <trkpt lat="43.20372" lon="6.51244">
        <ele>385</ele>
        <time>2016-11-13T12:15:24Z</time>
      </trkpt>
      <trkpt lat="43.20383" lon="6.5124">
        <ele>383.8</ele>
        <time>2016-11-13T12:15:32Z</time>
      </trkpt>
      <trkpt lat="43.20392" lon="6.51236">
        <ele>383</ele>
        <time>2016-11-13T12:15:40Z</time>
      </trkpt>
      <trkpt lat="43.20401" lon="6.51232">
        <ele>382.2</ele>
        <time>2016-11-13T12:15:48Z</time>
      </trkpt>
      <trkpt lat="43.20409" lon="6.51226">
        <ele>380.9</ele>
        <time>2016-11-13T12:15:58Z</time>
      </trkpt>
      <trkpt lat="43.20418" lon="6.51219">
        <ele>379.9</ele>
        <time>2016-11-13T12:16:06Z</time>
      </trkpt>
      <trkpt lat="43.20425" lon="6.51212">
        <ele>379.1</ele>
        <time>2016-11-13T12:16:13Z</time>
      </trkpt>
      <trkpt lat="43.20432" lon="6.51203">
        <ele>378.2</ele>
        <time>2016-11-13T12:16:22Z</time>
      </trkpt>
      <trkpt lat="43.20439" lon="6.51192">
        <ele>377.3</ele>
        <time>2016-11-13T12:16:31Z</time>
      </trkpt>
      <trkpt lat="43.20446" lon="6.51183">
        <ele>376.4</ele>
        <time>2016-11-13T12:16:40Z</time>
      </trkpt>
      <trkpt lat="43.20454" lon="6.51176">
        <ele>375.5</ele>
        <time>2016-11-13T12:16:48Z</time>
      </trkpt>
      <trkpt lat="43.20463" lon="6.51169">
        <ele>375.1</ele>
        <time>2016-11-13T12:16:56Z</time>
      </trkpt>
      <trkpt lat="43.2047" lon="6.51161">
        <ele>374.4</ele>
        <time>2016-11-13T12:17:05Z</time>
      </trkpt>
      <trkpt lat="43.20477" lon="6.51152">
        <ele>373.6</ele>
        <time>2016-11-13T12:17:14Z</time>
      </trkpt>
      <trkpt lat="43.20483" lon="6.51142">
        <ele>372.8</ele>
        <time>2016-11-13T12:17:22Z</time>
      </trkpt>
      <trkpt lat="43.2049" lon="6.51132">
        <ele>371.8</ele>
        <time>2016-11-13T12:17:30Z</time>
      </trkpt>
      <trkpt lat="43.20496" lon="6.51123">
        <ele>370.3</ele>
        <time>2016-11-13T12:17:40Z</time>
      </trkpt>
      <trkpt lat="43.20505" lon="6.51122">
        <ele>369.2</ele>
        <time>2016-11-13T12:17:48Z</time>
      </trkpt>
      <trkpt lat="43.20513" lon="6.51129">
        <ele>368.3</ele>
        <time>2016-11-13T12:17:56Z</time>
      </trkpt>
      <trkpt lat="43.20521" lon="6.51137">
        <ele>367.4</ele>
        <time>2016-11-13T12:18:05Z</time>
      </trkpt>
      <trkpt lat="43.20528" lon="6.51146">
        <ele>366.8</ele>
        <time>2016-11-13T12:18:14Z</time>
      </trkpt>
      <trkpt lat="43.20535" lon="6.51156">
        <ele>366.2</ele>
        <time>2016-11-13T12:18:23Z</time>
      </trkpt>
      <trkpt lat="43.20538" lon="6.51169">
        <ele>365.8</ele>
        <time>2016-11-13T12:18:30Z</time>
      </trkpt>
      <trkpt lat="43.20538" lon="6.51182">
        <ele>365.4</ele>
        <time>2016-11-13T12:18:38Z</time>
      </trkpt>
      <trkpt lat="43.20537" lon="6.51195">
        <ele>365</ele>
        <time>2016-11-13T12:18:45Z</time>
      </trkpt>
      <trkpt lat="43.20535" lon="6.51207">
        <ele>364.7</ele>
        <time>2016-11-13T12:18:53Z</time>
      </trkpt>
      <trkpt lat="43.20533" lon="6.51222">
        <ele>364.2</ele>
        <time>2016-11-13T12:19:03Z</time>
      </trkpt>
      <trkpt lat="43.20533" lon="6.51234">
        <ele>363.5</ele>
        <time>2016-11-13T12:19:15Z</time>
      </trkpt>
      <trkpt lat="43.20533" lon="6.51247">
        <ele>363.2</ele>
        <time>2016-11-13T12:19:23Z</time>
      </trkpt>
      <trkpt lat="43.20531" lon="6.51259">
        <ele>363.1</ele>
        <time>2016-11-13T12:19:30Z</time>
      </trkpt>
      <trkpt lat="43.20529" lon="6.51272">
        <ele>362.8</ele>
        <time>2016-11-13T12:19:37Z</time>
      </trkpt>
      <trkpt lat="43.20527" lon="6.51286">
        <ele>362.4</ele>
        <time>2016-11-13T12:19:45Z</time>
      </trkpt>
      <trkpt lat="43.20526" lon="6.51299">
        <ele>361.9</ele>
        <time>2016-11-13T12:19:54Z</time>
      </trkpt>
      <trkpt lat="43.20525" lon="6.51312">
        <ele>361.5</ele>
        <time>2016-11-13T12:20:02Z</time>
      </trkpt>
      <trkpt lat="43.20524" lon="6.51325">
        <ele>361.1</ele>
        <time>2016-11-13T12:20:11Z</time>
      </trkpt>
      <trkpt lat="43.20523" lon="6.51339">
        <ele>360.7</ele>
        <time>2016-11-13T12:20:20Z</time>
      </trkpt>
      <trkpt lat="43.20522" lon="6.51352">
        <ele>360.3</ele>
        <time>2016-11-13T12:20:29Z</time>
      </trkpt>
      <trkpt lat="43.20521" lon="6.51365">
        <ele>360</ele>
        <time>2016-11-13T12:20:37Z</time>
      </trkpt>
      <trkpt lat="43.20519" lon="6.51378">
        <ele>359.8</ele>
        <time>2016-11-13T12:20:42Z</time>
      </trkpt>
      <trkpt lat="43.20521" lon="6.51391">
        <ele>358.9</ele>
        <time>2016-11-13T12:20:53Z</time>
      </trkpt>
      <trkpt lat="43.20518" lon="6.51405">
        <ele>358.5</ele>
        <time>2016-11-13T12:21:03Z</time>
      </trkpt>
      <trkpt lat="43.20517" lon="6.51418">
        <ele>358</ele>
        <time>2016-11-13T12:21:11Z</time>
      </trkpt>
      <trkpt lat="43.20514" lon="6.5143">
        <ele>357.5</ele>
        <time>2016-11-13T12:21:19Z</time>
      </trkpt>
      <trkpt lat="43.20515" lon="6.51443">
        <ele>357.2</ele>
        <time>2016-11-13T12:21:26Z</time>
      </trkpt>
      <trkpt lat="43.20515" lon="6.51456">
        <ele>356.9</ele>
        <time>2016-11-13T12:21:34Z</time>
      </trkpt>
      <trkpt lat="43.20515" lon="6.51469">
        <ele>356.7</ele>
        <time>2016-11-13T12:21:43Z</time>
      </trkpt>
      <trkpt lat="43.20514" lon="6.51483">
        <ele>356.7</ele>
        <time>2016-11-13T12:21:52Z</time>
      </trkpt>
      <trkpt lat="43.20523" lon="6.5149">
        <ele>356.6</ele>
        <time>2016-11-13T12:22:00Z</time>
      </trkpt>
      <trkpt lat="43.20532" lon="6.51487">
        <ele>356.5</ele>
        <time>2016-11-13T12:22:08Z</time>
      </trkpt>
      <trkpt lat="43.20541" lon="6.51486">
        <ele>356.3</ele>
        <time>2016-11-13T12:22:14Z</time>
      </trkpt>
      <trkpt lat="43.20551" lon="6.51488">
        <ele>356.1</ele>
        <time>2016-11-13T12:22:22Z</time>
      </trkpt>
      <trkpt lat="43.20561" lon="6.51491">
        <ele>355.7</ele>
        <time>2016-11-13T12:22:30Z</time>
      </trkpt>
      <trkpt lat="43.20571" lon="6.51492">
        <ele>355.4</ele>
        <time>2016-11-13T12:22:39Z</time>
      </trkpt>
      <trkpt lat="43.20581" lon="6.51494">
        <ele>355.1</ele>
        <time>2016-11-13T12:22:47Z</time>
      </trkpt>
      <trkpt lat="43.20591" lon="6.51495">
        <ele>354.8</ele>
        <time>2016-11-13T12:22:54Z</time>
      </trkpt>
      <trkpt lat="43.206" lon="6.51495">
        <ele>354.5</ele>
        <time>2016-11-13T12:23:02Z</time>
      </trkpt>
      <trkpt lat="43.20609" lon="6.515">
        <ele>354.2</ele>
        <time>2016-11-13T12:23:09Z</time>
      </trkpt>
      <trkpt lat="43.20618" lon="6.51501">
        <ele>354</ele>
        <time>2016-11-13T12:23:17Z</time>
      </trkpt>
      <trkpt lat="43.20627" lon="6.51507">
        <ele>353.6</ele>
        <time>2016-11-13T12:23:25Z</time>
      </trkpt>
      <trkpt lat="43.20636" lon="6.51513">
        <ele>353.1</ele>
        <time>2016-11-13T12:23:33Z</time>
      </trkpt>
      <trkpt lat="43.20644" lon="6.51516">
        <ele>352.7</ele>
        <time>2016-11-13T12:23:41Z</time>
      </trkpt>
      <trkpt lat="43.20654" lon="6.51519">
        <ele>352.4</ele>
        <time>2016-11-13T12:23:50Z</time>
      </trkpt>
      <trkpt lat="43.20662" lon="6.51525">
        <ele>352</ele>
        <time>2016-11-13T12:23:57Z</time>
      </trkpt>
      <trkpt lat="43.20668" lon="6.51535">
        <ele>351.4</ele>
        <time>2016-11-13T12:24:05Z</time>
      </trkpt>
      <trkpt lat="43.20669" lon="6.51548">
        <ele>350.9</ele>
        <time>2016-11-13T12:24:14Z</time>
      </trkpt>
      <trkpt lat="43.20671" lon="6.51561">
        <ele>350.5</ele>
        <time>2016-11-13T12:24:23Z</time>
      </trkpt>
      <trkpt lat="43.20668" lon="6.51573">
        <ele>350</ele>
        <time>2016-11-13T12:24:33Z</time>
      </trkpt>
      <trkpt lat="43.20667" lon="6.51587">
        <ele>349.7</ele>
        <time>2016-11-13T12:24:39Z</time>
      </trkpt>
      <trkpt lat="43.20668" lon="6.51599">
        <ele>349.5</ele>
        <time>2016-11-13T12:24:48Z</time>
      </trkpt>
      <trkpt lat="43.20669" lon="6.51612">
        <ele>349.2</ele>
        <time>2016-11-13T12:24:56Z</time>
      </trkpt>
      <trkpt lat="43.20667" lon="6.51626">
        <ele>349.1</ele>
        <time>2016-11-13T12:25:05Z</time>
      </trkpt>
      <trkpt lat="43.20667" lon="6.51639">
        <ele>348.9</ele>
        <time>2016-11-13T12:25:14Z</time>
      </trkpt>
      <trkpt lat="43.20668" lon="6.51652">
        <ele>348.7</ele>
        <time>2016-11-13T12:25:22Z</time>
      </trkpt>
      <trkpt lat="43.20667" lon="6.51664">
        <ele>348.7</ele>
        <time>2016-11-13T12:25:28Z</time>
      </trkpt>
      <trkpt lat="43.20668" lon="6.51678">
        <ele>348.5</ele>
        <time>2016-11-13T12:25:37Z</time>
      </trkpt>
      <trkpt lat="43.20668" lon="6.51691">
        <ele>348.4</ele>
        <time>2016-11-13T12:25:44Z</time>
      </trkpt>
      <trkpt lat="43.20669" lon="6.51704">
        <ele>348.3</ele>
        <time>2016-11-13T12:25:52Z</time>
      </trkpt>
      <trkpt lat="43.20674" lon="6.51715">
        <ele>348.3</ele>
        <time>2016-11-13T12:25:57Z</time>
      </trkpt>
      <trkpt lat="43.20677" lon="6.51727">
        <ele>348.2</ele>
        <time>2016-11-13T12:26:05Z</time>
      </trkpt>
      <trkpt lat="43.20681" lon="6.51739">
        <ele>348</ele>
        <time>2016-11-13T12:26:13Z</time>
      </trkpt>
      <trkpt lat="43.20683" lon="6.51751">
        <ele>347.8</ele>
        <time>2016-11-13T12:26:22Z</time>
      </trkpt>
      <trkpt lat="43.20681" lon="6.51764">
        <ele>347.7</ele>
        <time>2016-11-13T12:26:32Z</time>
      </trkpt>
      <trkpt lat="43.2068" lon="6.51778">
        <ele>347.3</ele>
        <time>2016-11-13T12:26:40Z</time>
      </trkpt>
      <trkpt lat="43.2068" lon="6.51791">
        <ele>346.8</ele>
        <time>2016-11-13T12:26:49Z</time>
      </trkpt>
      <trkpt lat="43.2068" lon="6.51803">
        <ele>346.6</ele>
        <time>2016-11-13T12:26:56Z</time>
      </trkpt>
      <trkpt lat="43.20679" lon="6.51817">
        <ele>346.2</ele>
        <time>2016-11-13T12:27:04Z</time>
      </trkpt>
      <trkpt lat="43.20677" lon="6.51829">
        <ele>345.8</ele>
        <time>2016-11-13T12:27:11Z</time>
      </trkpt>
      <trkpt lat="43.20676" lon="6.51844">
        <ele>345.2</ele>
        <time>2016-11-13T12:27:20Z</time>
      </trkpt>
      <trkpt lat="43.20673" lon="6.51857">
        <ele>344.6</ele>
        <time>2016-11-13T12:27:30Z</time>
      </trkpt>
      <trkpt lat="43.2067" lon="6.5187">
        <ele>343.9</ele>
        <time>2016-11-13T12:27:40Z</time>
      </trkpt>
      <trkpt lat="43.20669" lon="6.51883">
        <ele>343.5</ele>
        <time>2016-11-13T12:27:47Z</time>
      </trkpt>
      <trkpt lat="43.20665" lon="6.51895">
        <ele>342.9</ele>
        <time>2016-11-13T12:27:55Z</time>
      </trkpt>
      <trkpt lat="43.20663" lon="6.51908">
        <ele>342.1</ele>
        <time>2016-11-13T12:28:03Z</time>
      </trkpt>
      <trkpt lat="43.20662" lon="6.51921">
        <ele>341.3</ele>
        <time>2016-11-13T12:28:12Z</time>
      </trkpt>
      <trkpt lat="43.20658" lon="6.51933">
        <ele>340.7</ele>
        <time>2016-11-13T12:28:20Z</time>
      </trkpt>
      <trkpt lat="43.20659" lon="6.51946">
        <ele>340.3</ele>
        <time>2016-11-13T12:28:27Z</time>
      </trkpt>
      <trkpt lat="43.20661" lon="6.51959">
        <ele>339.7</ele>
        <time>2016-11-13T12:28:34Z</time>
      </trkpt>
      <trkpt lat="43.20664" lon="6.51971">
        <ele>339.1</ele>
        <time>2016-11-13T12:28:41Z</time>
      </trkpt>
      <trkpt lat="43.20667" lon="6.51983">
        <ele>338.6</ele>
        <time>2016-11-13T12:28:49Z</time>
      </trkpt>
      <trkpt lat="43.20669" lon="6.51995">
        <ele>338.3</ele>
        <time>2016-11-13T12:28:56Z</time>
      </trkpt>
      <trkpt lat="43.20673" lon="6.52007">
        <ele>338.2</ele>
        <time>2016-11-13T12:29:03Z</time>
      </trkpt>
      <trkpt lat="43.20674" lon="6.52021">
        <ele>337.8</ele>
        <time>2016-11-13T12:29:13Z</time>
      </trkpt>
      <trkpt lat="43.20674" lon="6.52034">
        <ele>337.3</ele>
        <time>2016-11-13T12:29:21Z</time>
      </trkpt>
      <trkpt lat="43.2067" lon="6.52046">
        <ele>337.1</ele>
        <time>2016-11-13T12:29:29Z</time>
      </trkpt>
      <trkpt lat="43.20666" lon="6.52058">
        <ele>336.7</ele>
        <time>2016-11-13T12:29:37Z</time>
      </trkpt>
      <trkpt lat="43.20661" lon="6.52069">
        <ele>336.2</ele>
        <time>2016-11-13T12:29:45Z</time>
      </trkpt>
      <trkpt lat="43.20658" lon="6.52082">
        <ele>335.6</ele>
        <time>2016-11-13T12:29:54Z</time>
      </trkpt>
      <trkpt lat="43.20658" lon="6.52096">
        <ele>335.4</ele>
        <time>2016-11-13T12:30:02Z</time>
      </trkpt>
      <trkpt lat="43.20661" lon="6.52108">
        <ele>335.1</ele>
        <time>2016-11-13T12:30:11Z</time>
      </trkpt>
      <trkpt lat="43.20665" lon="6.52119">
        <ele>334.7</ele>
        <time>2016-11-13T12:30:18Z</time>
      </trkpt>
      <trkpt lat="43.20673" lon="6.52127">
        <ele>334</ele>
        <time>2016-11-13T12:30:26Z</time>
      </trkpt>
      <trkpt lat="43.2068" lon="6.52137">
        <ele>333.6</ele>
        <time>2016-11-13T12:30:34Z</time>
      </trkpt>
      <trkpt lat="43.20685" lon="6.52147">
        <ele>333.3</ele>
        <time>2016-11-13T12:30:41Z</time>
      </trkpt>
      <trkpt lat="43.2069" lon="6.52158">
        <ele>332.7</ele>
        <time>2016-11-13T12:30:49Z</time>
      </trkpt>
      <trkpt lat="43.20692" lon="6.52172">
        <ele>332.2</ele>
        <time>2016-11-13T12:30:58Z</time>
      </trkpt>
      <trkpt lat="43.20691" lon="6.52186">
        <ele>331.7</ele>
        <time>2016-11-13T12:31:09Z</time>
      </trkpt>
      <trkpt lat="43.20691" lon="6.52199">
        <ele>331.1</ele>
        <time>2016-11-13T12:31:18Z</time>
      </trkpt>
      <trkpt lat="43.20689" lon="6.52212">
        <ele>330.7</ele>
        <time>2016-11-13T12:31:28Z</time>
      </trkpt>
      <trkpt lat="43.20692" lon="6.52224">
        <ele>329.8</ele>
        <time>2016-11-13T12:33:26Z</time>
      </trkpt>
      <trkpt lat="43.20699" lon="6.52216">
        <ele>331.2</ele>
        <time>2016-11-13T12:34:09Z</time>
      </trkpt>
      <trkpt lat="43.2069" lon="6.52211">
        <ele>331.7</ele>
        <time>2016-11-13T12:34:40Z</time>
      </trkpt>
      <trkpt lat="43.2069" lon="6.52224">
        <ele>332.2</ele>
        <time>2016-11-13T12:36:33Z</time>
      </trkpt>
      <trkpt lat="43.2069" lon="6.52237">
        <ele>332.6</ele>
        <time>2016-11-13T12:37:26Z</time>
      </trkpt>
      <trkpt lat="43.20687" lon="6.52249">
        <ele>332.4</ele>
        <time>2016-11-13T12:37:37Z</time>
      </trkpt>
      <trkpt lat="43.20686" lon="6.52262">
        <ele>332.4</ele>
        <time>2016-11-13T12:37:59Z</time>
      </trkpt>
      <trkpt lat="43.2069" lon="6.52274">
        <ele>332.6</ele>
        <time>2016-11-13T12:38:08Z</time>
      </trkpt>
      <trkpt lat="43.20697" lon="6.52284">
        <ele>333.5</ele>
        <time>2016-11-13T12:38:20Z</time>
      </trkpt>
      <trkpt lat="43.20702" lon="6.52294">
        <ele>335.2</ele>
        <time>2016-11-13T12:38:34Z</time>
      </trkpt>
      <trkpt lat="43.20709" lon="6.52302">
        <ele>336.9</ele>
        <time>2016-11-13T12:38:47Z</time>
      </trkpt>
      <trkpt lat="43.20716" lon="6.52312">
        <ele>339.3</ele>
        <time>2016-11-13T12:39:06Z</time>
      </trkpt>
      <trkpt lat="43.20722" lon="6.52322">
        <ele>341.8</ele>
        <time>2016-11-13T12:39:21Z</time>
      </trkpt>
      <trkpt lat="43.2073" lon="6.5233">
        <ele>343.9</ele>
        <time>2016-11-13T12:39:41Z</time>
      </trkpt>
      <trkpt lat="43.20737" lon="6.52337">
        <ele>346</ele>
        <time>2016-11-13T12:39:54Z</time>
      </trkpt>
      <trkpt lat="43.20745" lon="6.52345">
        <ele>347.7</ele>
        <time>2016-11-13T12:40:07Z</time>
      </trkpt>
      <trkpt lat="43.20753" lon="6.5235">
        <ele>349.6</ele>
        <time>2016-11-13T12:40:21Z</time>
      </trkpt>
      <trkpt lat="43.20762" lon="6.52354">
        <ele>352.2</ele>
        <time>2016-11-13T12:40:38Z</time>
      </trkpt>
      <trkpt lat="43.2077" lon="6.52359">
        <ele>353.9</ele>
        <time>2016-11-13T12:40:51Z</time>
      </trkpt>
      <trkpt lat="43.20778" lon="6.52366">
        <ele>355.4</ele>
        <time>2016-11-13T12:41:09Z</time>
      </trkpt>
      <trkpt lat="43.20786" lon="6.52374">
        <ele>357</ele>
        <time>2016-11-13T12:41:23Z</time>
      </trkpt>
      <trkpt lat="43.20793" lon="6.52382">
        <ele>358.7</ele>
        <time>2016-11-13T12:41:38Z</time>
      </trkpt>
      <trkpt lat="43.20799" lon="6.52392">
        <ele>360.7</ele>
        <time>2016-11-13T12:41:55Z</time>
      </trkpt>
      <trkpt lat="43.20805" lon="6.52402">
        <ele>361.9</ele>
        <time>2016-11-13T12:42:12Z</time>
      </trkpt>
      <trkpt lat="43.20811" lon="6.52412">
        <ele>363.3</ele>
        <time>2016-11-13T12:42:26Z</time>
      </trkpt>
      <trkpt lat="43.20817" lon="6.52422">
        <ele>365.5</ele>
        <time>2016-11-13T12:42:44Z</time>
      </trkpt>
      <trkpt lat="43.2082" lon="6.52434">
        <ele>368.3</ele>
        <time>2016-11-13T12:43:05Z</time>
      </trkpt>
      <trkpt lat="43.20824" lon="6.52445">
        <ele>370.8</ele>
        <time>2016-11-13T12:43:21Z</time>
      </trkpt>
      <trkpt lat="43.20826" lon="6.52458">
        <ele>373.9</ele>
        <time>2016-11-13T12:43:40Z</time>
      </trkpt>
      <trkpt lat="43.2083" lon="6.52469">
        <ele>376.7</ele>
        <time>2016-11-13T12:43:59Z</time>
      </trkpt>
      <trkpt lat="43.2083" lon="6.52481">
        <ele>379.1</ele>
        <time>2016-11-13T12:44:16Z</time>
      </trkpt>
      <trkpt lat="43.20834" lon="6.52493">
        <ele>382.6</ele>
        <time>2016-11-13T12:46:34Z</time>
      </trkpt>
      <trkpt lat="43.20827" lon="6.52503">
        <ele>382.2</ele>
        <time>2016-11-13T12:47:13Z</time>
      </trkpt>
      <trkpt lat="43.20822" lon="6.52515">
        <ele>381.8</ele>
        <time>2016-11-13T12:47:20Z</time>
      </trkpt>
      <trkpt lat="43.20818" lon="6.52528">
        <ele>381.1</ele>
        <time>2016-11-13T12:47:26Z</time>
      </trkpt>
      <trkpt lat="43.20818" lon="6.52542">
        <ele>380</ele>
        <time>2016-11-13T12:47:36Z</time>
      </trkpt>
      <trkpt lat="43.20816" lon="6.52554">
        <ele>378.9</ele>
        <time>2016-11-13T12:47:45Z</time>
      </trkpt>
      <trkpt lat="43.20813" lon="6.52567">
        <ele>378.3</ele>
        <time>2016-11-13T12:47:55Z</time>
      </trkpt>
      <trkpt lat="43.20812" lon="6.52581">
        <ele>378</ele>
        <time>2016-11-13T12:48:03Z</time>
      </trkpt>
      <trkpt lat="43.20812" lon="6.52594">
        <ele>377.9</ele>
        <time>2016-11-13T12:48:09Z</time>
      </trkpt>
      <trkpt lat="43.20815" lon="6.52606">
        <ele>377.8</ele>
        <time>2016-11-13T12:48:21Z</time>
      </trkpt>
      <trkpt lat="43.20816" lon="6.52619">
        <ele>377.7</ele>
        <time>2016-11-13T12:48:29Z</time>
      </trkpt>
      <trkpt lat="43.20816" lon="6.52632">
        <ele>377.7</ele>
        <time>2016-11-13T12:48:36Z</time>
      </trkpt>
      <trkpt lat="43.20816" lon="6.52646">
        <ele>377.6</ele>
        <time>2016-11-13T12:48:44Z</time>
      </trkpt>
      <trkpt lat="43.20815" lon="6.5266">
        <ele>377.5</ele>
        <time>2016-11-13T12:48:51Z</time>
      </trkpt>
      <trkpt lat="43.20816" lon="6.52673">
        <ele>377.2</ele>
        <time>2016-11-13T12:48:59Z</time>
      </trkpt>
      <trkpt lat="43.20815" lon="6.52686">
        <ele>377.1</ele>
        <time>2016-11-13T12:49:06Z</time>
      </trkpt>
      <trkpt lat="43.20816" lon="6.52698">
        <ele>377</ele>
        <time>2016-11-13T12:49:16Z</time>
      </trkpt>
      <trkpt lat="43.20816" lon="6.52711">
        <ele>378</ele>
        <time>2016-11-13T12:49:27Z</time>
      </trkpt>
      <trkpt lat="43.20816" lon="6.52724">
        <ele>379.5</ele>
        <time>2016-11-13T12:49:36Z</time>
      </trkpt>
      <trkpt lat="43.20812" lon="6.52736">
        <ele>380.5</ele>
        <time>2016-11-13T12:49:45Z</time>
      </trkpt>
      <trkpt lat="43.20808" lon="6.52748">
        <ele>381.2</ele>
        <time>2016-11-13T12:49:53Z</time>
      </trkpt>
      <trkpt lat="43.20802" lon="6.52758">
        <ele>381.8</ele>
        <time>2016-11-13T12:50:00Z</time>
      </trkpt>
      <trkpt lat="43.208" lon="6.52772">
        <ele>382.3</ele>
        <time>2016-11-13T12:50:08Z</time>
      </trkpt>
      <trkpt lat="43.20799" lon="6.52784">
        <ele>382.6</ele>
        <time>2016-11-13T12:50:16Z</time>
      </trkpt>
      <trkpt lat="43.20798" lon="6.52797">
        <ele>382.8</ele>
        <time>2016-11-13T12:50:23Z</time>
      </trkpt>
      <trkpt lat="43.20799" lon="6.52811">
        <ele>383.2</ele>
        <time>2016-11-13T12:50:31Z</time>
      </trkpt>
      <trkpt lat="43.20799" lon="6.52824">
        <ele>383.8</ele>
        <time>2016-11-13T12:50:40Z</time>
      </trkpt>
      <trkpt lat="43.20797" lon="6.52838">
        <ele>384.5</ele>
        <time>2016-11-13T12:50:48Z</time>
      </trkpt>
      <trkpt lat="43.20802" lon="6.52828">
        <ele>385.1</ele>
        <time>2016-11-13T12:51:12Z</time>
      </trkpt>
      <trkpt lat="43.20802" lon="6.5284">
        <ele>385.1</ele>
        <time>2016-11-13T12:51:49Z</time>
      </trkpt>
      <trkpt lat="43.208" lon="6.52854">
        <ele>384.8</ele>
        <time>2016-11-13T12:51:57Z</time>
      </trkpt>
      <trkpt lat="43.20799" lon="6.52867">
        <ele>384</ele>
        <time>2016-11-13T12:52:05Z</time>
      </trkpt>
      <trkpt lat="43.20797" lon="6.5288">
        <ele>382.8</ele>
        <time>2016-11-13T12:52:13Z</time>
      </trkpt>
      <trkpt lat="43.20798" lon="6.52893">
        <ele>381.9</ele>
        <time>2016-11-13T12:52:21Z</time>
      </trkpt>
      <trkpt lat="43.20801" lon="6.52905">
        <ele>381.4</ele>
        <time>2016-11-13T12:52:28Z</time>
      </trkpt>
      <trkpt lat="43.20806" lon="6.52916">
        <ele>380.7</ele>
        <time>2016-11-13T12:52:36Z</time>
      </trkpt>
      <trkpt lat="43.20811" lon="6.52928">
        <ele>380.1</ele>
        <time>2016-11-13T12:52:44Z</time>
      </trkpt>
      <trkpt lat="43.20815" lon="6.52939">
        <ele>379.5</ele>
        <time>2016-11-13T12:52:52Z</time>
      </trkpt>
      <trkpt lat="43.20817" lon="6.52952">
        <ele>378.1</ele>
        <time>2016-11-13T12:53:09Z</time>
      </trkpt>
      <trkpt lat="43.20811" lon="6.52963">
        <ele>376.9</ele>
        <time>2016-11-13T12:53:18Z</time>
      </trkpt>
      <trkpt lat="43.2081" lon="6.52976">
        <ele>375.6</ele>
        <time>2016-11-13T12:53:27Z</time>
      </trkpt>
      <trkpt lat="43.20813" lon="6.52989">
        <ele>374.2</ele>
        <time>2016-11-13T12:53:36Z</time>
      </trkpt>
      <trkpt lat="43.20814" lon="6.53001">
        <ele>373.3</ele>
        <time>2016-11-13T12:53:42Z</time>
      </trkpt>
      <trkpt lat="43.20815" lon="6.53013">
        <ele>372.4</ele>
        <time>2016-11-13T12:53:50Z</time>
      </trkpt>
      <trkpt lat="43.20815" lon="6.53026">
        <ele>371.9</ele>
        <time>2016-11-13T12:53:58Z</time>
      </trkpt>
      <trkpt lat="43.20813" lon="6.5304">
        <ele>371.5</ele>
        <time>2016-11-13T12:54:05Z</time>
      </trkpt>
      <trkpt lat="43.20819" lon="6.53052">
        <ele>371.2</ele>
        <time>2016-11-13T12:54:12Z</time>
      </trkpt>
      <trkpt lat="43.20822" lon="6.53063">
        <ele>370.9</ele>
        <time>2016-11-13T12:54:19Z</time>
      </trkpt>
      <trkpt lat="43.2083" lon="6.53074">
        <ele>370.2</ele>
        <time>2016-11-13T12:54:26Z</time>
      </trkpt>
      <trkpt lat="43.20835" lon="6.53085">
        <ele>369.2</ele>
        <time>2016-11-13T12:54:33Z</time>
      </trkpt>
      <trkpt lat="43.20841" lon="6.53095">
        <ele>368.1</ele>
        <time>2016-11-13T12:54:42Z</time>
      </trkpt>
      <trkpt lat="43.20849" lon="6.53101">
        <ele>367.2</ele>
        <time>2016-11-13T12:54:49Z</time>
      </trkpt>
      <trkpt lat="43.20856" lon="6.5311">
        <ele>366.3</ele>
        <time>2016-11-13T12:54:57Z</time>
      </trkpt>
      <trkpt lat="43.20863" lon="6.53119">
        <ele>364.9</ele>
        <time>2016-11-13T12:55:06Z</time>
      </trkpt>
      <trkpt lat="43.2087" lon="6.53128">
        <ele>363.2</ele>
        <time>2016-11-13T12:55:16Z</time>
      </trkpt>
      <trkpt lat="43.20875" lon="6.53138">
        <ele>361.2</ele>
        <time>2016-11-13T12:56:28Z</time>
      </trkpt>
      <trkpt lat="43.20884" lon="6.53145">
        <ele>360.7</ele>
        <time>2016-11-13T12:56:37Z</time>
      </trkpt>
      <trkpt lat="43.20893" lon="6.53148">
        <ele>360</ele>
        <time>2016-11-13T12:57:06Z</time>
      </trkpt>
      <trkpt lat="43.20893" lon="6.53161">
        <ele>359.8</ele>
        <time>2016-11-13T12:57:18Z</time>
      </trkpt>
      <trkpt lat="43.20899" lon="6.53172">
        <ele>359.1</ele>
        <time>2016-11-13T12:57:26Z</time>
      </trkpt>
      <trkpt lat="43.20903" lon="6.53183">
        <ele>358</ele>
        <time>2016-11-13T12:57:34Z</time>
      </trkpt>
      <trkpt lat="43.20909" lon="6.53193">
        <ele>356.7</ele>
        <time>2016-11-13T12:57:41Z</time>
      </trkpt>
      <trkpt lat="43.20914" lon="6.53204">
        <ele>354.9</ele>
        <time>2016-11-13T12:57:53Z</time>
      </trkpt>
      <trkpt lat="43.2092" lon="6.53215">
        <ele>353.6</ele>
        <time>2016-11-13T12:58:00Z</time>
      </trkpt>
      <trkpt lat="43.20925" lon="6.53226">
        <ele>352</ele>
        <time>2016-11-13T12:58:08Z</time>
      </trkpt>
      <trkpt lat="43.2093" lon="6.53236">
        <ele>351.2</ele>
        <time>2016-11-13T12:58:14Z</time>
      </trkpt>
      <trkpt lat="43.20937" lon="6.53247">
        <ele>349.9</ele>
        <time>2016-11-13T12:58:22Z</time>
      </trkpt>
      <trkpt lat="43.20945" lon="6.53255">
        <ele>348.5</ele>
        <time>2016-11-13T12:58:32Z</time>
      </trkpt>
      <trkpt lat="43.20952" lon="6.53263">
        <ele>347.5</ele>
        <time>2016-11-13T12:58:42Z</time>
      </trkpt>
      <trkpt lat="43.20959" lon="6.53272">
        <ele>346.7</ele>
        <time>2016-11-13T12:58:49Z</time>
      </trkpt>
      <trkpt lat="43.20964" lon="6.53285">
        <ele>345.2</ele>
        <time>2016-11-13T12:58:59Z</time>
      </trkpt>
      <trkpt lat="43.20965" lon="6.53299">
        <ele>344.2</ele>
        <time>2016-11-13T12:59:05Z</time>
      </trkpt>
      <trkpt lat="43.20969" lon="6.5331">
        <ele>342.8</ele>
        <time>2016-11-13T12:59:15Z</time>
      </trkpt>
      <trkpt lat="43.20974" lon="6.53322">
        <ele>341.6</ele>
        <time>2016-11-13T12:59:27Z</time>
      </trkpt>
      <trkpt lat="43.2098" lon="6.53332">
        <ele>340.9</ele>
        <time>2016-11-13T12:59:34Z</time>
      </trkpt>
      <trkpt lat="43.20988" lon="6.53339">
        <ele>339.5</ele>
        <time>2016-11-13T12:59:52Z</time>
      </trkpt>
      <trkpt lat="43.20994" lon="6.53349">
        <ele>338.9</ele>
        <time>2016-11-13T13:00:14Z</time>
      </trkpt>
      <trkpt lat="43.20992" lon="6.53361">
        <ele>337.4</ele>
        <time>2016-11-13T13:00:42Z</time>
      </trkpt>
      <trkpt lat="43.21" lon="6.53367">
        <ele>336.9</ele>
        <time>2016-11-13T13:00:52Z</time>
      </trkpt>
      <trkpt lat="43.21006" lon="6.53376">
        <ele>336.8</ele>
        <time>2016-11-13T13:01:02Z</time>
      </trkpt>
      <trkpt lat="43.21009" lon="6.53388">
        <ele>335.7</ele>
        <time>2016-11-13T13:01:18Z</time>
      </trkpt>
      <trkpt lat="43.21009" lon="6.53401">
        <ele>335.1</ele>
        <time>2016-11-13T13:01:25Z</time>
      </trkpt>
      <trkpt lat="43.21011" lon="6.53414">
        <ele>333.8</ele>
        <time>2016-11-13T13:01:35Z</time>
      </trkpt>
      <trkpt lat="43.21015" lon="6.53425">
        <ele>333.3</ele>
        <time>2016-11-13T13:01:40Z</time>
      </trkpt>
      <trkpt lat="43.21019" lon="6.53437">
        <ele>332.7</ele>
        <time>2016-11-13T13:01:45Z</time>
      </trkpt>
      <trkpt lat="43.21024" lon="6.53449">
        <ele>331.9</ele>
        <time>2016-11-13T13:01:52Z</time>
      </trkpt>
      <trkpt lat="43.21032" lon="6.53459">
        <ele>330.9</ele>
        <time>2016-11-13T13:02:01Z</time>
      </trkpt>
      <trkpt lat="43.21037" lon="6.53472">
        <ele>330.1</ele>
        <time>2016-11-13T13:02:07Z</time>
      </trkpt>
      <trkpt lat="43.21042" lon="6.53484">
        <ele>329.5</ele>
        <time>2016-11-13T13:02:12Z</time>
      </trkpt>
      <trkpt lat="43.21049" lon="6.53492">
        <ele>327.8</ele>
        <time>2016-11-13T13:02:23Z</time>
      </trkpt>
      <trkpt lat="43.21056" lon="6.53501">
        <ele>327</ele>
        <time>2016-11-13T13:02:29Z</time>
      </trkpt>
      <trkpt lat="43.2106" lon="6.53513">
        <ele>325.8</ele>
        <time>2016-11-13T13:02:38Z</time>
      </trkpt>
      <trkpt lat="43.21066" lon="6.53523">
        <ele>325</ele>
        <time>2016-11-13T13:02:45Z</time>
      </trkpt>
      <trkpt lat="43.21071" lon="6.53534">
        <ele>323.4</ele>
        <time>2016-11-13T13:02:56Z</time>
      </trkpt>
      <trkpt lat="43.21076" lon="6.53545">
        <ele>322.7</ele>
        <time>2016-11-13T13:03:02Z</time>
      </trkpt>
      <trkpt lat="43.21082" lon="6.53554">
        <ele>321.8</ele>
        <time>2016-11-13T13:03:10Z</time>
      </trkpt>
      <trkpt lat="43.21089" lon="6.53561">
        <ele>320.1</ele>
        <time>2016-11-13T13:03:22Z</time>
      </trkpt>
      <trkpt lat="43.2109" lon="6.53574">
        <ele>318.6</ele>
        <time>2016-11-13T13:03:42Z</time>
      </trkpt>
      <trkpt lat="43.211" lon="6.53574">
        <ele>318</ele>
        <time>2016-11-13T13:05:26Z</time>
      </trkpt>
      <trkpt lat="43.2111" lon="6.53576">
        <ele>317.7</ele>
        <time>2016-11-13T13:05:35Z</time>
      </trkpt>
      <trkpt lat="43.21119" lon="6.5358">
        <ele>317.5</ele>
        <time>2016-11-13T13:05:44Z</time>
      </trkpt>
      <trkpt lat="43.21129" lon="6.5358">
        <ele>317.2</ele>
        <time>2016-11-13T13:05:52Z</time>
      </trkpt>
      <trkpt lat="43.21138" lon="6.53576">
        <ele>316.8</ele>
        <time>2016-11-13T13:06:04Z</time>
      </trkpt>
      <trkpt lat="43.21146" lon="6.53572">
        <ele>316.4</ele>
        <time>2016-11-13T13:06:17Z</time>
      </trkpt>
      <trkpt lat="43.21155" lon="6.53574">
        <ele>316.2</ele>
        <time>2016-11-13T13:06:23Z</time>
      </trkpt>
      <trkpt lat="43.21163" lon="6.5358">
        <ele>316.1</ele>
        <time>2016-11-13T13:06:30Z</time>
      </trkpt>
      <trkpt lat="43.21173" lon="6.53586">
        <ele>316</ele>
        <time>2016-11-13T13:06:35Z</time>
      </trkpt>
      <trkpt lat="43.21182" lon="6.53592">
        <ele>315.5</ele>
        <time>2016-11-13T13:06:44Z</time>
      </trkpt>
      <trkpt lat="43.2119" lon="6.53598">
        <ele>314.9</ele>
        <time>2016-11-13T13:06:53Z</time>
      </trkpt>
      <trkpt lat="43.212" lon="6.53599">
        <ele>314.3</ele>
        <time>2016-11-13T13:07:01Z</time>
      </trkpt>
      <trkpt lat="43.21209" lon="6.53603">
        <ele>313.8</ele>
        <time>2016-11-13T13:07:11Z</time>
      </trkpt>
      <trkpt lat="43.21215" lon="6.53613">
        <ele>313.4</ele>
        <time>2016-11-13T13:07:20Z</time>
      </trkpt>
      <trkpt lat="43.21225" lon="6.53614">
        <ele>313.2</ele>
        <time>2016-11-13T13:07:27Z</time>
      </trkpt>
      <trkpt lat="43.21234" lon="6.53618">
        <ele>312.9</ele>
        <time>2016-11-13T13:07:34Z</time>
      </trkpt>
      <trkpt lat="43.21243" lon="6.5362">
        <ele>312.5</ele>
        <time>2016-11-13T13:07:46Z</time>
      </trkpt>
      <trkpt lat="43.2125" lon="6.53629">
        <ele>312.2</ele>
        <time>2016-11-13T13:07:58Z</time>
      </trkpt>
      <trkpt lat="43.2126" lon="6.53631">
        <ele>312</ele>
        <time>2016-11-13T13:08:08Z</time>
      </trkpt>
      <trkpt lat="43.2127" lon="6.53632">
        <ele>311.7</ele>
        <time>2016-11-13T13:08:17Z</time>
      </trkpt>
      <trkpt lat="43.21278" lon="6.53639">
        <ele>311.4</ele>
        <time>2016-11-13T13:08:27Z</time>
      </trkpt>
      <trkpt lat="43.21289" lon="6.5364">
        <ele>311.2</ele>
        <time>2016-11-13T13:08:35Z</time>
      </trkpt>
      <trkpt lat="43.21297" lon="6.53645">
        <ele>311.3</ele>
        <time>2016-11-13T13:08:43Z</time>
      </trkpt>
      <trkpt lat="43.21307" lon="6.53646">
        <ele>311.3</ele>
        <time>2016-11-13T13:08:52Z</time>
      </trkpt>
      <trkpt lat="43.21316" lon="6.53647">
        <ele>311.3</ele>
        <time>2016-11-13T13:09:00Z</time>
      </trkpt>
      <trkpt lat="43.21326" lon="6.53651">
        <ele>311.3</ele>
        <time>2016-11-13T13:09:09Z</time>
      </trkpt>
      <trkpt lat="43.21335" lon="6.53655">
        <ele>311.5</ele>
        <time>2016-11-13T13:09:18Z</time>
      </trkpt>
      <trkpt lat="43.21345" lon="6.53656">
        <ele>311.8</ele>
        <time>2016-11-13T13:09:27Z</time>
      </trkpt>
      <trkpt lat="43.21355" lon="6.5366">
        <ele>312</ele>
        <time>2016-11-13T13:09:36Z</time>
      </trkpt>
      <trkpt lat="43.21365" lon="6.53662">
        <ele>312.1</ele>
        <time>2016-11-13T13:09:46Z</time>
      </trkpt>
      <trkpt lat="43.21375" lon="6.53663">
        <ele>312</ele>
        <time>2016-11-13T13:09:55Z</time>
      </trkpt>
      <trkpt lat="43.21384" lon="6.53664">
        <ele>312</ele>
        <time>2016-11-13T13:10:03Z</time>
      </trkpt>
      <trkpt lat="43.21394" lon="6.53664">
        <ele>311.9</ele>
        <time>2016-11-13T13:10:12Z</time>
      </trkpt>
      <trkpt lat="43.21403" lon="6.53665">
        <ele>311.9</ele>
        <time>2016-11-13T13:10:21Z</time>
      </trkpt>
      <trkpt lat="43.21413" lon="6.53665">
        <ele>311.9</ele>
        <time>2016-11-13T13:10:28Z</time>
      </trkpt>
      <trkpt lat="43.21423" lon="6.53666">
        <ele>312</ele>
        <time>2016-11-13T13:10:38Z</time>
      </trkpt>
      <trkpt lat="43.21432" lon="6.53669">
        <ele>312</ele>
        <time>2016-11-13T13:10:49Z</time>
      </trkpt>
      <trkpt lat="43.21442" lon="6.53668">
        <ele>312</ele>
        <time>2016-11-13T13:10:57Z</time>
      </trkpt>
      <trkpt lat="43.21452" lon="6.53668">
        <ele>311.9</ele>
        <time>2016-11-13T13:11:05Z</time>
      </trkpt>
      <trkpt lat="43.21461" lon="6.53665">
        <ele>312</ele>
        <time>2016-11-13T13:11:12Z</time>
      </trkpt>
      <trkpt lat="43.2147" lon="6.53665">
        <ele>312</ele>
        <time>2016-11-13T13:11:20Z</time>
      </trkpt>
      <trkpt lat="43.21479" lon="6.53663">
        <ele>312.1</ele>
        <time>2016-11-13T13:11:28Z</time>
      </trkpt>
      <trkpt lat="43.21489" lon="6.53664">
        <ele>312.2</ele>
        <time>2016-11-13T13:11:38Z</time>
      </trkpt>
      <trkpt lat="43.21498" lon="6.53658">
        <ele>312.2</ele>
        <time>2016-11-13T13:11:45Z</time>
      </trkpt>
      <trkpt lat="43.21507" lon="6.53654">
        <ele>312</ele>
        <time>2016-11-13T13:11:52Z</time>
      </trkpt>
      <trkpt lat="43.21515" lon="6.53647">
        <ele>311.7</ele>
        <time>2016-11-13T13:12:00Z</time>
      </trkpt>
      <trkpt lat="43.21522" lon="6.53639">
        <ele>311.5</ele>
        <time>2016-11-13T13:12:09Z</time>
      </trkpt>
      <trkpt lat="43.21529" lon="6.53629">
        <ele>311.3</ele>
        <time>2016-11-13T13:12:22Z</time>
      </trkpt>
      <trkpt lat="43.21537" lon="6.53623">
        <ele>310.8</ele>
        <time>2016-11-13T13:12:34Z</time>
      </trkpt>
      <trkpt lat="43.21546" lon="6.53617">
        <ele>310.4</ele>
        <time>2016-11-13T13:12:43Z</time>
      </trkpt>
      <trkpt lat="43.21555" lon="6.53612">
        <ele>309.8</ele>
        <time>2016-11-13T13:12:53Z</time>
      </trkpt>
      <trkpt lat="43.21563" lon="6.53606">
        <ele>309.2</ele>
        <time>2016-11-13T13:13:03Z</time>
      </trkpt>
      <trkpt lat="43.21571" lon="6.53599">
        <ele>308</ele>
        <time>2016-11-13T13:13:12Z</time>
      </trkpt>
      <trkpt lat="43.2158" lon="6.53595">
        <ele>306.5</ele>
        <time>2016-11-13T13:13:22Z</time>
      </trkpt>
      <trkpt lat="43.21589" lon="6.53592">
        <ele>305.3</ele>
        <time>2016-11-13T13:13:31Z</time>
      </trkpt>
      <trkpt lat="43.21597" lon="6.53586">
        <ele>304.2</ele>
        <time>2016-11-13T13:13:39Z</time>
      </trkpt>
      <trkpt lat="43.21606" lon="6.53582">
        <ele>303.2</ele>
        <time>2016-11-13T13:13:46Z</time>
      </trkpt>
      <trkpt lat="43.21615" lon="6.53578">
        <ele>302.4</ele>
        <time>2016-11-13T13:13:53Z</time>
      </trkpt>
      <trkpt lat="43.21625" lon="6.53575">
        <ele>301.8</ele>
        <time>2016-11-13T13:14:01Z</time>
      </trkpt>
      <trkpt lat="43.21633" lon="6.5357">
        <ele>301.9</ele>
        <time>2016-11-13T13:14:11Z</time>
      </trkpt>
      <trkpt lat="43.21642" lon="6.53566">
        <ele>302.2</ele>
        <time>2016-11-13T13:14:20Z</time>
      </trkpt>
      <trkpt lat="43.21652" lon="6.53562">
        <ele>302.1</ele>
        <time>2016-11-13T13:14:27Z</time>
      </trkpt>
      <trkpt lat="43.21661" lon="6.53557">
        <ele>301.5</ele>
        <time>2016-11-13T13:14:35Z</time>
      </trkpt>
      <trkpt lat="43.21671" lon="6.53557">
        <ele>301</ele>
        <time>2016-11-13T13:14:44Z</time>
      </trkpt>
      <trkpt lat="43.2168" lon="6.53557">
        <ele>300.6</ele>
        <time>2016-11-13T13:14:53Z</time>
      </trkpt>
      <trkpt lat="43.2169" lon="6.53558">
        <ele>300.3</ele>
        <time>2016-11-13T13:15:03Z</time>
      </trkpt>
      <trkpt lat="43.217" lon="6.5356">
        <ele>299.8</ele>
        <time>2016-11-13T13:15:12Z</time>
      </trkpt>
      <trkpt lat="43.21709" lon="6.53557">
        <ele>299.2</ele>
        <time>2016-11-13T13:15:22Z</time>
      </trkpt>
      <trkpt lat="43.21719" lon="6.53554">
        <ele>298.8</ele>
        <time>2016-11-13T13:15:29Z</time>
      </trkpt>
      <trkpt lat="43.21728" lon="6.53548">
        <ele>297.9</ele>
        <time>2016-11-13T13:15:37Z</time>
      </trkpt>
      <trkpt lat="43.21737" lon="6.53542">
        <ele>297</ele>
        <time>2016-11-13T13:15:44Z</time>
      </trkpt>
      <trkpt lat="43.21744" lon="6.53535">
        <ele>296</ele>
        <time>2016-11-13T13:15:51Z</time>
      </trkpt>
      <trkpt lat="43.21751" lon="6.53527">
        <ele>294.9</ele>
        <time>2016-11-13T13:15:58Z</time>
      </trkpt>
      <trkpt lat="43.2176" lon="6.53522">
        <ele>293.1</ele>
        <time>2016-11-13T13:16:08Z</time>
      </trkpt>
      <trkpt lat="43.21768" lon="6.53516">
        <ele>291.3</ele>
        <time>2016-11-13T13:16:18Z</time>
      </trkpt>
      <trkpt lat="43.21777" lon="6.53512">
        <ele>289.1</ele>
        <time>2016-11-13T13:16:30Z</time>
      </trkpt>
      <trkpt lat="43.21783" lon="6.53503">
        <ele>287.7</ele>
        <time>2016-11-13T13:16:42Z</time>
      </trkpt>
      <trkpt lat="43.21789" lon="6.53493">
        <ele>286.4</ele>
        <time>2016-11-13T13:16:53Z</time>
      </trkpt>
      <trkpt lat="43.21795" lon="6.53483">
        <ele>285.3</ele>
        <time>2016-11-13T13:17:03Z</time>
      </trkpt>
      <trkpt lat="43.21802" lon="6.53476">
        <ele>283.7</ele>
        <time>2016-11-13T13:17:14Z</time>
      </trkpt>
      <trkpt lat="43.21812" lon="6.53474">
        <ele>279.8</ele>
        <time>2016-11-13T13:17:49Z</time>
      </trkpt>
      <trkpt lat="43.2182" lon="6.53481">
        <ele>278.7</ele>
        <time>2016-11-13T13:18:12Z</time>
      </trkpt>
      <trkpt lat="43.21828" lon="6.53488">
        <ele>277.6</ele>
        <time>2016-11-13T13:18:24Z</time>
      </trkpt>
      <trkpt lat="43.21836" lon="6.53496">
        <ele>276.4</ele>
        <time>2016-11-13T13:18:34Z</time>
      </trkpt>
      <trkpt lat="43.21844" lon="6.53504">
        <ele>275.1</ele>
        <time>2016-11-13T13:18:43Z</time>
      </trkpt>
      <trkpt lat="43.21852" lon="6.53511">
        <ele>274</ele>
        <time>2016-11-13T13:18:50Z</time>
      </trkpt>
      <trkpt lat="43.21861" lon="6.53515">
        <ele>272.7</ele>
        <time>2016-11-13T13:19:00Z</time>
      </trkpt>
      <trkpt lat="43.2187" lon="6.5352">
        <ele>271.7</ele>
        <time>2016-11-13T13:19:09Z</time>
      </trkpt>
      <trkpt lat="43.21878" lon="6.53525">
        <ele>270.5</ele>
        <time>2016-11-13T13:19:19Z</time>
      </trkpt>
      <trkpt lat="43.21888" lon="6.53526">
        <ele>269.7</ele>
        <time>2016-11-13T13:19:27Z</time>
      </trkpt>
      <trkpt lat="43.21897" lon="6.5353">
        <ele>268.9</ele>
        <time>2016-11-13T13:19:35Z</time>
      </trkpt>
      <trkpt lat="43.21905" lon="6.53536">
        <ele>268.2</ele>
        <time>2016-11-13T13:19:44Z</time>
      </trkpt>
      <trkpt lat="43.21914" lon="6.53541">
        <ele>267.8</ele>
        <time>2016-11-13T13:19:53Z</time>
      </trkpt>
      <trkpt lat="43.21922" lon="6.53546">
        <ele>267.5</ele>
        <time>2016-11-13T13:20:02Z</time>
      </trkpt>
      <trkpt lat="43.21932" lon="6.53549">
        <ele>267.2</ele>
        <time>2016-11-13T13:20:11Z</time>
      </trkpt>
      <trkpt lat="43.21941" lon="6.53554">
        <ele>266.4</ele>
        <time>2016-11-13T13:20:21Z</time>
      </trkpt>
      <trkpt lat="43.21951" lon="6.53554">
        <ele>265.6</ele>
        <time>2016-11-13T13:20:29Z</time>
      </trkpt>
      <trkpt lat="43.2196" lon="6.53556">
        <ele>264.7</ele>
        <time>2016-11-13T13:20:38Z</time>
      </trkpt>
      <trkpt lat="43.2197" lon="6.53558">
        <ele>263.7</ele>
        <time>2016-11-13T13:20:47Z</time>
      </trkpt>
      <trkpt lat="43.21979" lon="6.53562">
        <ele>262.9</ele>
        <time>2016-11-13T13:20:56Z</time>
      </trkpt>
      <trkpt lat="43.21988" lon="6.53565">
        <ele>261.4</ele>
        <time>2016-11-13T13:21:05Z</time>
      </trkpt>
      <trkpt lat="43.21997" lon="6.53571">
        <ele>259.9</ele>
        <time>2016-11-13T13:21:15Z</time>
      </trkpt>
      <trkpt lat="43.22007" lon="6.53573">
        <ele>258.8</ele>
        <time>2016-11-13T13:21:23Z</time>
      </trkpt>
      <trkpt lat="43.22015" lon="6.53578">
        <ele>257.5</ele>
        <time>2016-11-13T13:21:34Z</time>
      </trkpt>
      <trkpt lat="43.22024" lon="6.53583">
        <ele>255.4</ele>
        <time>2016-11-13T13:21:45Z</time>
      </trkpt>
      <trkpt lat="43.22033" lon="6.53588">
        <ele>253.6</ele>
        <time>2016-11-13T13:21:55Z</time>
      </trkpt>
      <trkpt lat="43.22042" lon="6.53591">
        <ele>251.9</ele>
        <time>2016-11-13T13:22:04Z</time>
      </trkpt>
      <trkpt lat="43.22052" lon="6.53595">
        <ele>250.3</ele>
        <time>2016-11-13T13:22:15Z</time>
      </trkpt>
      <trkpt lat="43.22058" lon="6.53604">
        <ele>248.8</ele>
        <time>2016-11-13T13:22:26Z</time>
      </trkpt>
      <trkpt lat="43.22061" lon="6.53616">
        <ele>246.8</ele>
        <time>2016-11-13T13:22:42Z</time>
      </trkpt>
      <trkpt lat="43.22067" lon="6.53627">
        <ele>245.7</ele>
        <time>2016-11-13T13:22:51Z</time>
      </trkpt>
      <trkpt lat="43.22072" lon="6.53638">
        <ele>244.8</ele>
        <time>2016-11-13T13:22:59Z</time>
      </trkpt>
      <trkpt lat="43.2208" lon="6.53646">
        <ele>243.9</ele>
        <time>2016-11-13T13:23:07Z</time>
      </trkpt>
      <trkpt lat="43.22087" lon="6.53654">
        <ele>243.1</ele>
        <time>2016-11-13T13:23:17Z</time>
      </trkpt>
      <trkpt lat="43.22095" lon="6.5366">
        <ele>242</ele>
        <time>2016-11-13T13:23:25Z</time>
      </trkpt>
      <trkpt lat="43.22104" lon="6.53665">
        <ele>240.5</ele>
        <time>2016-11-13T13:23:56Z</time>
      </trkpt>
      <trkpt lat="43.22112" lon="6.53672">
        <ele>239.8</ele>
        <time>2016-11-13T13:24:07Z</time>
      </trkpt>
      <trkpt lat="43.22119" lon="6.5368">
        <ele>238.7</ele>
        <time>2016-11-13T13:24:18Z</time>
      </trkpt>
      <trkpt lat="43.22125" lon="6.53691">
        <ele>237.3</ele>
        <time>2016-11-13T13:24:32Z</time>
      </trkpt>
      <trkpt lat="43.22132" lon="6.53698">
        <ele>235.7</ele>
        <time>2016-11-13T13:24:43Z</time>
      </trkpt>
      <trkpt lat="43.22137" lon="6.53709">
        <ele>234.8</ele>
        <time>2016-11-13T13:24:52Z</time>
      </trkpt>
      <trkpt lat="43.22144" lon="6.53717">
        <ele>233</ele>
        <time>2016-11-13T13:25:04Z</time>
      </trkpt>
      <trkpt lat="43.22152" lon="6.53723">
        <ele>232.1</ele>
        <time>2016-11-13T13:25:14Z</time>
      </trkpt>
      <trkpt lat="43.22161" lon="6.53728">
        <ele>231.4</ele>
        <time>2016-11-13T13:25:24Z</time>
      </trkpt>
      <trkpt lat="43.2217" lon="6.5373">
        <ele>230.6</ele>
        <time>2016-11-13T13:25:32Z</time>
      </trkpt>
      <trkpt lat="43.2218" lon="6.53732">
        <ele>230</ele>
        <time>2016-11-13T13:25:40Z</time>
      </trkpt>
      <trkpt lat="43.2219" lon="6.53733">
        <ele>229.5</ele>
        <time>2016-11-13T13:25:48Z</time>
      </trkpt>
      <trkpt lat="43.22199" lon="6.53736">
        <ele>228.7</ele>
        <time>2016-11-13T13:25:57Z</time>
      </trkpt>
      <trkpt lat="43.22209" lon="6.53739">
        <ele>227.9</ele>
        <time>2016-11-13T13:26:05Z</time>
      </trkpt>
      <trkpt lat="43.22217" lon="6.53746">
        <ele>227.3</ele>
        <time>2016-11-13T13:26:12Z</time>
      </trkpt>
      <trkpt lat="43.22225" lon="6.53752">
        <ele>226.7</ele>
        <time>2016-11-13T13:26:22Z</time>
      </trkpt>
      <trkpt lat="43.22233" lon="6.53758">
        <ele>226.4</ele>
        <time>2016-11-13T13:26:30Z</time>
      </trkpt>
      <trkpt lat="43.22241" lon="6.53765">
        <ele>226.2</ele>
        <time>2016-11-13T13:26:38Z</time>
      </trkpt>
      <trkpt lat="43.22249" lon="6.5377">
        <ele>226</ele>
        <time>2016-11-13T13:26:47Z</time>
      </trkpt>
      <trkpt lat="43.22257" lon="6.53777">
        <ele>225.9</ele>
        <time>2016-11-13T13:26:56Z</time>
      </trkpt>
      <trkpt lat="43.22264" lon="6.53786">
        <ele>225.5</ele>
        <time>2016-11-13T13:27:03Z</time>
      </trkpt>
      <trkpt lat="43.22273" lon="6.53793">
        <ele>225.3</ele>
        <time>2016-11-13T13:27:11Z</time>
      </trkpt>
      <trkpt lat="43.22282" lon="6.538">
        <ele>225.2</ele>
        <time>2016-11-13T13:27:18Z</time>
      </trkpt>
      <trkpt lat="43.2229" lon="6.53807">
        <ele>225.2</ele>
        <time>2016-11-13T13:27:26Z</time>
      </trkpt>
      <trkpt lat="43.22298" lon="6.53814">
        <ele>225</ele>
        <time>2016-11-13T13:27:34Z</time>
      </trkpt>
      <trkpt lat="43.22306" lon="6.53819">
        <ele>224.9</ele>
        <time>2016-11-13T13:27:42Z</time>
      </trkpt>
      <trkpt lat="43.22314" lon="6.53826">
        <ele>224.9</ele>
        <time>2016-11-13T13:27:51Z</time>
      </trkpt>
      <trkpt lat="43.22323" lon="6.53834">
        <ele>225.1</ele>
        <time>2016-11-13T13:28:01Z</time>
      </trkpt>
      <trkpt lat="43.22331" lon="6.5384">
        <ele>225.4</ele>
        <time>2016-11-13T13:28:11Z</time>
      </trkpt>
      <trkpt lat="43.2234" lon="6.53847">
        <ele>226.2</ele>
        <time>2016-11-13T13:28:21Z</time>
      </trkpt>
      <trkpt lat="43.22349" lon="6.53851">
        <ele>226.9</ele>
        <time>2016-11-13T13:28:29Z</time>
      </trkpt>
      <trkpt lat="43.22357" lon="6.53857">
        <ele>227.4</ele>
        <time>2016-11-13T13:28:39Z</time>
      </trkpt>
      <trkpt lat="43.22366" lon="6.53863">
        <ele>227.8</ele>
        <time>2016-11-13T13:28:49Z</time>
      </trkpt>
      <trkpt lat="43.22374" lon="6.53871">
        <ele>228.3</ele>
        <time>2016-11-13T13:28:58Z</time>
      </trkpt>
      <trkpt lat="43.22378" lon="6.53883">
        <ele>229</ele>
        <time>2016-11-13T13:29:09Z</time>
      </trkpt>
      <trkpt lat="43.2238" lon="6.53895">
        <ele>228.6</ele>
        <time>2016-11-13T13:30:44Z</time>
      </trkpt>
      <trkpt lat="43.22386" lon="6.53905">
        <ele>228.4</ele>
        <time>2016-11-13T13:31:17Z</time>
      </trkpt>
      <trkpt lat="43.22393" lon="6.53914">
        <ele>227.3</ele>
        <time>2016-11-13T13:31:34Z</time>
      </trkpt>
      <trkpt lat="43.224" lon="6.53924">
        <ele>226.5</ele>
        <time>2016-11-13T13:31:43Z</time>
      </trkpt>
      <trkpt lat="43.22407" lon="6.53933">
        <ele>225.4</ele>
        <time>2016-11-13T13:31:52Z</time>
      </trkpt>
      <trkpt lat="43.22414" lon="6.53943">
        <ele>224.7</ele>
        <time>2016-11-13T13:31:59Z</time>
      </trkpt>
      <trkpt lat="43.22421" lon="6.53954">
        <ele>223.6</ele>
        <time>2016-11-13T13:32:08Z</time>
      </trkpt>
      <trkpt lat="43.22427" lon="6.53965">
        <ele>222.5</ele>
        <time>2016-11-13T13:32:18Z</time>
      </trkpt>
      <trkpt lat="43.22432" lon="6.53978">
        <ele>221.6</ele>
        <time>2016-11-13T13:32:27Z</time>
      </trkpt>
      <trkpt lat="43.22437" lon="6.5399">
        <ele>220.8</ele>
        <time>2016-11-13T13:32:37Z</time>
      </trkpt>
      <trkpt lat="43.22442" lon="6.54001">
        <ele>220.1</ele>
        <time>2016-11-13T13:32:45Z</time>
      </trkpt>
      <trkpt lat="43.22447" lon="6.54011">
        <ele>219.8</ele>
        <time>2016-11-13T13:32:51Z</time>
      </trkpt>
      <trkpt lat="43.22452" lon="6.54022">
        <ele>219.3</ele>
        <time>2016-11-13T13:33:02Z</time>
      </trkpt>
      <trkpt lat="43.22458" lon="6.54032">
        <ele>219</ele>
        <time>2016-11-13T13:33:12Z</time>
      </trkpt>
      <trkpt lat="43.22463" lon="6.54043">
        <ele>218.6</ele>
        <time>2016-11-13T13:33:20Z</time>
      </trkpt>
      <trkpt lat="43.22469" lon="6.54052">
        <ele>217.7</ele>
        <time>2016-11-13T13:33:29Z</time>
      </trkpt>
      <trkpt lat="43.22476" lon="6.54062">
        <ele>216.8</ele>
        <time>2016-11-13T13:33:40Z</time>
      </trkpt>
      <trkpt lat="43.22479" lon="6.54075">
        <ele>215.5</ele>
        <time>2016-11-13T13:33:52Z</time>
      </trkpt>
      <trkpt lat="43.22481" lon="6.54089">
        <ele>214.1</ele>
        <time>2016-11-13T13:34:02Z</time>
      </trkpt>
      <trkpt lat="43.22485" lon="6.54101">
        <ele>212.4</ele>
        <time>2016-11-13T13:34:11Z</time>
      </trkpt>
      <trkpt lat="43.22488" lon="6.54113">
        <ele>210.2</ele>
        <time>2016-11-13T13:34:22Z</time>
      </trkpt>
      <trkpt lat="43.22494" lon="6.54125">
        <ele>208.6</ele>
        <time>2016-11-13T13:34:29Z</time>
      </trkpt>
      <trkpt lat="43.22501" lon="6.54135">
        <ele>206.7</ele>
        <time>2016-11-13T13:34:40Z</time>
      </trkpt>
      <trkpt lat="43.22507" lon="6.54144">
        <ele>205.3</ele>
        <time>2016-11-13T13:34:47Z</time>
      </trkpt>
      <trkpt lat="43.22514" lon="6.54153">
        <ele>203.7</ele>
        <time>2016-11-13T13:34:55Z</time>
      </trkpt>
      <trkpt lat="43.2252" lon="6.54163">
        <ele>201.7</ele>
        <time>2016-11-13T13:35:05Z</time>
      </trkpt>
      <trkpt lat="43.22527" lon="6.54172">
        <ele>199.8</ele>
        <time>2016-11-13T13:35:16Z</time>
      </trkpt>
      <trkpt lat="43.22533" lon="6.54183">
        <ele>198.3</ele>
        <time>2016-11-13T13:35:24Z</time>
      </trkpt>
      <trkpt lat="43.22536" lon="6.54195">
        <ele>196.6</ele>
        <time>2016-11-13T13:35:34Z</time>
      </trkpt>
      <trkpt lat="43.22539" lon="6.54207">
        <ele>194.7</ele>
        <time>2016-11-13T13:35:44Z</time>
      </trkpt>
      <trkpt lat="43.22541" lon="6.5422">
        <ele>193.3</ele>
        <time>2016-11-13T13:35:52Z</time>
      </trkpt>
      <trkpt lat="43.22544" lon="6.54231">
        <ele>191.4</ele>
        <time>2016-11-13T13:36:01Z</time>
      </trkpt>
      <trkpt lat="43.22546" lon="6.54245">
        <ele>189.4</ele>
        <time>2016-11-13T13:36:11Z</time>
      </trkpt>
      <trkpt lat="43.22544" lon="6.54259">
        <ele>188.2</ele>
        <time>2016-11-13T13:36:19Z</time>
      </trkpt>
      <trkpt lat="43.22542" lon="6.54273">
        <ele>187.1</ele>
        <time>2016-11-13T13:36:27Z</time>
      </trkpt>
      <trkpt lat="43.22545" lon="6.54285">
        <ele>185.9</ele>
        <time>2016-11-13T13:36:41Z</time>
      </trkpt>
      <trkpt lat="43.2255" lon="6.54298">
        <ele>185.4</ele>
        <time>2016-11-13T13:36:50Z</time>
      </trkpt>
      <trkpt lat="43.22555" lon="6.54309">
        <ele>185.1</ele>
        <time>2016-11-13T13:36:59Z</time>
      </trkpt>
      <trkpt lat="43.22558" lon="6.54322">
        <ele>184.5</ele>
        <time>2016-11-13T13:37:06Z</time>
      </trkpt>
      <trkpt lat="43.22562" lon="6.54333">
        <ele>183.5</ele>
        <time>2016-11-13T13:37:19Z</time>
      </trkpt>
      <trkpt lat="43.22567" lon="6.54344">
        <ele>182.8</ele>
        <time>2016-11-13T13:37:28Z</time>
      </trkpt>
      <trkpt lat="43.22572" lon="6.54354">
        <ele>181.2</ele>
        <time>2016-11-13T13:37:38Z</time>
      </trkpt>
      <trkpt lat="43.22581" lon="6.54361">
        <ele>179.9</ele>
        <time>2016-11-13T13:37:47Z</time>
      </trkpt>
      <trkpt lat="43.22589" lon="6.54367">
        <ele>178.4</ele>
        <time>2016-11-13T13:37:55Z</time>
      </trkpt>
      <trkpt lat="43.22597" lon="6.54374">
        <ele>176.5</ele>
        <time>2016-11-13T13:38:06Z</time>
      </trkpt>
      <trkpt lat="43.22607" lon="6.54378">
        <ele>175</ele>
        <time>2016-11-13T13:38:14Z</time>
      </trkpt>
      <trkpt lat="43.22616" lon="6.54381">
        <ele>173.1</ele>
        <time>2016-11-13T13:38:24Z</time>
      </trkpt>
      <trkpt lat="43.22622" lon="6.54393">
        <ele>170.2</ele>
        <time>2016-11-13T13:38:37Z</time>
      </trkpt>
      <trkpt lat="43.22622" lon="6.54405">
        <ele>168.4</ele>
        <time>2016-11-13T13:38:46Z</time>
      </trkpt>
      <trkpt lat="43.22625" lon="6.54418">
        <ele>166.6</ele>
        <time>2016-11-13T13:38:54Z</time>
      </trkpt>
      <trkpt lat="43.2263" lon="6.54429">
        <ele>165.1</ele>
        <time>2016-11-13T13:39:03Z</time>
      </trkpt>
      <trkpt lat="43.22632" lon="6.54442">
        <ele>163.8</ele>
        <time>2016-11-13T13:39:11Z</time>
      </trkpt>
      <trkpt lat="43.22633" lon="6.54454">
        <ele>162.4</ele>
        <time>2016-11-13T13:39:21Z</time>
      </trkpt>
      <trkpt lat="43.22633" lon="6.54467">
        <ele>160.9</ele>
        <time>2016-11-13T13:39:32Z</time>
      </trkpt>
      <trkpt lat="43.22628" lon="6.54479">
        <ele>159.3</ele>
        <time>2016-11-13T13:39:43Z</time>
      </trkpt>
      <trkpt lat="43.22624" lon="6.54491">
        <ele>158.3</ele>
        <time>2016-11-13T13:39:50Z</time>
      </trkpt>
      <trkpt lat="43.2262" lon="6.54504">
        <ele>156.9</ele>
        <time>2016-11-13T13:39:59Z</time>
      </trkpt>
      <trkpt lat="43.22617" lon="6.54516">
        <ele>155.8</ele>
        <time>2016-11-13T13:40:08Z</time>
      </trkpt>
      <trkpt lat="43.22616" lon="6.5453">
        <ele>154.9</ele>
        <time>2016-11-13T13:40:17Z</time>
      </trkpt>
      <trkpt lat="43.22614" lon="6.54543">
        <ele>154.3</ele>
        <time>2016-11-13T13:40:23Z</time>
      </trkpt>
      <trkpt lat="43.22615" lon="6.54557">
        <ele>152.8</ele>
        <time>2016-11-13T13:40:34Z</time>
      </trkpt>
      <trkpt lat="43.22614" lon="6.5457">
        <ele>152.2</ele>
        <time>2016-11-13T13:40:41Z</time>
      </trkpt>
      <trkpt lat="43.22616" lon="6.54584">
        <ele>151.8</ele>
        <time>2016-11-13T13:40:48Z</time>
      </trkpt>
      <trkpt lat="43.22617" lon="6.54598">
        <ele>151.4</ele>
        <time>2016-11-13T13:40:57Z</time>
      </trkpt>
      <trkpt lat="43.22619" lon="6.5461">
        <ele>151.1</ele>
        <time>2016-11-13T13:41:06Z</time>
      </trkpt>
      <trkpt lat="43.2262" lon="6.54623">
        <ele>151</ele>
        <time>2016-11-13T13:41:13Z</time>
      </trkpt>
      <trkpt lat="43.22622" lon="6.54635">
        <ele>150.9</ele>
        <time>2016-11-13T13:41:22Z</time>
      </trkpt>
      <trkpt lat="43.22627" lon="6.54645">
        <ele>151</ele>
        <time>2016-11-13T13:41:32Z</time>
      </trkpt>
      <trkpt lat="43.22629" lon="6.54659">
        <ele>151.5</ele>
        <time>2016-11-13T13:41:42Z</time>
      </trkpt>
      <trkpt lat="43.22631" lon="6.54671">
        <ele>151.9</ele>
        <time>2016-11-13T13:41:52Z</time>
      </trkpt>
      <trkpt lat="43.22635" lon="6.54684">
        <ele>151.8</ele>
        <time>2016-11-13T13:42:03Z</time>
      </trkpt>
      <trkpt lat="43.22641" lon="6.54694">
        <ele>151.1</ele>
        <time>2016-11-13T13:42:15Z</time>
      </trkpt>
      <trkpt lat="43.22647" lon="6.54703">
        <ele>150.6</ele>
        <time>2016-11-13T13:42:25Z</time>
      </trkpt>
      <trkpt lat="43.22654" lon="6.54712">
        <ele>149.7</ele>
        <time>2016-11-13T13:42:43Z</time>
      </trkpt>
      <trkpt lat="43.2266" lon="6.54723">
        <ele>149.5</ele>
        <time>2016-11-13T13:42:51Z</time>
      </trkpt>
      <trkpt lat="43.22666" lon="6.54734">
        <ele>149.2</ele>
        <time>2016-11-13T13:43:02Z</time>
      </trkpt>
      <trkpt lat="43.22673" lon="6.54742">
        <ele>148.7</ele>
        <time>2016-11-13T13:43:10Z</time>
      </trkpt>
      <trkpt lat="43.22682" lon="6.54745">
        <ele>148.3</ele>
        <time>2016-11-13T13:43:17Z</time>
      </trkpt>
      <trkpt lat="43.22691" lon="6.54747">
        <ele>147.7</ele>
        <time>2016-11-13T13:43:24Z</time>
      </trkpt>
      <trkpt lat="43.22699" lon="6.54755">
        <ele>146.3</ele>
        <time>2016-11-13T13:43:34Z</time>
      </trkpt>
      <trkpt lat="43.22707" lon="6.54761">
        <ele>145.1</ele>
        <time>2016-11-13T13:43:43Z</time>
      </trkpt>
      <trkpt lat="43.22716" lon="6.54764">
        <ele>144.2</ele>
        <time>2016-11-13T13:43:49Z</time>
      </trkpt>
      <trkpt lat="43.22726" lon="6.54767">
        <ele>142.9</ele>
        <time>2016-11-13T13:44:01Z</time>
      </trkpt>
      <trkpt lat="43.22734" lon="6.54771">
        <ele>141.7</ele>
        <time>2016-11-13T13:44:17Z</time>
      </trkpt>
      <trkpt lat="43.22742" lon="6.54778">
        <ele>140.9</ele>
        <time>2016-11-13T13:44:25Z</time>
      </trkpt>
      <trkpt lat="43.22751" lon="6.54782">
        <ele>140.1</ele>
        <time>2016-11-13T13:44:33Z</time>
      </trkpt>
      <trkpt lat="43.22761" lon="6.54786">
        <ele>139.3</ele>
        <time>2016-11-13T13:44:41Z</time>
      </trkpt>
      <trkpt lat="43.2277" lon="6.54791">
        <ele>138</ele>
        <time>2016-11-13T13:44:51Z</time>
      </trkpt>
      <trkpt lat="43.22779" lon="6.54792">
        <ele>137.1</ele>
        <time>2016-11-13T13:44:59Z</time>
      </trkpt>
      <trkpt lat="43.22789" lon="6.54796">
        <ele>135.8</ele>
        <time>2016-11-13T13:45:10Z</time>
      </trkpt>
      <trkpt lat="43.22796" lon="6.54805">
        <ele>134.6</ele>
        <time>2016-11-13T13:45:19Z</time>
      </trkpt>
      <trkpt lat="43.22803" lon="6.54814">
        <ele>132.4</ele>
        <time>2016-11-13T13:45:32Z</time>
      </trkpt>
      <trkpt lat="43.22813" lon="6.54818">
        <ele>131.2</ele>
        <time>2016-11-13T13:45:38Z</time>
      </trkpt>
      <trkpt lat="43.22821" lon="6.54827">
        <ele>129.5</ele>
        <time>2016-11-13T13:45:49Z</time>
      </trkpt>
      <trkpt lat="43.22829" lon="6.54834">
        <ele>128.3</ele>
        <time>2016-11-13T13:45:57Z</time>
      </trkpt>
      <trkpt lat="43.22838" lon="6.5484">
        <ele>126.4</ele>
        <time>2016-11-13T13:46:10Z</time>
      </trkpt>
      <trkpt lat="43.22847" lon="6.54842">
        <ele>125.1</ele>
        <time>2016-11-13T13:46:21Z</time>
      </trkpt>
      <trkpt lat="43.22857" lon="6.54845">
        <ele>123.2</ele>
        <time>2016-11-13T13:46:40Z</time>
      </trkpt>
      <trkpt lat="43.22864" lon="6.54852">
        <ele>120.9</ele>
        <time>2016-11-13T13:46:53Z</time>
      </trkpt>
      <trkpt lat="43.22873" lon="6.54857">
        <ele>119.8</ele>
        <time>2016-11-13T13:46:59Z</time>
      </trkpt>
      <trkpt lat="43.22882" lon="6.5486">
        <ele>118.4</ele>
        <time>2016-11-13T13:47:06Z</time>
      </trkpt>
      <trkpt lat="43.22892" lon="6.54864">
        <ele>117.3</ele>
        <time>2016-11-13T13:47:12Z</time>
      </trkpt>
      <trkpt lat="43.22902" lon="6.54865">
        <ele>116</ele>
        <time>2016-11-13T13:47:21Z</time>
      </trkpt>
      <trkpt lat="43.2291" lon="6.54869">
        <ele>114.6</ele>
        <time>2016-11-13T13:47:30Z</time>
      </trkpt>
      <trkpt lat="43.22919" lon="6.54874">
        <ele>113.1</ele>
        <time>2016-11-13T13:47:38Z</time>
      </trkpt>
      <trkpt lat="43.22929" lon="6.54873">
        <ele>111.9</ele>
        <time>2016-11-13T13:47:46Z</time>
      </trkpt>
      <trkpt lat="43.22939" lon="6.54873">
        <ele>109.7</ele>
        <time>2016-11-13T13:47:59Z</time>
      </trkpt>
      <trkpt lat="43.22949" lon="6.54873">
        <ele>107.6</ele>
        <time>2016-11-13T13:48:08Z</time>
      </trkpt>
      <trkpt lat="43.22957" lon="6.5487">
        <ele>105.9</ele>
        <time>2016-11-13T13:48:16Z</time>
      </trkpt>
      <trkpt lat="43.22966" lon="6.54867">
        <ele>104.4</ele>
        <time>2016-11-13T13:48:25Z</time>
      </trkpt>
      <trkpt lat="43.22976" lon="6.54864">
        <ele>102.5</ele>
        <time>2016-11-13T13:48:35Z</time>
      </trkpt>
      <trkpt lat="43.22986" lon="6.5486">
        <ele>100.6</ele>
        <time>2016-11-13T13:48:43Z</time>
      </trkpt>
      <trkpt lat="43.22996" lon="6.54856">
        <ele>97.9</ele>
        <time>2016-11-13T13:48:55Z</time>
      </trkpt>
      <trkpt lat="43.23005" lon="6.54854">
        <ele>96</ele>
        <time>2016-11-13T13:49:04Z</time>
      </trkpt>
      <trkpt lat="43.23013" lon="6.5485">
        <ele>93.4</ele>
        <time>2016-11-13T13:49:16Z</time>
      </trkpt>
      <trkpt lat="43.23022" lon="6.54844">
        <ele>91.7</ele>
        <time>2016-11-13T13:49:24Z</time>
      </trkpt>
      <trkpt lat="43.2303" lon="6.5484">
        <ele>90.2</ele>
        <time>2016-11-13T13:49:32Z</time>
      </trkpt>
      <trkpt lat="43.2304" lon="6.54835">
        <ele>87.8</ele>
        <time>2016-11-13T13:49:44Z</time>
      </trkpt>
      <trkpt lat="43.23049" lon="6.54836">
        <ele>85.8</ele>
        <time>2016-11-13T13:49:53Z</time>
      </trkpt>
      <trkpt lat="43.23058" lon="6.54835">
        <ele>84.3</ele>
        <time>2016-11-13T13:50:01Z</time>
      </trkpt>
      <trkpt lat="43.23068" lon="6.54832">
        <ele>81.9</ele>
        <time>2016-11-13T13:50:12Z</time>
      </trkpt>
      <trkpt lat="43.23077" lon="6.54832">
        <ele>79.8</ele>
        <time>2016-11-13T13:50:22Z</time>
      </trkpt>
      <trkpt lat="43.23086" lon="6.5483">
        <ele>78.8</ele>
        <time>2016-11-13T13:50:27Z</time>
      </trkpt>
      <trkpt lat="43.23096" lon="6.54828">
        <ele>77.2</ele>
        <time>2016-11-13T13:50:36Z</time>
      </trkpt>
      <trkpt lat="43.23105" lon="6.54825">
        <ele>75.6</ele>
        <time>2016-11-13T13:50:45Z</time>
      </trkpt>
      <trkpt lat="43.2311" lon="6.54815">
        <ele>73.6</ele>
        <time>2016-11-13T13:51:06Z</time>
      </trkpt>
      <trkpt lat="43.23116" lon="6.54804">
        <ele>71.8</ele>
        <time>2016-11-13T13:54:58Z</time>
      </trkpt>
      <trkpt lat="43.23119" lon="6.54792">
        <ele>72.1</ele>
        <time>2016-11-13T13:55:09Z</time>
      </trkpt>
      <trkpt lat="43.23123" lon="6.5478">
        <ele>71</ele>
        <time>2016-11-13T13:55:26Z</time>
      </trkpt>
      <trkpt lat="43.23124" lon="6.54768">
        <ele>69.4</ele>
        <time>2016-11-13T13:55:37Z</time>
      </trkpt>
      <trkpt lat="43.23125" lon="6.54756">
        <ele>66.4</ele>
        <time>2016-11-13T13:55:54Z</time>
      </trkpt>
      <trkpt lat="43.23133" lon="6.54749">
        <ele>64</ele>
        <time>2016-11-13T13:56:09Z</time>
      </trkpt>
      <trkpt lat="43.2314" lon="6.54741">
        <ele>62.5</ele>
        <time>2016-11-13T13:56:20Z</time>
      </trkpt>
      <trkpt lat="43.23137" lon="6.54728">
        <ele>61.7</ele>
        <time>2016-11-13T13:56:28Z</time>
      </trkpt>
      <trkpt lat="43.23139" lon="6.54716">
        <ele>60.5</ele>
        <time>2016-11-13T13:56:37Z</time>
      </trkpt>
      <trkpt lat="43.23144" lon="6.54706">
        <ele>58.9</ele>
        <time>2016-11-13T13:56:47Z</time>
      </trkpt>
      <trkpt lat="43.23149" lon="6.54696">
        <ele>57</ele>
        <time>2016-11-13T13:56:58Z</time>
      </trkpt>
      <trkpt lat="43.23155" lon="6.54685">
        <ele>55.3</ele>
        <time>2016-11-13T13:57:08Z</time>
      </trkpt>
      <trkpt lat="43.23163" lon="6.54677">
        <ele>53.8</ele>
        <time>2016-11-13T13:57:17Z</time>
      </trkpt>
      <trkpt lat="43.2317" lon="6.54669">
        <ele>52.7</ele>
        <time>2016-11-13T13:57:27Z</time>
      </trkpt>
      <trkpt lat="43.23178" lon="6.54662">
        <ele>50.9</ele>
        <time>2016-11-13T13:57:46Z</time>
      </trkpt>
      <trkpt lat="43.23185" lon="6.54654">
        <ele>50.2</ele>
        <time>2016-11-13T13:57:55Z</time>
      </trkpt>
      <trkpt lat="43.23194" lon="6.54646">
        <ele>49.2</ele>
        <time>2016-11-13T13:58:05Z</time>
      </trkpt>
      <trkpt lat="43.23202" lon="6.54641">
        <ele>47.9</ele>
        <time>2016-11-13T13:58:16Z</time>
      </trkpt>
      <trkpt lat="43.23212" lon="6.54642">
        <ele>46.7</ele>
        <time>2016-11-13T13:58:26Z</time>
      </trkpt>
      <trkpt lat="43.23222" lon="6.54644">
        <ele>45.8</ele>
        <time>2016-11-13T13:58:34Z</time>
      </trkpt>
      <trkpt lat="43.23231" lon="6.54643">
        <ele>44.3</ele>
        <time>2016-11-13T13:58:45Z</time>
      </trkpt>
      <trkpt lat="43.23241" lon="6.54641">
        <ele>42.9</ele>
        <time>2016-11-13T13:58:53Z</time>
      </trkpt>
      <trkpt lat="43.2325" lon="6.54638">
        <ele>41.7</ele>
        <time>2016-11-13T13:59:03Z</time>
      </trkpt>
      <trkpt lat="43.23259" lon="6.54636">
        <ele>40.9</ele>
        <time>2016-11-13T13:59:09Z</time>
      </trkpt>
      <trkpt lat="43.23267" lon="6.5463">
        <ele>40.2</ele>
        <time>2016-11-13T13:59:16Z</time>
      </trkpt>
      <trkpt lat="43.23275" lon="6.54623">
        <ele>39.5</ele>
        <time>2016-11-13T13:59:21Z</time>
      </trkpt>
      <trkpt lat="43.23281" lon="6.54612">
        <ele>38.8</ele>
        <time>2016-11-13T13:59:29Z</time>
      </trkpt>
      <trkpt lat="43.23288" lon="6.54601">
        <ele>38.1</ele>
        <time>2016-11-13T13:59:37Z</time>
      </trkpt>
      <trkpt lat="43.23294" lon="6.54591">
        <ele>37.3</ele>
        <time>2016-11-13T13:59:44Z</time>
      </trkpt>
      <trkpt lat="43.23301" lon="6.54583">
        <ele>36.6</ele>
        <time>2016-11-13T13:59:50Z</time>
      </trkpt>
      <trkpt lat="43.23307" lon="6.54572">
        <ele>35.8</ele>
        <time>2016-11-13T13:59:59Z</time>
      </trkpt>
      <trkpt lat="43.23314" lon="6.54563">
        <ele>35.1</ele>
        <time>2016-11-13T14:00:07Z</time>
      </trkpt>
      <trkpt lat="43.23321" lon="6.54553">
        <ele>34.6</ele>
        <time>2016-11-13T14:00:16Z</time>
      </trkpt>
      <trkpt lat="43.23328" lon="6.54543">
        <ele>34.2</ele>
        <time>2016-11-13T14:00:24Z</time>
      </trkpt>
      <trkpt lat="43.23335" lon="6.54534">
        <ele>33.5</ele>
        <time>2016-11-13T14:00:34Z</time>
      </trkpt>
      <trkpt lat="43.23344" lon="6.54528">
        <ele>33</ele>
        <time>2016-11-13T14:00:42Z</time>
      </trkpt>
      <trkpt lat="43.23352" lon="6.5452">
        <ele>32.6</ele>
        <time>2016-11-13T14:00:52Z</time>
      </trkpt>
      <trkpt lat="43.23361" lon="6.54518">
        <ele>32.2</ele>
        <time>2016-11-13T14:01:01Z</time>
      </trkpt>
      <trkpt lat="43.2337" lon="6.54514">
        <ele>31.9</ele>
        <time>2016-11-13T14:01:10Z</time>
      </trkpt>
      <trkpt lat="43.23379" lon="6.54511">
        <ele>31.7</ele>
        <time>2016-11-13T14:01:18Z</time>
      </trkpt>
      <trkpt lat="43.23388" lon="6.54506">
        <ele>31.7</ele>
        <time>2016-11-13T14:01:29Z</time>
      </trkpt>
      <trkpt lat="43.23398" lon="6.54502">
        <ele>31.8</ele>
        <time>2016-11-13T14:01:38Z</time>
      </trkpt>
      <trkpt lat="43.23408" lon="6.54499">
        <ele>31.9</ele>
        <time>2016-11-13T14:01:46Z</time>
      </trkpt>
      <trkpt lat="43.23417" lon="6.54494">
        <ele>32.6</ele>
        <time>2016-11-13T14:01:59Z</time>
      </trkpt>
      <trkpt lat="43.23426" lon="6.54488">
        <ele>33</ele>
        <time>2016-11-13T14:02:08Z</time>
      </trkpt>
      <trkpt lat="43.23435" lon="6.54485">
        <ele>33.2</ele>
        <time>2016-11-13T14:02:16Z</time>
      </trkpt>
      <trkpt lat="43.23445" lon="6.54483">
        <ele>33.5</ele>
        <time>2016-11-13T14:02:24Z</time>
      </trkpt>
      <trkpt lat="43.23455" lon="6.54479">
        <ele>33.8</ele>
        <time>2016-11-13T14:02:32Z</time>
      </trkpt>
      <trkpt lat="43.23464" lon="6.54477">
        <ele>34</ele>
        <time>2016-11-13T14:02:41Z</time>
      </trkpt>
      <trkpt lat="43.23473" lon="6.54473">
        <ele>34.2</ele>
        <time>2016-11-13T14:02:50Z</time>
      </trkpt>
      <trkpt lat="43.23482" lon="6.5447">
        <ele>34.4</ele>
        <time>2016-11-13T14:02:56Z</time>
      </trkpt>
      <trkpt lat="43.23492" lon="6.54466">
        <ele>34.1</ele>
        <time>2016-11-13T14:03:07Z</time>
      </trkpt>
      <trkpt lat="43.23501" lon="6.54463">
        <ele>33.6</ele>
        <time>2016-11-13T14:03:15Z</time>
      </trkpt>
      <trkpt lat="43.23509" lon="6.54457">
        <ele>32.7</ele>
        <time>2016-11-13T14:03:26Z</time>
      </trkpt>
      <trkpt lat="43.23518" lon="6.54452">
        <ele>32.1</ele>
        <time>2016-11-13T14:03:34Z</time>
      </trkpt>
      <trkpt lat="43.23527" lon="6.54447">
        <ele>31.7</ele>
        <time>2016-11-13T14:03:40Z</time>
      </trkpt>
      <trkpt lat="43.23536" lon="6.54443">
        <ele>30.7</ele>
        <time>2016-11-13T14:03:49Z</time>
      </trkpt>
      <trkpt lat="43.23544" lon="6.54436">
        <ele>29.9</ele>
        <time>2016-11-13T14:03:57Z</time>
      </trkpt>
      <trkpt lat="43.23549" lon="6.54425">
        <ele>29.5</ele>
        <time>2016-11-13T14:04:04Z</time>
      </trkpt>
      <trkpt lat="43.23557" lon="6.54417">
        <ele>29.2</ele>
        <time>2016-11-13T14:04:12Z</time>
      </trkpt>
      <trkpt lat="43.23563" lon="6.54408">
        <ele>28.5</ele>
        <time>2016-11-13T14:04:23Z</time>
      </trkpt>
      <trkpt lat="43.23569" lon="6.54396">
        <ele>27.9</ele>
        <time>2016-11-13T14:04:33Z</time>
      </trkpt>
      <trkpt lat="43.23574" lon="6.54386">
        <ele>27.6</ele>
        <time>2016-11-13T14:04:42Z</time>
      </trkpt>
      <trkpt lat="43.2358" lon="6.54376">
        <ele>26.9</ele>
        <time>2016-11-13T14:04:50Z</time>
      </trkpt>
      <trkpt lat="43.23586" lon="6.54366">
        <ele>26.3</ele>
        <time>2016-11-13T14:04:58Z</time>
      </trkpt>
      <trkpt lat="43.23593" lon="6.54357">
        <ele>25.5</ele>
        <time>2016-11-13T14:05:06Z</time>
      </trkpt>
      <trkpt lat="43.23599" lon="6.54346">
        <ele>24.6</ele>
        <time>2016-11-13T14:05:15Z</time>
      </trkpt>
      <trkpt lat="43.23604" lon="6.54336">
        <ele>23.8</ele>
        <time>2016-11-13T14:05:23Z</time>
      </trkpt>
      <trkpt lat="43.2361" lon="6.54326">
        <ele>22.8</ele>
        <time>2016-11-13T14:05:32Z</time>
      </trkpt>
      <trkpt lat="43.23618" lon="6.54317">
        <ele>21.9</ele>
        <time>2016-11-13T14:05:39Z</time>
      </trkpt>
      <trkpt lat="43.23626" lon="6.5431">
        <ele>21.1</ele>
        <time>2016-11-13T14:05:47Z</time>
      </trkpt>
      <trkpt lat="43.23633" lon="6.54302">
        <ele>20.3</ele>
        <time>2016-11-13T14:05:56Z</time>
      </trkpt>
      <trkpt lat="43.23639" lon="6.54293">
        <ele>19.8</ele>
        <time>2016-11-13T14:06:04Z</time>
      </trkpt>
      <trkpt lat="43.23645" lon="6.54282">
        <ele>19</ele>
        <time>2016-11-13T14:06:13Z</time>
      </trkpt>
      <trkpt lat="43.2365" lon="6.54271">
        <ele>18.2</ele>
        <time>2016-11-13T14:06:21Z</time>
      </trkpt>
      <trkpt lat="43.23657" lon="6.54261">
        <ele>17.7</ele>
        <time>2016-11-13T14:06:29Z</time>
      </trkpt>
      <trkpt lat="43.23665" lon="6.54252">
        <ele>17.4</ele>
        <time>2016-11-13T14:06:38Z</time>
      </trkpt>
      <trkpt lat="43.23673" lon="6.54245">
        <ele>17.2</ele>
        <time>2016-11-13T14:06:46Z</time>
      </trkpt>
      <trkpt lat="43.23682" lon="6.54239">
        <ele>16.8</ele>
        <time>2016-11-13T14:06:54Z</time>
      </trkpt>
      <trkpt lat="43.2369" lon="6.54232">
        <ele>16.2</ele>
        <time>2016-11-13T14:07:03Z</time>
      </trkpt>
      <trkpt lat="43.23698" lon="6.54225">
        <ele>15.6</ele>
        <time>2016-11-13T14:07:12Z</time>
      </trkpt>
      <trkpt lat="43.23706" lon="6.54219">
        <ele>15.1</ele>
        <time>2016-11-13T14:07:20Z</time>
      </trkpt>
      <trkpt lat="43.23714" lon="6.54213">
        <ele>14.4</ele>
        <time>2016-11-13T14:07:29Z</time>
      </trkpt>
      <trkpt lat="43.23723" lon="6.54208">
        <ele>13.9</ele>
        <time>2016-11-13T14:07:41Z</time>
      </trkpt>
      <trkpt lat="43.23723" lon="6.54201">
        <ele>13.6</ele>
        <time>2016-11-13T14:08:08Z</time>
      </trkpt>
    </trkseg>
  </trk>
</gpx>